<?xml version="1.0" encoding="UTF-8" standalone="no" ?>
<gpx xmlns="http://www.topografix.com/GPX/1/1" xmlns:xsi="http://www.w3.org/2001/XMLSchema-instance" xsi:schemaLocation="http://www.topografix.com/GPX/1/1 http://www.topografix.com/GPX/1/1/gpx.xsd" version="1.1" creator="VisuGPX - https://www.visugpx.com">
  <metadata>
    <name>64 - PEDESTRE - Gabas - Du lac de Bious-Aritgue au col des moines</name>
    <desc><![CDATA[Belle journée beaucoup de randonneurs]]></desc>
  </metadata>
  <wpt lat="42.82442" lon="-0.49914">
    <ele>2167</ele>
    <name><![CDATA[Col des Moines]]></name>
    <desc><![CDATA[23-JUL-12 23:37:12]]></desc>
  </wpt>
  <wpt lat="42.85387" lon="-0.45799">
    <ele>1544</ele>
    <name><![CDATA[Pont de Bious]]></name>
    <desc><![CDATA[23-JUL-12 21:14:45]]></desc>
  </wpt>
  <trk>
    <name><![CDATA[Col des Moines depuis parking Bious]]></name>
    <trkseg>
      <trkpt lat="42.87302" lon="-0.44783">
        <ele>1310.414307</ele>
        <time>2012-07-24T07:26:49Z</time>
      </trkpt>
      <trkpt lat="42.87302" lon="-0.44783">
        <ele>1310.414307</ele>
        <time>2012-07-24T07:26:50Z</time>
      </trkpt>
      <trkpt lat="42.87302" lon="-0.44783">
        <ele>1310.89502</ele>
        <time>2012-07-24T07:26:51Z</time>
      </trkpt>
      <trkpt lat="42.873" lon="-0.44788">
        <ele>1309.933594</ele>
        <time>2012-07-24T07:27:04Z</time>
      </trkpt>
      <trkpt lat="42.87286" lon="-0.44809">
        <ele>1310.414307</ele>
        <time>2012-07-24T07:27:26Z</time>
      </trkpt>
      <trkpt lat="42.87275" lon="-0.44833">
        <ele>1311.856445</ele>
        <time>2012-07-24T07:27:47Z</time>
      </trkpt>
      <trkpt lat="42.87264" lon="-0.44847">
        <ele>1312.336914</ele>
        <time>2012-07-24T07:28:04Z</time>
      </trkpt>
      <trkpt lat="42.87256" lon="-0.44853">
        <ele>1312.817627</ele>
        <time>2012-07-24T07:28:13Z</time>
      </trkpt>
      <trkpt lat="42.87241" lon="-0.44859">
        <ele>1315.220947</ele>
        <time>2012-07-24T07:28:32Z</time>
      </trkpt>
      <trkpt lat="42.87225" lon="-0.44864">
        <ele>1317.624023</ele>
        <time>2012-07-24T07:28:52Z</time>
      </trkpt>
      <trkpt lat="42.8721" lon="-0.44864">
        <ele>1318.104736</ele>
        <time>2012-07-24T07:29:10Z</time>
      </trkpt>
      <trkpt lat="42.87194" lon="-0.44868">
        <ele>1318.585449</ele>
        <time>2012-07-24T07:29:27Z</time>
      </trkpt>
      <trkpt lat="42.8718" lon="-0.44879">
        <ele>1319.066162</ele>
        <time>2012-07-24T07:29:43Z</time>
      </trkpt>
      <trkpt lat="42.8718" lon="-0.4488">
        <ele>1319.066162</ele>
        <time>2012-07-24T07:29:44Z</time>
      </trkpt>
      <trkpt lat="42.87177" lon="-0.44885">
        <ele>1319.546875</ele>
        <time>2012-07-24T07:29:49Z</time>
      </trkpt>
      <trkpt lat="42.87165" lon="-0.44895">
        <ele>1320.508057</ele>
        <time>2012-07-24T07:30:05Z</time>
      </trkpt>
      <trkpt lat="42.87157" lon="-0.44903">
        <ele>1321.469238</ele>
        <time>2012-07-24T07:30:18Z</time>
      </trkpt>
      <trkpt lat="42.87144" lon="-0.44918">
        <ele>1322.911377</ele>
        <time>2012-07-24T07:30:35Z</time>
      </trkpt>
      <trkpt lat="42.87137" lon="-0.44924">
        <ele>1323.872559</ele>
        <time>2012-07-24T07:30:45Z</time>
      </trkpt>
      <trkpt lat="42.87134" lon="-0.44924">
        <ele>1324.353516</ele>
        <time>2012-07-24T07:30:48Z</time>
      </trkpt>
      <trkpt lat="42.87128" lon="-0.44933">
        <ele>1326.276123</ele>
        <time>2012-07-24T07:31:00Z</time>
      </trkpt>
      <trkpt lat="42.87121" lon="-0.44936">
        <ele>1326.276123</ele>
        <time>2012-07-24T07:31:09Z</time>
      </trkpt>
      <trkpt lat="42.87117" lon="-0.44936">
        <ele>1326.276123</ele>
        <time>2012-07-24T07:31:13Z</time>
      </trkpt>
      <trkpt lat="42.871" lon="-0.44944">
        <ele>1325.79541</ele>
        <time>2012-07-24T07:31:31Z</time>
      </trkpt>
      <trkpt lat="42.8709" lon="-0.44944">
        <ele>1326.756836</ele>
        <time>2012-07-24T07:31:41Z</time>
      </trkpt>
      <trkpt lat="42.87075" lon="-0.44953">
        <ele>1328.19873</ele>
        <time>2012-07-24T07:31:58Z</time>
      </trkpt>
      <trkpt lat="42.87065" lon="-0.44969">
        <ele>1330.121338</ele>
        <time>2012-07-24T07:32:15Z</time>
      </trkpt>
      <trkpt lat="42.87061" lon="-0.44983">
        <ele>1333.005127</ele>
        <time>2012-07-24T07:32:27Z</time>
      </trkpt>
      <trkpt lat="42.87057" lon="-0.45">
        <ele>1335.88916</ele>
        <time>2012-07-24T07:32:44Z</time>
      </trkpt>
      <trkpt lat="42.87048" lon="-0.45012">
        <ele>1338.773193</ele>
        <time>2012-07-24T07:33:01Z</time>
      </trkpt>
      <trkpt lat="42.87042" lon="-0.45019">
        <ele>1341.657227</ele>
        <time>2012-07-24T07:33:14Z</time>
      </trkpt>
      <trkpt lat="42.87033" lon="-0.45027">
        <ele>1344.541016</ele>
        <time>2012-07-24T07:33:31Z</time>
      </trkpt>
      <trkpt lat="42.87027" lon="-0.4503">
        <ele>1347.425049</ele>
        <time>2012-07-24T07:33:39Z</time>
      </trkpt>
      <trkpt lat="42.8702" lon="-0.45033">
        <ele>1351.270264</ele>
        <time>2012-07-24T07:33:51Z</time>
      </trkpt>
      <trkpt lat="42.87011" lon="-0.45039">
        <ele>1353.192871</ele>
        <time>2012-07-24T07:34:06Z</time>
      </trkpt>
      <trkpt lat="42.87001" lon="-0.45041">
        <ele>1356.076904</ele>
        <time>2012-07-24T07:34:17Z</time>
      </trkpt>
      <trkpt lat="42.86999" lon="-0.45043">
        <ele>1357.999756</ele>
        <time>2012-07-24T07:34:23Z</time>
      </trkpt>
      <trkpt lat="42.86996" lon="-0.45047">
        <ele>1359.922119</ele>
        <time>2012-07-24T07:34:41Z</time>
      </trkpt>
      <trkpt lat="42.86988" lon="-0.45051">
        <ele>1363.286865</ele>
        <time>2012-07-24T07:34:53Z</time>
      </trkpt>
      <trkpt lat="42.86982" lon="-0.45057">
        <ele>1365.209473</ele>
        <time>2012-07-24T07:35:03Z</time>
      </trkpt>
      <trkpt lat="42.86976" lon="-0.45067">
        <ele>1368.573975</ele>
        <time>2012-07-24T07:35:14Z</time>
      </trkpt>
      <trkpt lat="42.86975" lon="-0.45075">
        <ele>1370.977295</ele>
        <time>2012-07-24T07:35:22Z</time>
      </trkpt>
      <trkpt lat="42.86973" lon="-0.45089">
        <ele>1373.861328</ele>
        <time>2012-07-24T07:35:35Z</time>
      </trkpt>
      <trkpt lat="42.86971" lon="-0.45102">
        <ele>1376.745361</ele>
        <time>2012-07-24T07:35:50Z</time>
      </trkpt>
      <trkpt lat="42.86964" lon="-0.451">
        <ele>1378.667969</ele>
        <time>2012-07-24T07:36:05Z</time>
      </trkpt>
      <trkpt lat="42.86966" lon="-0.45095">
        <ele>1379.148438</ele>
        <time>2012-07-24T07:36:12Z</time>
      </trkpt>
      <trkpt lat="42.86967" lon="-0.45088">
        <ele>1380.109863</ele>
        <time>2012-07-24T07:36:19Z</time>
      </trkpt>
      <trkpt lat="42.86964" lon="-0.45083">
        <ele>1380.590576</ele>
        <time>2012-07-24T07:36:34Z</time>
      </trkpt>
      <trkpt lat="42.86962" lon="-0.45075">
        <ele>1382.513184</ele>
        <time>2012-07-24T07:37:05Z</time>
      </trkpt>
      <trkpt lat="42.8696" lon="-0.45056">
        <ele>1383.474365</ele>
        <time>2012-07-24T07:37:21Z</time>
      </trkpt>
      <trkpt lat="42.86959" lon="-0.45038">
        <ele>1386.838867</ele>
        <time>2012-07-24T07:37:35Z</time>
      </trkpt>
      <trkpt lat="42.86958" lon="-0.45022">
        <ele>1388.761963</ele>
        <time>2012-07-24T07:37:48Z</time>
      </trkpt>
      <trkpt lat="42.8696" lon="-0.44997">
        <ele>1392.126465</ele>
        <time>2012-07-24T07:38:09Z</time>
      </trkpt>
      <trkpt lat="42.86961" lon="-0.44993">
        <ele>1392.126465</ele>
        <time>2012-07-24T07:38:12Z</time>
      </trkpt>
      <trkpt lat="42.86961" lon="-0.44989">
        <ele>1392.607178</ele>
        <time>2012-07-24T07:38:15Z</time>
      </trkpt>
      <trkpt lat="42.86962" lon="-0.44963">
        <ele>1395.010254</ele>
        <time>2012-07-24T07:38:36Z</time>
      </trkpt>
      <trkpt lat="42.86965" lon="-0.44941">
        <ele>1396.452393</ele>
        <time>2012-07-24T07:38:54Z</time>
      </trkpt>
      <trkpt lat="42.86969" lon="-0.44922">
        <ele>1398.374756</ele>
        <time>2012-07-24T07:39:10Z</time>
      </trkpt>
      <trkpt lat="42.86969" lon="-0.44896">
        <ele>1401.258789</ele>
        <time>2012-07-24T07:39:30Z</time>
      </trkpt>
      <trkpt lat="42.8697" lon="-0.44877">
        <ele>1403.662109</ele>
        <time>2012-07-24T07:39:47Z</time>
      </trkpt>
      <trkpt lat="42.86969" lon="-0.44876">
        <ele>1403.662109</ele>
        <time>2012-07-24T07:39:48Z</time>
      </trkpt>
      <trkpt lat="42.86965" lon="-0.44859">
        <ele>1406.546143</ele>
        <time>2012-07-24T07:40:03Z</time>
      </trkpt>
      <trkpt lat="42.86966" lon="-0.44854">
        <ele>1407.026855</ele>
        <time>2012-07-24T07:40:05Z</time>
      </trkpt>
      <trkpt lat="42.86958" lon="-0.44837">
        <ele>1408.949463</ele>
        <time>2012-07-24T07:40:22Z</time>
      </trkpt>
      <trkpt lat="42.86954" lon="-0.4483">
        <ele>1409.910645</ele>
        <time>2012-07-24T07:40:28Z</time>
      </trkpt>
      <trkpt lat="42.86948" lon="-0.44808">
        <ele>1411.352783</ele>
        <time>2012-07-24T07:40:47Z</time>
      </trkpt>
      <trkpt lat="42.86941" lon="-0.44798">
        <ele>1412.313965</ele>
        <time>2012-07-24T07:40:57Z</time>
      </trkpt>
      <trkpt lat="42.8693" lon="-0.44794">
        <ele>1414.236572</ele>
        <time>2012-07-24T07:41:10Z</time>
      </trkpt>
      <trkpt lat="42.86912" lon="-0.44802">
        <ele>1418.081787</ele>
        <time>2012-07-24T07:41:28Z</time>
      </trkpt>
      <trkpt lat="42.86911" lon="-0.44803">
        <ele>1417.601074</ele>
        <time>2012-07-24T07:41:30Z</time>
      </trkpt>
      <trkpt lat="42.869" lon="-0.44809">
        <ele>1418.5625</ele>
        <time>2012-07-24T07:41:41Z</time>
      </trkpt>
      <trkpt lat="42.86885" lon="-0.4482">
        <ele>1420.004639</ele>
        <time>2012-07-24T07:41:59Z</time>
      </trkpt>
      <trkpt lat="42.86879" lon="-0.44826">
        <ele>1419.523926</ele>
        <time>2012-07-24T07:42:18Z</time>
      </trkpt>
      <trkpt lat="42.86879" lon="-0.44826">
        <ele>1420.004639</ele>
        <time>2012-07-24T07:42:37Z</time>
      </trkpt>
      <trkpt lat="42.86877" lon="-0.44826">
        <ele>1420.485352</ele>
        <time>2012-07-24T07:42:39Z</time>
      </trkpt>
      <trkpt lat="42.86855" lon="-0.44834">
        <ele>1420.004639</ele>
        <time>2012-07-24T07:43:02Z</time>
      </trkpt>
      <trkpt lat="42.86849" lon="-0.44834">
        <ele>1420.485352</ele>
        <time>2012-07-24T07:43:19Z</time>
      </trkpt>
      <trkpt lat="42.86852" lon="-0.44847">
        <ele>1419.043213</ele>
        <time>2012-07-24T07:43:35Z</time>
      </trkpt>
      <trkpt lat="42.86845" lon="-0.44847">
        <ele>1420.004639</ele>
        <time>2012-07-24T07:44:00Z</time>
      </trkpt>
      <trkpt lat="42.86849" lon="-0.4485">
        <ele>1420.485352</ele>
        <time>2012-07-24T07:44:39Z</time>
      </trkpt>
      <trkpt lat="42.86843" lon="-0.4486">
        <ele>1420.485352</ele>
        <time>2012-07-24T07:44:55Z</time>
      </trkpt>
      <trkpt lat="42.8684" lon="-0.44864">
        <ele>1420.485352</ele>
        <time>2012-07-24T07:45:25Z</time>
      </trkpt>
      <trkpt lat="42.86835" lon="-0.44873">
        <ele>1420.966064</ele>
        <time>2012-07-24T07:45:40Z</time>
      </trkpt>
      <trkpt lat="42.86826" lon="-0.44904">
        <ele>1420.966064</ele>
        <time>2012-07-24T07:46:01Z</time>
      </trkpt>
      <trkpt lat="42.86817" lon="-0.44932">
        <ele>1420.966064</ele>
        <time>2012-07-24T07:46:21Z</time>
      </trkpt>
      <trkpt lat="42.86806" lon="-0.44959">
        <ele>1424.330566</ele>
        <time>2012-07-24T07:46:42Z</time>
      </trkpt>
      <trkpt lat="42.86786" lon="-0.44989">
        <ele>1424.330566</ele>
        <time>2012-07-24T07:47:08Z</time>
      </trkpt>
      <trkpt lat="42.86764" lon="-0.45011">
        <ele>1422.407959</ele>
        <time>2012-07-24T07:47:32Z</time>
      </trkpt>
      <trkpt lat="42.86755" lon="-0.45023">
        <ele>1422.888672</ele>
        <time>2012-07-24T07:47:50Z</time>
      </trkpt>
      <trkpt lat="42.8674" lon="-0.45028">
        <ele>1423.369385</ele>
        <time>2012-07-24T07:48:03Z</time>
      </trkpt>
      <trkpt lat="42.86723" lon="-0.45027">
        <ele>1426.253174</ele>
        <time>2012-07-24T07:48:19Z</time>
      </trkpt>
      <trkpt lat="42.86707" lon="-0.45012">
        <ele>1425.291748</ele>
        <time>2012-07-24T07:48:34Z</time>
      </trkpt>
      <trkpt lat="42.86701" lon="-0.4501">
        <ele>1425.772461</ele>
        <time>2012-07-24T07:48:38Z</time>
      </trkpt>
      <trkpt lat="42.86678" lon="-0.45008">
        <ele>1427.2146</ele>
        <time>2012-07-24T07:48:57Z</time>
      </trkpt>
      <trkpt lat="42.86664" lon="-0.45004">
        <ele>1427.695068</ele>
        <time>2012-07-24T07:49:10Z</time>
      </trkpt>
      <trkpt lat="42.86649" lon="-0.44999">
        <ele>1427.2146</ele>
        <time>2012-07-24T07:49:24Z</time>
      </trkpt>
      <trkpt lat="42.86624" lon="-0.44999">
        <ele>1427.695068</ele>
        <time>2012-07-24T07:49:45Z</time>
      </trkpt>
      <trkpt lat="42.86596" lon="-0.45012">
        <ele>1425.772461</ele>
        <time>2012-07-24T07:50:07Z</time>
      </trkpt>
      <trkpt lat="42.86575" lon="-0.45032">
        <ele>1426.253174</ele>
        <time>2012-07-24T07:50:27Z</time>
      </trkpt>
      <trkpt lat="42.86554" lon="-0.45044">
        <ele>1424.330566</ele>
        <time>2012-07-24T07:50:47Z</time>
      </trkpt>
      <trkpt lat="42.86533" lon="-0.4504">
        <ele>1423.849854</ele>
        <time>2012-07-24T07:51:04Z</time>
      </trkpt>
      <trkpt lat="42.86511" lon="-0.45023">
        <ele>1423.369385</ele>
        <time>2012-07-24T07:51:23Z</time>
      </trkpt>
      <trkpt lat="42.8651" lon="-0.45022">
        <ele>1423.369385</ele>
        <time>2012-07-24T07:51:24Z</time>
      </trkpt>
      <trkpt lat="42.86504" lon="-0.45018">
        <ele>1423.849854</ele>
        <time>2012-07-24T07:51:31Z</time>
      </trkpt>
      <trkpt lat="42.86498" lon="-0.45012">
        <ele>1423.849854</ele>
        <time>2012-07-24T07:51:36Z</time>
      </trkpt>
      <trkpt lat="42.86481" lon="-0.44997">
        <ele>1424.330566</ele>
        <time>2012-07-24T07:51:52Z</time>
      </trkpt>
      <trkpt lat="42.86465" lon="-0.4498">
        <ele>1423.849854</ele>
        <time>2012-07-24T07:52:09Z</time>
      </trkpt>
      <trkpt lat="42.86446" lon="-0.44979">
        <ele>1424.811279</ele>
        <time>2012-07-24T07:52:21Z</time>
      </trkpt>
      <trkpt lat="42.86442" lon="-0.44982">
        <ele>1425.291748</ele>
        <time>2012-07-24T07:52:26Z</time>
      </trkpt>
      <trkpt lat="42.86433" lon="-0.45003">
        <ele>1427.695068</ele>
        <time>2012-07-24T07:52:43Z</time>
      </trkpt>
      <trkpt lat="42.86435" lon="-0.45021">
        <ele>1429.136963</ele>
        <time>2012-07-24T07:52:57Z</time>
      </trkpt>
      <trkpt lat="42.86431" lon="-0.45039">
        <ele>1431.059814</ele>
        <time>2012-07-24T07:53:12Z</time>
      </trkpt>
      <trkpt lat="42.86425" lon="-0.4506">
        <ele>1432.501709</ele>
        <time>2012-07-24T07:53:28Z</time>
      </trkpt>
      <trkpt lat="42.86422" lon="-0.45083">
        <ele>1434.424316</ele>
        <time>2012-07-24T07:53:44Z</time>
      </trkpt>
      <trkpt lat="42.86424" lon="-0.45101">
        <ele>1436.347168</ele>
        <time>2012-07-24T07:53:58Z</time>
      </trkpt>
      <trkpt lat="42.86423" lon="-0.45106">
        <ele>1437.30835</ele>
        <time>2012-07-24T07:54:02Z</time>
      </trkpt>
      <trkpt lat="42.86415" lon="-0.45123">
        <ele>1438.269775</ele>
        <time>2012-07-24T07:54:15Z</time>
      </trkpt>
      <trkpt lat="42.86403" lon="-0.45142">
        <ele>1438.269775</ele>
        <time>2012-07-24T07:54:31Z</time>
      </trkpt>
      <trkpt lat="42.86396" lon="-0.45152">
        <ele>1438.750488</ele>
        <time>2012-07-24T07:54:43Z</time>
      </trkpt>
      <trkpt lat="42.86389" lon="-0.4516">
        <ele>1438.750488</ele>
        <time>2012-07-24T07:54:54Z</time>
      </trkpt>
      <trkpt lat="42.86373" lon="-0.45169">
        <ele>1438.269775</ele>
        <time>2012-07-24T07:55:07Z</time>
      </trkpt>
      <trkpt lat="42.86359" lon="-0.45184">
        <ele>1438.269775</ele>
        <time>2012-07-24T07:55:23Z</time>
      </trkpt>
      <trkpt lat="42.86351" lon="-0.45189">
        <ele>1437.789062</ele>
        <time>2012-07-24T07:55:30Z</time>
      </trkpt>
      <trkpt lat="42.86321" lon="-0.45199">
        <ele>1437.789062</ele>
        <time>2012-07-24T07:55:50Z</time>
      </trkpt>
      <trkpt lat="42.86293" lon="-0.45205">
        <ele>1438.750488</ele>
        <time>2012-07-24T07:56:07Z</time>
      </trkpt>
      <trkpt lat="42.86283" lon="-0.45211">
        <ele>1439.230957</ele>
        <time>2012-07-24T07:56:19Z</time>
      </trkpt>
      <trkpt lat="42.86266" lon="-0.45224">
        <ele>1440.672852</ele>
        <time>2012-07-24T07:56:34Z</time>
      </trkpt>
      <trkpt lat="42.86249" lon="-0.45238">
        <ele>1439.71167</ele>
        <time>2012-07-24T07:56:49Z</time>
      </trkpt>
      <trkpt lat="42.86238" lon="-0.45256">
        <ele>1440.192383</ele>
        <time>2012-07-24T07:57:04Z</time>
      </trkpt>
      <trkpt lat="42.86229" lon="-0.45272">
        <ele>1440.192383</ele>
        <time>2012-07-24T07:57:18Z</time>
      </trkpt>
      <trkpt lat="42.86215" lon="-0.45288">
        <ele>1440.192383</ele>
        <time>2012-07-24T07:57:33Z</time>
      </trkpt>
      <trkpt lat="42.86199" lon="-0.45308">
        <ele>1440.192383</ele>
        <time>2012-07-24T07:57:51Z</time>
      </trkpt>
      <trkpt lat="42.86193" lon="-0.45321">
        <ele>1440.192383</ele>
        <time>2012-07-24T07:58:02Z</time>
      </trkpt>
      <trkpt lat="42.86184" lon="-0.45337">
        <ele>1440.672852</ele>
        <time>2012-07-24T07:58:16Z</time>
      </trkpt>
      <trkpt lat="42.86178" lon="-0.45347">
        <ele>1441.153564</ele>
        <time>2012-07-24T07:58:24Z</time>
      </trkpt>
      <trkpt lat="42.86169" lon="-0.45362">
        <ele>1443.556885</ele>
        <time>2012-07-24T07:58:37Z</time>
      </trkpt>
      <trkpt lat="42.86157" lon="-0.45375">
        <ele>1446.440918</ele>
        <time>2012-07-24T07:58:51Z</time>
      </trkpt>
      <trkpt lat="42.8615" lon="-0.45382">
        <ele>1447.882812</ele>
        <time>2012-07-24T07:59:00Z</time>
      </trkpt>
      <trkpt lat="42.86142" lon="-0.45399">
        <ele>1449.80542</ele>
        <time>2012-07-24T07:59:16Z</time>
      </trkpt>
      <trkpt lat="42.86131" lon="-0.45409">
        <ele>1451.247314</ele>
        <time>2012-07-24T07:59:31Z</time>
      </trkpt>
      <trkpt lat="42.86128" lon="-0.45411">
        <ele>1451.247314</ele>
        <time>2012-07-24T07:59:35Z</time>
      </trkpt>
      <trkpt lat="42.86117" lon="-0.45414">
        <ele>1452.689453</ele>
        <time>2012-07-24T07:59:48Z</time>
      </trkpt>
      <trkpt lat="42.86103" lon="-0.45416">
        <ele>1454.612061</ele>
        <time>2012-07-24T08:00:04Z</time>
      </trkpt>
      <trkpt lat="42.8609" lon="-0.45417">
        <ele>1457.496094</ele>
        <time>2012-07-24T08:00:17Z</time>
      </trkpt>
      <trkpt lat="42.86074" lon="-0.45416">
        <ele>1460.379883</ele>
        <time>2012-07-24T08:00:32Z</time>
      </trkpt>
      <trkpt lat="42.86073" lon="-0.45416">
        <ele>1460.379883</ele>
        <time>2012-07-24T08:00:33Z</time>
      </trkpt>
      <trkpt lat="42.86065" lon="-0.45419">
        <ele>1461.341309</ele>
        <time>2012-07-24T08:00:45Z</time>
      </trkpt>
      <trkpt lat="42.86053" lon="-0.45429">
        <ele>1463.263916</ele>
        <time>2012-07-24T08:01:01Z</time>
      </trkpt>
      <trkpt lat="42.8604" lon="-0.45432">
        <ele>1466.628418</ele>
        <time>2012-07-24T08:01:17Z</time>
      </trkpt>
      <trkpt lat="42.86026" lon="-0.45432">
        <ele>1468.55127</ele>
        <time>2012-07-24T08:01:34Z</time>
      </trkpt>
      <trkpt lat="42.86009" lon="-0.4543">
        <ele>1470.473877</ele>
        <time>2012-07-24T08:01:53Z</time>
      </trkpt>
      <trkpt lat="42.85993" lon="-0.45433">
        <ele>1471.915771</ele>
        <time>2012-07-24T08:02:09Z</time>
      </trkpt>
      <trkpt lat="42.85979" lon="-0.45435">
        <ele>1473.35791</ele>
        <time>2012-07-24T08:02:22Z</time>
      </trkpt>
      <trkpt lat="42.85963" lon="-0.45438">
        <ele>1476.241699</ele>
        <time>2012-07-24T08:02:39Z</time>
      </trkpt>
      <trkpt lat="42.85953" lon="-0.45438">
        <ele>1478.164307</ele>
        <time>2012-07-24T08:02:53Z</time>
      </trkpt>
      <trkpt lat="42.85939" lon="-0.45437">
        <ele>1481.04834</ele>
        <time>2012-07-24T08:03:08Z</time>
      </trkpt>
      <trkpt lat="42.85925" lon="-0.45438">
        <ele>1482.970703</ele>
        <time>2012-07-24T08:03:23Z</time>
      </trkpt>
      <trkpt lat="42.85905" lon="-0.4544">
        <ele>1484.893799</ele>
        <time>2012-07-24T08:03:42Z</time>
      </trkpt>
      <trkpt lat="42.85885" lon="-0.4544">
        <ele>1486.335693</ele>
        <time>2012-07-24T08:03:56Z</time>
      </trkpt>
      <trkpt lat="42.85871" lon="-0.45438">
        <ele>1487.777588</ele>
        <time>2012-07-24T08:04:12Z</time>
      </trkpt>
      <trkpt lat="42.85861" lon="-0.45432">
        <ele>1489.219482</ele>
        <time>2012-07-24T08:04:25Z</time>
      </trkpt>
      <trkpt lat="42.85843" lon="-0.45427">
        <ele>1490.661377</ele>
        <time>2012-07-24T08:04:41Z</time>
      </trkpt>
      <trkpt lat="42.85835" lon="-0.45432">
        <ele>1490.661377</ele>
        <time>2012-07-24T08:04:48Z</time>
      </trkpt>
      <trkpt lat="42.85826" lon="-0.45436">
        <ele>1491.14209</ele>
        <time>2012-07-24T08:05:00Z</time>
      </trkpt>
      <trkpt lat="42.85813" lon="-0.45441">
        <ele>1492.103516</ele>
        <time>2012-07-24T08:05:11Z</time>
      </trkpt>
      <trkpt lat="42.85807" lon="-0.45447">
        <ele>1491.622803</ele>
        <time>2012-07-24T08:05:16Z</time>
      </trkpt>
      <trkpt lat="42.85801" lon="-0.45476">
        <ele>1492.103516</ele>
        <time>2012-07-24T08:05:33Z</time>
      </trkpt>
      <trkpt lat="42.85788" lon="-0.45495">
        <ele>1492.584229</ele>
        <time>2012-07-24T08:05:49Z</time>
      </trkpt>
      <trkpt lat="42.85778" lon="-0.45508">
        <ele>1493.064697</ele>
        <time>2012-07-24T08:06:00Z</time>
      </trkpt>
      <trkpt lat="42.85769" lon="-0.45517">
        <ele>1493.064697</ele>
        <time>2012-07-24T08:06:09Z</time>
      </trkpt>
      <trkpt lat="42.85761" lon="-0.45528">
        <ele>1492.584229</ele>
        <time>2012-07-24T08:06:19Z</time>
      </trkpt>
      <trkpt lat="42.85745" lon="-0.45539">
        <ele>1493.064697</ele>
        <time>2012-07-24T08:06:34Z</time>
      </trkpt>
      <trkpt lat="42.85729" lon="-0.4555">
        <ele>1494.026123</ele>
        <time>2012-07-24T08:06:48Z</time>
      </trkpt>
      <trkpt lat="42.85723" lon="-0.45559">
        <ele>1494.506592</ele>
        <time>2012-07-24T08:06:55Z</time>
      </trkpt>
      <trkpt lat="42.85721" lon="-0.45577">
        <ele>1497.871338</ele>
        <time>2012-07-24T08:07:08Z</time>
      </trkpt>
      <trkpt lat="42.85716" lon="-0.45586">
        <ele>1499.793945</ele>
        <time>2012-07-24T08:07:20Z</time>
      </trkpt>
      <trkpt lat="42.8571" lon="-0.45586">
        <ele>1501.716797</ele>
        <time>2012-07-24T08:07:29Z</time>
      </trkpt>
      <trkpt lat="42.85702" lon="-0.45587">
        <ele>1504.120117</ele>
        <time>2012-07-24T08:07:39Z</time>
      </trkpt>
      <trkpt lat="42.85694" lon="-0.4559">
        <ele>1506.04248</ele>
        <time>2012-07-24T08:07:51Z</time>
      </trkpt>
      <trkpt lat="42.85686" lon="-0.45594">
        <ele>1509.407227</ele>
        <time>2012-07-24T08:08:02Z</time>
      </trkpt>
      <trkpt lat="42.85679" lon="-0.45599">
        <ele>1509.887695</ele>
        <time>2012-07-24T08:08:11Z</time>
      </trkpt>
      <trkpt lat="42.8567" lon="-0.45603">
        <ele>1512.291016</ele>
        <time>2012-07-24T08:08:22Z</time>
      </trkpt>
      <trkpt lat="42.85661" lon="-0.45605">
        <ele>1514.213623</ele>
        <time>2012-07-24T08:08:33Z</time>
      </trkpt>
      <trkpt lat="42.85647" lon="-0.45609">
        <ele>1516.617188</ele>
        <time>2012-07-24T08:08:48Z</time>
      </trkpt>
      <trkpt lat="42.85642" lon="-0.45609">
        <ele>1519.981689</ele>
        <time>2012-07-24T08:08:57Z</time>
      </trkpt>
      <trkpt lat="42.85635" lon="-0.4561">
        <ele>1521.904297</ele>
        <time>2012-07-24T08:09:07Z</time>
      </trkpt>
      <trkpt lat="42.85624" lon="-0.45604">
        <ele>1522.865723</ele>
        <time>2012-07-24T08:09:20Z</time>
      </trkpt>
      <trkpt lat="42.85615" lon="-0.45606">
        <ele>1523.826904</ele>
        <time>2012-07-24T08:09:30Z</time>
      </trkpt>
      <trkpt lat="42.85602" lon="-0.45606">
        <ele>1525.749512</ele>
        <time>2012-07-24T08:09:44Z</time>
      </trkpt>
      <trkpt lat="42.85593" lon="-0.45605">
        <ele>1527.19165</ele>
        <time>2012-07-24T08:09:55Z</time>
      </trkpt>
      <trkpt lat="42.85582" lon="-0.45609">
        <ele>1529.594727</ele>
        <time>2012-07-24T08:10:08Z</time>
      </trkpt>
      <trkpt lat="42.85575" lon="-0.45618">
        <ele>1531.998047</ele>
        <time>2012-07-24T08:10:17Z</time>
      </trkpt>
      <trkpt lat="42.85567" lon="-0.45629">
        <ele>1534.882324</ele>
        <time>2012-07-24T08:10:29Z</time>
      </trkpt>
      <trkpt lat="42.85557" lon="-0.45642">
        <ele>1537.766113</ele>
        <time>2012-07-24T08:10:44Z</time>
      </trkpt>
      <trkpt lat="42.85548" lon="-0.45655">
        <ele>1539.688721</ele>
        <time>2012-07-24T08:10:57Z</time>
      </trkpt>
      <trkpt lat="42.85539" lon="-0.45677">
        <ele>1540.649902</ele>
        <time>2012-07-24T08:11:14Z</time>
      </trkpt>
      <trkpt lat="42.8553" lon="-0.45686">
        <ele>1541.611328</ele>
        <time>2012-07-24T08:11:28Z</time>
      </trkpt>
      <trkpt lat="42.85515" lon="-0.457">
        <ele>1543.053223</ele>
        <time>2012-07-24T08:11:43Z</time>
      </trkpt>
      <trkpt lat="42.85512" lon="-0.45707">
        <ele>1544.014648</ele>
        <time>2012-07-24T08:11:49Z</time>
      </trkpt>
      <trkpt lat="42.855" lon="-0.4572">
        <ele>1545.937256</ele>
        <time>2012-07-24T08:12:05Z</time>
      </trkpt>
      <trkpt lat="42.85486" lon="-0.45734">
        <ele>1546.898438</ele>
        <time>2012-07-24T08:12:22Z</time>
      </trkpt>
      <trkpt lat="42.8547" lon="-0.45749">
        <ele>1546.417969</ele>
        <time>2012-07-24T08:12:39Z</time>
      </trkpt>
      <trkpt lat="42.85454" lon="-0.45752">
        <ele>1545.456543</ele>
        <time>2012-07-24T08:12:58Z</time>
      </trkpt>
      <trkpt lat="42.85447" lon="-0.45754">
        <ele>1545.456543</ele>
        <time>2012-07-24T08:13:14Z</time>
      </trkpt>
      <trkpt lat="42.85446" lon="-0.45755">
        <ele>1544.97583</ele>
        <time>2012-07-24T08:13:16Z</time>
      </trkpt>
      <trkpt lat="42.85425" lon="-0.45772">
        <ele>1543.533936</ele>
        <time>2012-07-24T08:13:38Z</time>
      </trkpt>
      <trkpt lat="42.85412" lon="-0.45783">
        <ele>1542.572754</ele>
        <time>2012-07-24T08:13:51Z</time>
      </trkpt>
      <trkpt lat="42.85404" lon="-0.45784">
        <ele>1543.053223</ele>
        <time>2012-07-24T08:13:59Z</time>
      </trkpt>
      <trkpt lat="42.854" lon="-0.45785">
        <ele>1542.092041</ele>
        <time>2012-07-24T08:14:20Z</time>
      </trkpt>
      <trkpt lat="42.85397" lon="-0.45791">
        <ele>1542.092041</ele>
        <time>2012-07-24T08:14:28Z</time>
      </trkpt>
      <trkpt lat="42.85388" lon="-0.45799">
        <ele>1544.014648</ele>
        <time>2012-07-24T08:14:44Z</time>
      </trkpt>
      <trkpt lat="42.85386" lon="-0.45799">
        <ele>1542.092041</ele>
        <time>2012-07-24T08:15:11Z</time>
      </trkpt>
      <trkpt lat="42.85385" lon="-0.45796">
        <ele>1543.533936</ele>
        <time>2012-07-24T08:15:31Z</time>
      </trkpt>
      <trkpt lat="42.85387" lon="-0.45799">
        <ele>1542.572754</ele>
        <time>2012-07-24T08:15:41Z</time>
      </trkpt>
      <trkpt lat="42.85405" lon="-0.45812">
        <ele>1544.014648</ele>
        <time>2012-07-24T08:15:59Z</time>
      </trkpt>
      <trkpt lat="42.85405" lon="-0.45819">
        <ele>1544.495117</ele>
        <time>2012-07-24T08:16:13Z</time>
      </trkpt>
      <trkpt lat="42.85401" lon="-0.45822">
        <ele>1544.495117</ele>
        <time>2012-07-24T08:16:27Z</time>
      </trkpt>
      <trkpt lat="42.85401" lon="-0.45817">
        <ele>1545.937256</ele>
        <time>2012-07-24T08:16:39Z</time>
      </trkpt>
      <trkpt lat="42.85401" lon="-0.45808">
        <ele>1543.533936</ele>
        <time>2012-07-24T08:16:54Z</time>
      </trkpt>
      <trkpt lat="42.85396" lon="-0.45807">
        <ele>1542.092041</ele>
        <time>2012-07-24T08:17:02Z</time>
      </trkpt>
      <trkpt lat="42.85381" lon="-0.45795">
        <ele>1541.611328</ele>
        <time>2012-07-24T08:17:21Z</time>
      </trkpt>
      <trkpt lat="42.85373" lon="-0.4579">
        <ele>1541.130615</ele>
        <time>2012-07-24T08:17:31Z</time>
      </trkpt>
      <trkpt lat="42.85369" lon="-0.45792">
        <ele>1540.649902</ele>
        <time>2012-07-24T08:17:35Z</time>
      </trkpt>
      <trkpt lat="42.85364" lon="-0.458">
        <ele>1540.169434</ele>
        <time>2012-07-24T08:17:43Z</time>
      </trkpt>
      <trkpt lat="42.85363" lon="-0.45824">
        <ele>1540.649902</ele>
        <time>2012-07-24T08:17:59Z</time>
      </trkpt>
      <trkpt lat="42.85347" lon="-0.45848">
        <ele>1541.611328</ele>
        <time>2012-07-24T08:18:21Z</time>
      </trkpt>
      <trkpt lat="42.85335" lon="-0.45874">
        <ele>1540.649902</ele>
        <time>2012-07-24T08:18:41Z</time>
      </trkpt>
      <trkpt lat="42.85316" lon="-0.45901">
        <ele>1541.611328</ele>
        <time>2012-07-24T08:19:04Z</time>
      </trkpt>
      <trkpt lat="42.85296" lon="-0.4593">
        <ele>1542.092041</ele>
        <time>2012-07-24T08:19:28Z</time>
      </trkpt>
      <trkpt lat="42.85287" lon="-0.45961">
        <ele>1542.092041</ele>
        <time>2012-07-24T08:19:49Z</time>
      </trkpt>
      <trkpt lat="42.85279" lon="-0.45994">
        <ele>1542.572754</ele>
        <time>2012-07-24T08:20:10Z</time>
      </trkpt>
      <trkpt lat="42.8526" lon="-0.46015">
        <ele>1543.053223</ele>
        <time>2012-07-24T08:20:31Z</time>
      </trkpt>
      <trkpt lat="42.85236" lon="-0.46035">
        <ele>1543.053223</ele>
        <time>2012-07-24T08:20:54Z</time>
      </trkpt>
      <trkpt lat="42.85211" lon="-0.46063">
        <ele>1543.053223</ele>
        <time>2012-07-24T08:21:21Z</time>
      </trkpt>
      <trkpt lat="42.85203" lon="-0.4607">
        <ele>1543.533936</ele>
        <time>2012-07-24T08:21:29Z</time>
      </trkpt>
      <trkpt lat="42.85177" lon="-0.46088">
        <ele>1543.053223</ele>
        <time>2012-07-24T08:21:53Z</time>
      </trkpt>
      <trkpt lat="42.8515" lon="-0.46108">
        <ele>1543.533936</ele>
        <time>2012-07-24T08:22:19Z</time>
      </trkpt>
      <trkpt lat="42.85124" lon="-0.46127">
        <ele>1544.495117</ele>
        <time>2012-07-24T08:22:43Z</time>
      </trkpt>
      <trkpt lat="42.85101" lon="-0.46151">
        <ele>1543.533936</ele>
        <time>2012-07-24T08:23:07Z</time>
      </trkpt>
      <trkpt lat="42.85077" lon="-0.46184">
        <ele>1544.495117</ele>
        <time>2012-07-24T08:23:35Z</time>
      </trkpt>
      <trkpt lat="42.85056" lon="-0.46211">
        <ele>1545.937256</ele>
        <time>2012-07-24T08:23:59Z</time>
      </trkpt>
      <trkpt lat="42.8503" lon="-0.46229">
        <ele>1544.97583</ele>
        <time>2012-07-24T08:24:22Z</time>
      </trkpt>
      <trkpt lat="42.85006" lon="-0.46243">
        <ele>1546.417969</ele>
        <time>2012-07-24T08:24:44Z</time>
      </trkpt>
      <trkpt lat="42.8498" lon="-0.46257">
        <ele>1545.456543</ele>
        <time>2012-07-24T08:25:08Z</time>
      </trkpt>
      <trkpt lat="42.84956" lon="-0.46279">
        <ele>1546.417969</ele>
        <time>2012-07-24T08:25:32Z</time>
      </trkpt>
      <trkpt lat="42.84938" lon="-0.46301">
        <ele>1547.859863</ele>
        <time>2012-07-24T08:25:53Z</time>
      </trkpt>
      <trkpt lat="42.84917" lon="-0.46329">
        <ele>1547.859863</ele>
        <time>2012-07-24T08:26:18Z</time>
      </trkpt>
      <trkpt lat="42.84897" lon="-0.46358">
        <ele>1548.340576</ele>
        <time>2012-07-24T08:26:41Z</time>
      </trkpt>
      <trkpt lat="42.84896" lon="-0.46361">
        <ele>1546.417969</ele>
        <time>2012-07-24T08:26:43Z</time>
      </trkpt>
      <trkpt lat="42.84885" lon="-0.46393">
        <ele>1548.340576</ele>
        <time>2012-07-24T08:27:05Z</time>
      </trkpt>
      <trkpt lat="42.84879" lon="-0.46413">
        <ele>1551.224609</ele>
        <time>2012-07-24T08:27:19Z</time>
      </trkpt>
      <trkpt lat="42.84872" lon="-0.46431">
        <ele>1553.147217</ele>
        <time>2012-07-24T08:27:34Z</time>
      </trkpt>
      <trkpt lat="42.84868" lon="-0.46451">
        <ele>1555.069824</ele>
        <time>2012-07-24T08:27:51Z</time>
      </trkpt>
      <trkpt lat="42.84867" lon="-0.46456">
        <ele>1557.473145</ele>
        <time>2012-07-24T08:27:57Z</time>
      </trkpt>
      <trkpt lat="42.84866" lon="-0.46459">
        <ele>1555.550537</ele>
        <time>2012-07-24T08:28:05Z</time>
      </trkpt>
      <trkpt lat="42.84863" lon="-0.46473">
        <ele>1558.434326</ele>
        <time>2012-07-24T08:28:15Z</time>
      </trkpt>
      <trkpt lat="42.84861" lon="-0.46477">
        <ele>1558.434326</ele>
        <time>2012-07-24T08:28:18Z</time>
      </trkpt>
      <trkpt lat="42.84859" lon="-0.4648">
        <ele>1558.915039</ele>
        <time>2012-07-24T08:28:21Z</time>
      </trkpt>
      <trkpt lat="42.84855" lon="-0.46481">
        <ele>1559.395752</ele>
        <time>2012-07-24T08:28:25Z</time>
      </trkpt>
      <trkpt lat="42.84841" lon="-0.4647">
        <ele>1561.799072</ele>
        <time>2012-07-24T08:28:41Z</time>
      </trkpt>
      <trkpt lat="42.84834" lon="-0.46464">
        <ele>1561.318359</ele>
        <time>2012-07-24T08:28:48Z</time>
      </trkpt>
      <trkpt lat="42.84816" lon="-0.46461">
        <ele>1562.279541</ele>
        <time>2012-07-24T08:29:08Z</time>
      </trkpt>
      <trkpt lat="42.84808" lon="-0.46464">
        <ele>1562.279541</ele>
        <time>2012-07-24T08:29:26Z</time>
      </trkpt>
      <trkpt lat="42.84808" lon="-0.46463">
        <ele>1563.721436</ele>
        <time>2012-07-24T08:29:58Z</time>
      </trkpt>
      <trkpt lat="42.84807" lon="-0.46463">
        <ele>1564.202393</ele>
        <time>2012-07-24T08:30:40Z</time>
      </trkpt>
      <trkpt lat="42.84808" lon="-0.46464">
        <ele>1562.760254</ele>
        <time>2012-07-24T08:31:35Z</time>
      </trkpt>
      <trkpt lat="42.84804" lon="-0.46461">
        <ele>1564.202393</ele>
        <time>2012-07-24T08:31:50Z</time>
      </trkpt>
      <trkpt lat="42.84806" lon="-0.4646">
        <ele>1564.202393</ele>
        <time>2012-07-24T08:32:10Z</time>
      </trkpt>
      <trkpt lat="42.84795" lon="-0.46465">
        <ele>1565.644531</ele>
        <time>2012-07-24T08:32:35Z</time>
      </trkpt>
      <trkpt lat="42.84779" lon="-0.46471">
        <ele>1569.009033</ele>
        <time>2012-07-24T08:32:53Z</time>
      </trkpt>
      <trkpt lat="42.84776" lon="-0.46472">
        <ele>1569.489746</ele>
        <time>2012-07-24T08:32:56Z</time>
      </trkpt>
      <trkpt lat="42.84769" lon="-0.46475">
        <ele>1570.450928</ele>
        <time>2012-07-24T08:33:03Z</time>
      </trkpt>
      <trkpt lat="42.84745" lon="-0.46484">
        <ele>1571.412109</ele>
        <time>2012-07-24T08:33:26Z</time>
      </trkpt>
      <trkpt lat="42.84725" lon="-0.46499">
        <ele>1573.334961</ele>
        <time>2012-07-24T08:33:46Z</time>
      </trkpt>
      <trkpt lat="42.84702" lon="-0.46524">
        <ele>1571.892822</ele>
        <time>2012-07-24T08:34:10Z</time>
      </trkpt>
      <trkpt lat="42.84679" lon="-0.46547">
        <ele>1571.892822</ele>
        <time>2012-07-24T08:34:35Z</time>
      </trkpt>
      <trkpt lat="42.84676" lon="-0.4655">
        <ele>1573.334961</ele>
        <time>2012-07-24T08:34:38Z</time>
      </trkpt>
      <trkpt lat="42.84652" lon="-0.46574">
        <ele>1574.776855</ele>
        <time>2012-07-24T08:35:03Z</time>
      </trkpt>
      <trkpt lat="42.84632" lon="-0.46598">
        <ele>1574.296143</ele>
        <time>2012-07-24T08:35:25Z</time>
      </trkpt>
      <trkpt lat="42.84622" lon="-0.46606">
        <ele>1576.21875</ele>
        <time>2012-07-24T08:35:35Z</time>
      </trkpt>
      <trkpt lat="42.84602" lon="-0.46634">
        <ele>1577.180176</ele>
        <time>2012-07-24T08:36:00Z</time>
      </trkpt>
      <trkpt lat="42.846" lon="-0.46636">
        <ele>1577.180176</ele>
        <time>2012-07-24T08:36:03Z</time>
      </trkpt>
      <trkpt lat="42.84594" lon="-0.46641">
        <ele>1578.62207</ele>
        <time>2012-07-24T08:36:16Z</time>
      </trkpt>
      <trkpt lat="42.8458" lon="-0.46659">
        <ele>1579.102539</ele>
        <time>2012-07-24T08:36:34Z</time>
      </trkpt>
      <trkpt lat="42.84565" lon="-0.46667">
        <ele>1582.467529</ele>
        <time>2012-07-24T08:36:50Z</time>
      </trkpt>
      <trkpt lat="42.84546" lon="-0.4668">
        <ele>1584.87085</ele>
        <time>2012-07-24T08:37:10Z</time>
      </trkpt>
      <trkpt lat="42.84526" lon="-0.46705">
        <ele>1584.87085</ele>
        <time>2012-07-24T08:37:34Z</time>
      </trkpt>
      <trkpt lat="42.84519" lon="-0.4671">
        <ele>1585.351318</ele>
        <time>2012-07-24T08:37:41Z</time>
      </trkpt>
      <trkpt lat="42.84501" lon="-0.46714">
        <ele>1583.909424</ele>
        <time>2012-07-24T08:37:57Z</time>
      </trkpt>
      <trkpt lat="42.84484" lon="-0.46726">
        <ele>1584.390137</ele>
        <time>2012-07-24T08:38:16Z</time>
      </trkpt>
      <trkpt lat="42.84486" lon="-0.46731">
        <ele>1584.87085</ele>
        <time>2012-07-24T08:38:20Z</time>
      </trkpt>
      <trkpt lat="42.8449" lon="-0.4674">
        <ele>1585.351318</ele>
        <time>2012-07-24T08:38:28Z</time>
      </trkpt>
      <trkpt lat="42.8448" lon="-0.46767">
        <ele>1587.273926</ele>
        <time>2012-07-24T08:38:50Z</time>
      </trkpt>
      <trkpt lat="42.84471" lon="-0.46777">
        <ele>1587.273926</ele>
        <time>2012-07-24T08:39:04Z</time>
      </trkpt>
      <trkpt lat="42.84458" lon="-0.46785">
        <ele>1588.716064</ele>
        <time>2012-07-24T08:39:21Z</time>
      </trkpt>
      <trkpt lat="42.84444" lon="-0.46797">
        <ele>1590.157959</ele>
        <time>2012-07-24T08:39:39Z</time>
      </trkpt>
      <trkpt lat="42.84431" lon="-0.46805">
        <ele>1590.157959</ele>
        <time>2012-07-24T08:39:55Z</time>
      </trkpt>
      <trkpt lat="42.84429" lon="-0.46811">
        <ele>1590.157959</ele>
        <time>2012-07-24T08:40:00Z</time>
      </trkpt>
      <trkpt lat="42.84427" lon="-0.4683">
        <ele>1590.638428</ele>
        <time>2012-07-24T08:40:18Z</time>
      </trkpt>
      <trkpt lat="42.84424" lon="-0.46838">
        <ele>1592.561279</ele>
        <time>2012-07-24T08:40:54Z</time>
      </trkpt>
      <trkpt lat="42.84423" lon="-0.4685">
        <ele>1595.445068</ele>
        <time>2012-07-24T08:41:05Z</time>
      </trkpt>
      <trkpt lat="42.84421" lon="-0.46858">
        <ele>1597.36792</ele>
        <time>2012-07-24T08:41:21Z</time>
      </trkpt>
      <trkpt lat="42.8442" lon="-0.46864">
        <ele>1597.848633</ele>
        <time>2012-07-24T08:41:28Z</time>
      </trkpt>
      <trkpt lat="42.84414" lon="-0.46883">
        <ele>1600.251953</ele>
        <time>2012-07-24T08:41:45Z</time>
      </trkpt>
      <trkpt lat="42.84412" lon="-0.469">
        <ele>1603.135742</ele>
        <time>2012-07-24T08:42:01Z</time>
      </trkpt>
      <trkpt lat="42.84413" lon="-0.46912">
        <ele>1606.019531</ele>
        <time>2012-07-24T08:42:15Z</time>
      </trkpt>
      <trkpt lat="42.84412" lon="-0.46918">
        <ele>1607.46167</ele>
        <time>2012-07-24T08:42:30Z</time>
      </trkpt>
      <trkpt lat="42.84409" lon="-0.46912">
        <ele>1608.422852</ele>
        <time>2012-07-24T08:42:47Z</time>
      </trkpt>
      <trkpt lat="42.84401" lon="-0.46899">
        <ele>1610.826172</ele>
        <time>2012-07-24T08:43:07Z</time>
      </trkpt>
      <trkpt lat="42.84393" lon="-0.46887">
        <ele>1613.229736</ele>
        <time>2012-07-24T08:43:24Z</time>
      </trkpt>
      <trkpt lat="42.84385" lon="-0.46882">
        <ele>1617.55542</ele>
        <time>2012-07-24T08:43:38Z</time>
      </trkpt>
      <trkpt lat="42.84384" lon="-0.46881">
        <ele>1617.55542</ele>
        <time>2012-07-24T08:43:39Z</time>
      </trkpt>
      <trkpt lat="42.84375" lon="-0.46878">
        <ele>1619.478271</ele>
        <time>2012-07-24T08:43:54Z</time>
      </trkpt>
      <trkpt lat="42.84362" lon="-0.46886">
        <ele>1621.400635</ele>
        <time>2012-07-24T08:44:10Z</time>
      </trkpt>
      <trkpt lat="42.84348" lon="-0.46899">
        <ele>1621.881348</ele>
        <time>2012-07-24T08:44:28Z</time>
      </trkpt>
      <trkpt lat="42.84334" lon="-0.46913">
        <ele>1624.284668</ele>
        <time>2012-07-24T08:44:50Z</time>
      </trkpt>
      <trkpt lat="42.84328" lon="-0.46916">
        <ele>1625.726562</ele>
        <time>2012-07-24T08:44:58Z</time>
      </trkpt>
      <trkpt lat="42.84317" lon="-0.46915">
        <ele>1629.572021</ele>
        <time>2012-07-24T08:45:16Z</time>
      </trkpt>
      <trkpt lat="42.84306" lon="-0.46909">
        <ele>1631.01416</ele>
        <time>2012-07-24T08:45:32Z</time>
      </trkpt>
      <trkpt lat="42.84292" lon="-0.46913">
        <ele>1633.417236</ele>
        <time>2012-07-24T08:45:47Z</time>
      </trkpt>
      <trkpt lat="42.84276" lon="-0.46918">
        <ele>1636.781738</ele>
        <time>2012-07-24T08:46:05Z</time>
      </trkpt>
      <trkpt lat="42.84265" lon="-0.46923">
        <ele>1639.185059</ele>
        <time>2012-07-24T08:46:19Z</time>
      </trkpt>
      <trkpt lat="42.84251" lon="-0.46928">
        <ele>1640.626953</ele>
        <time>2012-07-24T08:46:34Z</time>
      </trkpt>
      <trkpt lat="42.84243" lon="-0.46927">
        <ele>1643.991699</ele>
        <time>2012-07-24T08:46:48Z</time>
      </trkpt>
      <trkpt lat="42.84242" lon="-0.46926">
        <ele>1643.991699</ele>
        <time>2012-07-24T08:46:49Z</time>
      </trkpt>
      <trkpt lat="42.84225" lon="-0.46926">
        <ele>1645.914551</ele>
        <time>2012-07-24T08:47:09Z</time>
      </trkpt>
      <trkpt lat="42.84224" lon="-0.46926">
        <ele>1645.433838</ele>
        <time>2012-07-24T08:47:10Z</time>
      </trkpt>
      <trkpt lat="42.84219" lon="-0.46922">
        <ele>1646.395264</ele>
        <time>2012-07-24T08:47:16Z</time>
      </trkpt>
      <trkpt lat="42.84213" lon="-0.4692">
        <ele>1645.433838</ele>
        <time>2012-07-24T08:47:22Z</time>
      </trkpt>
      <trkpt lat="42.84206" lon="-0.46919">
        <ele>1646.395264</ele>
        <time>2012-07-24T08:47:41Z</time>
      </trkpt>
      <trkpt lat="42.84193" lon="-0.4692">
        <ele>1646.395264</ele>
        <time>2012-07-24T08:47:54Z</time>
      </trkpt>
      <trkpt lat="42.84179" lon="-0.4692">
        <ele>1647.837158</ele>
        <time>2012-07-24T08:48:07Z</time>
      </trkpt>
      <trkpt lat="42.84164" lon="-0.46934">
        <ele>1647.356445</ele>
        <time>2012-07-24T08:48:26Z</time>
      </trkpt>
      <trkpt lat="42.84142" lon="-0.46942">
        <ele>1647.837158</ele>
        <time>2012-07-24T08:48:46Z</time>
      </trkpt>
      <trkpt lat="42.8414" lon="-0.46942">
        <ele>1647.356445</ele>
        <time>2012-07-24T08:48:48Z</time>
      </trkpt>
      <trkpt lat="42.84138" lon="-0.46943">
        <ele>1647.356445</ele>
        <time>2012-07-24T08:48:50Z</time>
      </trkpt>
      <trkpt lat="42.84123" lon="-0.46953">
        <ele>1647.837158</ele>
        <time>2012-07-24T08:49:09Z</time>
      </trkpt>
      <trkpt lat="42.84122" lon="-0.46955">
        <ele>1646.875732</ele>
        <time>2012-07-24T08:49:30Z</time>
      </trkpt>
      <trkpt lat="42.84122" lon="-0.46965">
        <ele>1643.510986</ele>
        <time>2012-07-24T08:49:41Z</time>
      </trkpt>
      <trkpt lat="42.84122" lon="-0.46966">
        <ele>1643.510986</ele>
        <time>2012-07-24T08:49:42Z</time>
      </trkpt>
      <trkpt lat="42.84117" lon="-0.46976">
        <ele>1642.549805</ele>
        <time>2012-07-24T08:49:56Z</time>
      </trkpt>
      <trkpt lat="42.84112" lon="-0.46985">
        <ele>1642.069092</ele>
        <time>2012-07-24T08:50:09Z</time>
      </trkpt>
      <trkpt lat="42.84111" lon="-0.47004">
        <ele>1642.549805</ele>
        <time>2012-07-24T08:50:27Z</time>
      </trkpt>
      <trkpt lat="42.8411" lon="-0.47006">
        <ele>1641.588379</ele>
        <time>2012-07-24T08:50:33Z</time>
      </trkpt>
      <trkpt lat="42.84092" lon="-0.47024">
        <ele>1642.069092</ele>
        <time>2012-07-24T08:50:51Z</time>
      </trkpt>
      <trkpt lat="42.84088" lon="-0.47031">
        <ele>1642.549805</ele>
        <time>2012-07-24T08:50:57Z</time>
      </trkpt>
      <trkpt lat="42.84087" lon="-0.47035">
        <ele>1642.549805</ele>
        <time>2012-07-24T08:51:00Z</time>
      </trkpt>
      <trkpt lat="42.84072" lon="-0.47047">
        <ele>1643.030273</ele>
        <time>2012-07-24T08:51:17Z</time>
      </trkpt>
      <trkpt lat="42.84069" lon="-0.47047">
        <ele>1642.549805</ele>
        <time>2012-07-24T08:51:19Z</time>
      </trkpt>
      <trkpt lat="42.84066" lon="-0.47046">
        <ele>1643.030273</ele>
        <time>2012-07-24T08:51:22Z</time>
      </trkpt>
      <trkpt lat="42.84062" lon="-0.47054">
        <ele>1643.510986</ele>
        <time>2012-07-24T08:51:37Z</time>
      </trkpt>
      <trkpt lat="42.84061" lon="-0.47056">
        <ele>1643.510986</ele>
        <time>2012-07-24T08:51:39Z</time>
      </trkpt>
      <trkpt lat="42.84055" lon="-0.47087">
        <ele>1643.510986</ele>
        <time>2012-07-24T08:52:00Z</time>
      </trkpt>
      <trkpt lat="42.84052" lon="-0.47101">
        <ele>1643.991699</ele>
        <time>2012-07-24T08:52:10Z</time>
      </trkpt>
      <trkpt lat="42.8405" lon="-0.47103">
        <ele>1643.030273</ele>
        <time>2012-07-24T08:52:12Z</time>
      </trkpt>
      <trkpt lat="42.84036" lon="-0.47128">
        <ele>1644.472412</ele>
        <time>2012-07-24T08:52:32Z</time>
      </trkpt>
      <trkpt lat="42.84031" lon="-0.47135">
        <ele>1644.953125</ele>
        <time>2012-07-24T08:52:41Z</time>
      </trkpt>
      <trkpt lat="42.84017" lon="-0.47138">
        <ele>1645.433838</ele>
        <time>2012-07-24T08:53:00Z</time>
      </trkpt>
      <trkpt lat="42.84011" lon="-0.47143">
        <ele>1645.914551</ele>
        <time>2012-07-24T08:53:13Z</time>
      </trkpt>
      <trkpt lat="42.84009" lon="-0.47151">
        <ele>1645.433838</ele>
        <time>2012-07-24T08:53:20Z</time>
      </trkpt>
      <trkpt lat="42.84003" lon="-0.47169">
        <ele>1646.875732</ele>
        <time>2012-07-24T08:53:36Z</time>
      </trkpt>
      <trkpt lat="42.84002" lon="-0.47185">
        <ele>1646.395264</ele>
        <time>2012-07-24T08:53:49Z</time>
      </trkpt>
      <trkpt lat="42.83999" lon="-0.47193">
        <ele>1646.395264</ele>
        <time>2012-07-24T08:53:56Z</time>
      </trkpt>
      <trkpt lat="42.83989" lon="-0.47214">
        <ele>1647.356445</ele>
        <time>2012-07-24T08:54:15Z</time>
      </trkpt>
      <trkpt lat="42.83987" lon="-0.47218">
        <ele>1647.356445</ele>
        <time>2012-07-24T08:54:18Z</time>
      </trkpt>
      <trkpt lat="42.83986" lon="-0.47224">
        <ele>1647.356445</ele>
        <time>2012-07-24T08:54:22Z</time>
      </trkpt>
      <trkpt lat="42.83975" lon="-0.47254">
        <ele>1647.837158</ele>
        <time>2012-07-24T08:54:43Z</time>
      </trkpt>
      <trkpt lat="42.83961" lon="-0.47278">
        <ele>1648.317627</ele>
        <time>2012-07-24T08:55:02Z</time>
      </trkpt>
      <trkpt lat="42.83944" lon="-0.47298">
        <ele>1650.240479</ele>
        <time>2012-07-24T08:55:22Z</time>
      </trkpt>
      <trkpt lat="42.83927" lon="-0.47312">
        <ele>1650.240479</ele>
        <time>2012-07-24T08:55:41Z</time>
      </trkpt>
      <trkpt lat="42.83927" lon="-0.47319">
        <ele>1650.720947</ele>
        <time>2012-07-24T08:55:57Z</time>
      </trkpt>
      <trkpt lat="42.83925" lon="-0.47328">
        <ele>1650.720947</ele>
        <time>2012-07-24T08:56:18Z</time>
      </trkpt>
      <trkpt lat="42.83916" lon="-0.47351">
        <ele>1651.682373</ele>
        <time>2012-07-24T08:56:37Z</time>
      </trkpt>
      <trkpt lat="42.83914" lon="-0.47354">
        <ele>1653.124268</ele>
        <time>2012-07-24T08:56:40Z</time>
      </trkpt>
      <trkpt lat="42.83908" lon="-0.4736">
        <ele>1654.085693</ele>
        <time>2012-07-24T08:56:48Z</time>
      </trkpt>
      <trkpt lat="42.83904" lon="-0.47376">
        <ele>1657.450195</ele>
        <time>2012-07-24T08:57:06Z</time>
      </trkpt>
      <trkpt lat="42.83901" lon="-0.47385">
        <ele>1659.853271</ele>
        <time>2012-07-24T08:57:22Z</time>
      </trkpt>
      <trkpt lat="42.83896" lon="-0.47404">
        <ele>1662.256836</ele>
        <time>2012-07-24T08:57:39Z</time>
      </trkpt>
      <trkpt lat="42.8389" lon="-0.47414">
        <ele>1664.660156</ele>
        <time>2012-07-24T08:57:53Z</time>
      </trkpt>
      <trkpt lat="42.83878" lon="-0.4742">
        <ele>1666.102051</ele>
        <time>2012-07-24T08:58:10Z</time>
      </trkpt>
      <trkpt lat="42.8387" lon="-0.47423">
        <ele>1667.543945</ele>
        <time>2012-07-24T08:58:23Z</time>
      </trkpt>
      <trkpt lat="42.8386" lon="-0.47428">
        <ele>1668.986084</ele>
        <time>2012-07-24T08:58:38Z</time>
      </trkpt>
      <trkpt lat="42.83855" lon="-0.47429">
        <ele>1669.947266</ele>
        <time>2012-07-24T08:58:44Z</time>
      </trkpt>
      <trkpt lat="42.83849" lon="-0.47432">
        <ele>1672.350586</ele>
        <time>2012-07-24T08:58:52Z</time>
      </trkpt>
      <trkpt lat="42.83839" lon="-0.47432">
        <ele>1675.715088</ele>
        <time>2012-07-24T08:59:07Z</time>
      </trkpt>
      <trkpt lat="42.8383" lon="-0.47433">
        <ele>1678.118652</ele>
        <time>2012-07-24T08:59:18Z</time>
      </trkpt>
      <trkpt lat="42.83826" lon="-0.47439">
        <ele>1679.079834</ele>
        <time>2012-07-24T08:59:31Z</time>
      </trkpt>
      <trkpt lat="42.8383" lon="-0.47457">
        <ele>1680.521973</ele>
        <time>2012-07-24T08:59:48Z</time>
      </trkpt>
      <trkpt lat="42.83835" lon="-0.47476">
        <ele>1683.405762</ele>
        <time>2012-07-24T09:00:06Z</time>
      </trkpt>
      <trkpt lat="42.83842" lon="-0.47488">
        <ele>1684.8479</ele>
        <time>2012-07-24T09:00:22Z</time>
      </trkpt>
      <trkpt lat="42.8385" lon="-0.47497">
        <ele>1687.731689</ele>
        <time>2012-07-24T09:00:37Z</time>
      </trkpt>
      <trkpt lat="42.83862" lon="-0.47505">
        <ele>1691.096191</ele>
        <time>2012-07-24T09:00:56Z</time>
      </trkpt>
      <trkpt lat="42.8387" lon="-0.47509">
        <ele>1693.499756</ele>
        <time>2012-07-24T09:01:09Z</time>
      </trkpt>
      <trkpt lat="42.83871" lon="-0.47513">
        <ele>1693.499756</ele>
        <time>2012-07-24T09:01:23Z</time>
      </trkpt>
      <trkpt lat="42.83871" lon="-0.47513">
        <ele>1693.980469</ele>
        <time>2012-07-24T09:01:24Z</time>
      </trkpt>
      <trkpt lat="42.83867" lon="-0.47514">
        <ele>1695.422363</ele>
        <time>2012-07-24T09:01:34Z</time>
      </trkpt>
      <trkpt lat="42.83853" lon="-0.47524">
        <ele>1696.864258</ele>
        <time>2012-07-24T09:01:55Z</time>
      </trkpt>
      <trkpt lat="42.83845" lon="-0.47537">
        <ele>1699.267578</ele>
        <time>2012-07-24T09:02:13Z</time>
      </trkpt>
      <trkpt lat="42.83837" lon="-0.4755">
        <ele>1701.670898</ele>
        <time>2012-07-24T09:02:30Z</time>
      </trkpt>
      <trkpt lat="42.8383" lon="-0.47561">
        <ele>1704.554688</ele>
        <time>2012-07-24T09:02:46Z</time>
      </trkpt>
      <trkpt lat="42.8383" lon="-0.47562">
        <ele>1705.0354</ele>
        <time>2012-07-24T09:02:48Z</time>
      </trkpt>
      <trkpt lat="42.83826" lon="-0.47568">
        <ele>1705.996582</ele>
        <time>2012-07-24T09:03:02Z</time>
      </trkpt>
      <trkpt lat="42.83819" lon="-0.4758">
        <ele>1708.880859</ele>
        <time>2012-07-24T09:03:18Z</time>
      </trkpt>
      <trkpt lat="42.83813" lon="-0.47589">
        <ele>1712.245361</ele>
        <time>2012-07-24T09:03:29Z</time>
      </trkpt>
      <trkpt lat="42.83803" lon="-0.47596">
        <ele>1713.206787</ele>
        <time>2012-07-24T09:03:47Z</time>
      </trkpt>
      <trkpt lat="42.83808" lon="-0.47599">
        <ele>1714.648682</ele>
        <time>2012-07-24T09:04:00Z</time>
      </trkpt>
      <trkpt lat="42.83811" lon="-0.476">
        <ele>1716.090576</ele>
        <time>2012-07-24T09:04:05Z</time>
      </trkpt>
      <trkpt lat="42.83803" lon="-0.47611">
        <ele>1718.013184</ele>
        <time>2012-07-24T09:04:19Z</time>
      </trkpt>
      <trkpt lat="42.83794" lon="-0.47616">
        <ele>1720.897217</ele>
        <time>2012-07-24T09:04:30Z</time>
      </trkpt>
      <trkpt lat="42.83782" lon="-0.47625">
        <ele>1722.339111</ele>
        <time>2012-07-24T09:04:48Z</time>
      </trkpt>
      <trkpt lat="42.83782" lon="-0.47627">
        <ele>1722.819824</ele>
        <time>2012-07-24T09:05:13Z</time>
      </trkpt>
      <trkpt lat="42.83782" lon="-0.47626">
        <ele>1722.819824</ele>
        <time>2012-07-24T09:05:34Z</time>
      </trkpt>
      <trkpt lat="42.83781" lon="-0.47627">
        <ele>1722.819824</ele>
        <time>2012-07-24T09:05:38Z</time>
      </trkpt>
      <trkpt lat="42.83781" lon="-0.47627">
        <ele>1722.339111</ele>
        <time>2012-07-24T09:06:11Z</time>
      </trkpt>
      <trkpt lat="42.8378" lon="-0.47629">
        <ele>1721.377686</ele>
        <time>2012-07-24T09:07:58Z</time>
      </trkpt>
      <trkpt lat="42.83783" lon="-0.47625">
        <ele>1722.339111</ele>
        <time>2012-07-24T09:10:05Z</time>
      </trkpt>
      <trkpt lat="42.83782" lon="-0.47628">
        <ele>1723.300537</ele>
        <time>2012-07-24T09:10:15Z</time>
      </trkpt>
      <trkpt lat="42.83785" lon="-0.47625">
        <ele>1722.339111</ele>
        <time>2012-07-24T09:10:30Z</time>
      </trkpt>
      <trkpt lat="42.83781" lon="-0.47626">
        <ele>1722.819824</ele>
        <time>2012-07-24T09:10:46Z</time>
      </trkpt>
      <trkpt lat="42.83777" lon="-0.47625">
        <ele>1723.300537</ele>
        <time>2012-07-24T09:11:31Z</time>
      </trkpt>
      <trkpt lat="42.83767" lon="-0.47632">
        <ele>1725.223145</ele>
        <time>2012-07-24T09:11:49Z</time>
      </trkpt>
      <trkpt lat="42.83768" lon="-0.47647">
        <ele>1728.587891</ele>
        <time>2012-07-24T09:12:03Z</time>
      </trkpt>
      <trkpt lat="42.83767" lon="-0.47648">
        <ele>1729.068359</ele>
        <time>2012-07-24T09:12:05Z</time>
      </trkpt>
      <trkpt lat="42.83764" lon="-0.47652">
        <ele>1729.549072</ele>
        <time>2012-07-24T09:12:09Z</time>
      </trkpt>
      <trkpt lat="42.83768" lon="-0.47664">
        <ele>1732.913574</ele>
        <time>2012-07-24T09:12:23Z</time>
      </trkpt>
      <trkpt lat="42.83769" lon="-0.47665">
        <ele>1733.394287</ele>
        <time>2012-07-24T09:12:25Z</time>
      </trkpt>
      <trkpt lat="42.8378" lon="-0.47666">
        <ele>1737.239502</ele>
        <time>2012-07-24T09:12:39Z</time>
      </trkpt>
      <trkpt lat="42.83782" lon="-0.47667">
        <ele>1737.239502</ele>
        <time>2012-07-24T09:12:41Z</time>
      </trkpt>
      <trkpt lat="42.83787" lon="-0.47671">
        <ele>1740.123779</ele>
        <time>2012-07-24T09:12:48Z</time>
      </trkpt>
      <trkpt lat="42.83788" lon="-0.47672">
        <ele>1740.123779</ele>
        <time>2012-07-24T09:12:50Z</time>
      </trkpt>
      <trkpt lat="42.83801" lon="-0.47672">
        <ele>1743.007568</ele>
        <time>2012-07-24T09:13:08Z</time>
      </trkpt>
      <trkpt lat="42.83802" lon="-0.47673">
        <ele>1743.007568</ele>
        <time>2012-07-24T09:13:09Z</time>
      </trkpt>
      <trkpt lat="42.83804" lon="-0.47685">
        <ele>1745.891602</ele>
        <time>2012-07-24T09:13:24Z</time>
      </trkpt>
      <trkpt lat="42.83796" lon="-0.47696">
        <ele>1749.256104</ele>
        <time>2012-07-24T09:13:36Z</time>
      </trkpt>
      <trkpt lat="42.83786" lon="-0.47712">
        <ele>1751.659424</ele>
        <time>2012-07-24T09:13:53Z</time>
      </trkpt>
      <trkpt lat="42.83783" lon="-0.47724">
        <ele>1753.101318</ele>
        <time>2012-07-24T09:14:05Z</time>
      </trkpt>
      <trkpt lat="42.83782" lon="-0.47748">
        <ele>1755.504639</ele>
        <time>2012-07-24T09:14:24Z</time>
      </trkpt>
      <trkpt lat="42.8378" lon="-0.47752">
        <ele>1756.466064</ele>
        <time>2012-07-24T09:14:28Z</time>
      </trkpt>
      <trkpt lat="42.83779" lon="-0.47759">
        <ele>1757.42749</ele>
        <time>2012-07-24T09:14:34Z</time>
      </trkpt>
      <trkpt lat="42.83773" lon="-0.47769">
        <ele>1759.830566</ele>
        <time>2012-07-24T09:14:45Z</time>
      </trkpt>
      <trkpt lat="42.83766" lon="-0.47782">
        <ele>1763.195312</ele>
        <time>2012-07-24T09:15:00Z</time>
      </trkpt>
      <trkpt lat="42.83764" lon="-0.47803">
        <ele>1766.079102</ele>
        <time>2012-07-24T09:15:17Z</time>
      </trkpt>
      <trkpt lat="42.83769" lon="-0.47838">
        <ele>1766.079102</ele>
        <time>2012-07-24T09:15:41Z</time>
      </trkpt>
      <trkpt lat="42.83775" lon="-0.47861">
        <ele>1768.963135</ele>
        <time>2012-07-24T09:15:59Z</time>
      </trkpt>
      <trkpt lat="42.83779" lon="-0.47868">
        <ele>1771.846924</ele>
        <time>2012-07-24T09:16:11Z</time>
      </trkpt>
      <trkpt lat="42.83783" lon="-0.4788">
        <ele>1774.250488</ele>
        <time>2012-07-24T09:16:24Z</time>
      </trkpt>
      <trkpt lat="42.83789" lon="-0.47893">
        <ele>1776.653809</ele>
        <time>2012-07-24T09:16:41Z</time>
      </trkpt>
      <trkpt lat="42.83791" lon="-0.47898">
        <ele>1778.576416</ele>
        <time>2012-07-24T09:16:46Z</time>
      </trkpt>
      <trkpt lat="42.83795" lon="-0.47905">
        <ele>1780.499023</ele>
        <time>2012-07-24T09:16:55Z</time>
      </trkpt>
      <trkpt lat="42.83799" lon="-0.47917">
        <ele>1781.940918</ele>
        <time>2012-07-24T09:17:13Z</time>
      </trkpt>
      <trkpt lat="42.8379" lon="-0.47917">
        <ele>1785.30542</ele>
        <time>2012-07-24T09:17:26Z</time>
      </trkpt>
      <trkpt lat="42.83781" lon="-0.47918">
        <ele>1788.189697</ele>
        <time>2012-07-24T09:17:39Z</time>
      </trkpt>
      <trkpt lat="42.83785" lon="-0.47927">
        <ele>1790.592773</ele>
        <time>2012-07-24T09:17:54Z</time>
      </trkpt>
      <trkpt lat="42.83791" lon="-0.47938">
        <ele>1794.437988</ele>
        <time>2012-07-24T09:18:09Z</time>
      </trkpt>
      <trkpt lat="42.83799" lon="-0.47949">
        <ele>1795.399414</ele>
        <time>2012-07-24T09:18:26Z</time>
      </trkpt>
      <trkpt lat="42.83801" lon="-0.4796">
        <ele>1798.763916</ele>
        <time>2012-07-24T09:18:41Z</time>
      </trkpt>
      <trkpt lat="42.83799" lon="-0.47968">
        <ele>1801.647949</ele>
        <time>2012-07-24T09:18:53Z</time>
      </trkpt>
      <trkpt lat="42.83795" lon="-0.47968">
        <ele>1804.531982</ele>
        <time>2012-07-24T09:19:05Z</time>
      </trkpt>
      <trkpt lat="42.83793" lon="-0.47964">
        <ele>1804.531982</ele>
        <time>2012-07-24T09:19:09Z</time>
      </trkpt>
      <trkpt lat="42.83791" lon="-0.47962">
        <ele>1804.051514</ele>
        <time>2012-07-24T09:19:12Z</time>
      </trkpt>
      <trkpt lat="42.83788" lon="-0.47961">
        <ele>1805.973877</ele>
        <time>2012-07-24T09:19:15Z</time>
      </trkpt>
      <trkpt lat="42.83785" lon="-0.47961">
        <ele>1807.416016</ele>
        <time>2012-07-24T09:19:19Z</time>
      </trkpt>
      <trkpt lat="42.83775" lon="-0.47959">
        <ele>1809.819092</ele>
        <time>2012-07-24T09:19:32Z</time>
      </trkpt>
      <trkpt lat="42.83764" lon="-0.47952">
        <ele>1811.741943</ele>
        <time>2012-07-24T09:19:48Z</time>
      </trkpt>
      <trkpt lat="42.83763" lon="-0.47952">
        <ele>1812.222412</ele>
        <time>2012-07-24T09:19:49Z</time>
      </trkpt>
      <trkpt lat="42.83753" lon="-0.47939">
        <ele>1815.106445</ele>
        <time>2012-07-24T09:20:03Z</time>
      </trkpt>
      <trkpt lat="42.83751" lon="-0.47938">
        <ele>1815.587158</ele>
        <time>2012-07-24T09:20:05Z</time>
      </trkpt>
      <trkpt lat="42.83748" lon="-0.47944">
        <ele>1815.587158</ele>
        <time>2012-07-24T09:20:17Z</time>
      </trkpt>
      <trkpt lat="42.83748" lon="-0.47951">
        <ele>1817.990234</ele>
        <time>2012-07-24T09:20:23Z</time>
      </trkpt>
      <trkpt lat="42.83748" lon="-0.47964">
        <ele>1821.35498</ele>
        <time>2012-07-24T09:20:37Z</time>
      </trkpt>
      <trkpt lat="42.83745" lon="-0.47977">
        <ele>1823.758301</ele>
        <time>2012-07-24T09:20:52Z</time>
      </trkpt>
      <trkpt lat="42.83744" lon="-0.47985">
        <ele>1826.642334</ele>
        <time>2012-07-24T09:21:04Z</time>
      </trkpt>
      <trkpt lat="42.83745" lon="-0.47994">
        <ele>1828.564941</ele>
        <time>2012-07-24T09:21:17Z</time>
      </trkpt>
      <trkpt lat="42.83743" lon="-0.48002">
        <ele>1831.929443</ele>
        <time>2012-07-24T09:21:31Z</time>
      </trkpt>
      <trkpt lat="42.83741" lon="-0.48012">
        <ele>1832.410156</ele>
        <time>2012-07-24T09:21:45Z</time>
      </trkpt>
      <trkpt lat="42.83737" lon="-0.48019">
        <ele>1835.774658</ele>
        <time>2012-07-24T09:21:55Z</time>
      </trkpt>
      <trkpt lat="42.83727" lon="-0.48027">
        <ele>1838.178223</ele>
        <time>2012-07-24T09:22:12Z</time>
      </trkpt>
      <trkpt lat="42.83718" lon="-0.48028">
        <ele>1840.10083</ele>
        <time>2012-07-24T09:22:27Z</time>
      </trkpt>
      <trkpt lat="42.83707" lon="-0.48034">
        <ele>1842.50415</ele>
        <time>2012-07-24T09:22:43Z</time>
      </trkpt>
      <trkpt lat="42.83703" lon="-0.48039">
        <ele>1842.984619</ele>
        <time>2012-07-24T09:22:50Z</time>
      </trkpt>
      <trkpt lat="42.83699" lon="-0.48044">
        <ele>1843.465332</ele>
        <time>2012-07-24T09:22:55Z</time>
      </trkpt>
      <trkpt lat="42.83695" lon="-0.48062">
        <ele>1846.349365</ele>
        <time>2012-07-24T09:23:10Z</time>
      </trkpt>
      <trkpt lat="42.83689" lon="-0.48073">
        <ele>1846.829834</ele>
        <time>2012-07-24T09:23:20Z</time>
      </trkpt>
      <trkpt lat="42.8368" lon="-0.48078">
        <ele>1850.675049</ele>
        <time>2012-07-24T09:23:31Z</time>
      </trkpt>
      <trkpt lat="42.83677" lon="-0.48079">
        <ele>1851.155762</ele>
        <time>2012-07-24T09:23:35Z</time>
      </trkpt>
      <trkpt lat="42.8367" lon="-0.48082">
        <ele>1852.117188</ele>
        <time>2012-07-24T09:23:43Z</time>
      </trkpt>
      <trkpt lat="42.83662" lon="-0.48081">
        <ele>1855.481934</ele>
        <time>2012-07-24T09:23:52Z</time>
      </trkpt>
      <trkpt lat="42.83657" lon="-0.48084">
        <ele>1856.923828</ele>
        <time>2012-07-24T09:23:57Z</time>
      </trkpt>
      <trkpt lat="42.83654" lon="-0.48099">
        <ele>1859.807617</ele>
        <time>2012-07-24T09:24:09Z</time>
      </trkpt>
      <trkpt lat="42.83653" lon="-0.48113">
        <ele>1862.69165</ele>
        <time>2012-07-24T09:24:24Z</time>
      </trkpt>
      <trkpt lat="42.83651" lon="-0.48123">
        <ele>1865.094971</ele>
        <time>2012-07-24T09:24:33Z</time>
      </trkpt>
      <trkpt lat="42.83654" lon="-0.48134">
        <ele>1868.459717</ele>
        <time>2012-07-24T09:24:44Z</time>
      </trkpt>
      <trkpt lat="42.83652" lon="-0.48145">
        <ele>1871.343506</ele>
        <time>2012-07-24T09:24:58Z</time>
      </trkpt>
      <trkpt lat="42.83651" lon="-0.48149">
        <ele>1872.304932</ele>
        <time>2012-07-24T09:25:04Z</time>
      </trkpt>
      <trkpt lat="42.83648" lon="-0.48158">
        <ele>1876.630859</ele>
        <time>2012-07-24T09:25:14Z</time>
      </trkpt>
      <trkpt lat="42.83653" lon="-0.48165">
        <ele>1877.592041</ele>
        <time>2012-07-24T09:25:29Z</time>
      </trkpt>
      <trkpt lat="42.83662" lon="-0.48167">
        <ele>1880.956787</ele>
        <time>2012-07-24T09:25:43Z</time>
      </trkpt>
      <trkpt lat="42.83661" lon="-0.48176">
        <ele>1882.398682</ele>
        <time>2012-07-24T09:25:55Z</time>
      </trkpt>
      <trkpt lat="42.8366" lon="-0.48187">
        <ele>1884.802246</ele>
        <time>2012-07-24T09:26:09Z</time>
      </trkpt>
      <trkpt lat="42.8366" lon="-0.48189">
        <ele>1885.763428</ele>
        <time>2012-07-24T09:26:11Z</time>
      </trkpt>
      <trkpt lat="42.83659" lon="-0.482">
        <ele>1887.686035</ele>
        <time>2012-07-24T09:26:26Z</time>
      </trkpt>
      <trkpt lat="42.83668" lon="-0.48207">
        <ele>1890.089355</ele>
        <time>2012-07-24T09:26:42Z</time>
      </trkpt>
      <trkpt lat="42.83671" lon="-0.48207">
        <ele>1892.492676</ele>
        <time>2012-07-24T09:26:46Z</time>
      </trkpt>
      <trkpt lat="42.83676" lon="-0.48203">
        <ele>1893.93457</ele>
        <time>2012-07-24T09:26:55Z</time>
      </trkpt>
      <trkpt lat="42.83676" lon="-0.48205">
        <ele>1894.415039</ele>
        <time>2012-07-24T09:26:57Z</time>
      </trkpt>
      <trkpt lat="42.83674" lon="-0.48223">
        <ele>1897.299072</ele>
        <time>2012-07-24T09:27:12Z</time>
      </trkpt>
      <trkpt lat="42.83674" lon="-0.48235">
        <ele>1898.740967</ele>
        <time>2012-07-24T09:27:26Z</time>
      </trkpt>
      <trkpt lat="42.83675" lon="-0.48241">
        <ele>1901.144531</ele>
        <time>2012-07-24T09:27:37Z</time>
      </trkpt>
      <trkpt lat="42.83671" lon="-0.4825">
        <ele>1903.067139</ele>
        <time>2012-07-24T09:27:50Z</time>
      </trkpt>
      <trkpt lat="42.83682" lon="-0.48248">
        <ele>1905.950928</ele>
        <time>2012-07-24T09:28:04Z</time>
      </trkpt>
      <trkpt lat="42.83685" lon="-0.48257">
        <ele>1907.393066</ele>
        <time>2012-07-24T09:28:18Z</time>
      </trkpt>
      <trkpt lat="42.83685" lon="-0.48267">
        <ele>1910.276855</ele>
        <time>2012-07-24T09:28:30Z</time>
      </trkpt>
      <trkpt lat="42.83682" lon="-0.48274">
        <ele>1912.680176</ele>
        <time>2012-07-24T09:28:39Z</time>
      </trkpt>
      <trkpt lat="42.83673" lon="-0.48284">
        <ele>1914.602783</ele>
        <time>2012-07-24T09:28:55Z</time>
      </trkpt>
      <trkpt lat="42.83669" lon="-0.48292">
        <ele>1917.486816</ele>
        <time>2012-07-24T09:29:09Z</time>
      </trkpt>
      <trkpt lat="42.83666" lon="-0.48293">
        <ele>1917.967529</ele>
        <time>2012-07-24T09:29:20Z</time>
      </trkpt>
      <trkpt lat="42.83658" lon="-0.48288">
        <ele>1919.890137</ele>
        <time>2012-07-24T09:29:34Z</time>
      </trkpt>
      <trkpt lat="42.83653" lon="-0.48287">
        <ele>1920.37085</ele>
        <time>2012-07-24T09:29:47Z</time>
      </trkpt>
      <trkpt lat="42.83641" lon="-0.48278">
        <ele>1922.293457</ele>
        <time>2012-07-24T09:30:04Z</time>
      </trkpt>
      <trkpt lat="42.83637" lon="-0.4828">
        <ele>1925.177246</ele>
        <time>2012-07-24T09:30:18Z</time>
      </trkpt>
      <trkpt lat="42.83629" lon="-0.48274">
        <ele>1926.619385</ele>
        <time>2012-07-24T09:30:34Z</time>
      </trkpt>
      <trkpt lat="42.83622" lon="-0.4827">
        <ele>1927.100098</ele>
        <time>2012-07-24T09:30:55Z</time>
      </trkpt>
      <trkpt lat="42.8362" lon="-0.48269">
        <ele>1930.945312</ele>
        <time>2012-07-24T09:30:58Z</time>
      </trkpt>
      <trkpt lat="42.8362" lon="-0.48269">
        <ele>1930.4646</ele>
        <time>2012-07-24T09:30:59Z</time>
      </trkpt>
      <trkpt lat="42.83613" lon="-0.48263">
        <ele>1932.387451</ele>
        <time>2012-07-24T09:31:10Z</time>
      </trkpt>
      <trkpt lat="42.83603" lon="-0.48262">
        <ele>1934.790771</ele>
        <time>2012-07-24T09:31:23Z</time>
      </trkpt>
      <trkpt lat="42.83599" lon="-0.48261">
        <ele>1935.751953</ele>
        <time>2012-07-24T09:31:27Z</time>
      </trkpt>
      <trkpt lat="42.83594" lon="-0.48259">
        <ele>1937.193848</ele>
        <time>2012-07-24T09:31:34Z</time>
      </trkpt>
      <trkpt lat="42.83592" lon="-0.48266">
        <ele>1939.597168</ele>
        <time>2012-07-24T09:31:47Z</time>
      </trkpt>
      <trkpt lat="42.836" lon="-0.48282">
        <ele>1942.481201</ele>
        <time>2012-07-24T09:32:04Z</time>
      </trkpt>
      <trkpt lat="42.83604" lon="-0.48293">
        <ele>1944.884277</ele>
        <time>2012-07-24T09:32:15Z</time>
      </trkpt>
      <trkpt lat="42.83607" lon="-0.48303">
        <ele>1946.806885</ele>
        <time>2012-07-24T09:32:29Z</time>
      </trkpt>
      <trkpt lat="42.83608" lon="-0.4831">
        <ele>1947.768311</ele>
        <time>2012-07-24T09:32:43Z</time>
      </trkpt>
      <trkpt lat="42.83604" lon="-0.48315">
        <ele>1949.691162</ele>
        <time>2012-07-24T09:32:52Z</time>
      </trkpt>
      <trkpt lat="42.83595" lon="-0.48324">
        <ele>1953.536377</ele>
        <time>2012-07-24T09:33:03Z</time>
      </trkpt>
      <trkpt lat="42.83585" lon="-0.48338">
        <ele>1956.420166</ele>
        <time>2012-07-24T09:33:18Z</time>
      </trkpt>
      <trkpt lat="42.8358" lon="-0.48351">
        <ele>1957.862305</ele>
        <time>2012-07-24T09:33:32Z</time>
      </trkpt>
      <trkpt lat="42.83571" lon="-0.48347">
        <ele>1957.381592</ele>
        <time>2012-07-24T09:33:48Z</time>
      </trkpt>
      <trkpt lat="42.8357" lon="-0.48344">
        <ele>1957.862305</ele>
        <time>2012-07-24T09:33:59Z</time>
      </trkpt>
      <trkpt lat="42.8359" lon="-0.48357">
        <ele>1958.823486</ele>
        <time>2012-07-24T09:34:22Z</time>
      </trkpt>
      <trkpt lat="42.83584" lon="-0.48354">
        <ele>1958.342773</ele>
        <time>2012-07-24T09:34:54Z</time>
      </trkpt>
      <trkpt lat="42.8358" lon="-0.48358">
        <ele>1956.420166</ele>
        <time>2012-07-24T09:35:29Z</time>
      </trkpt>
      <trkpt lat="42.83574" lon="-0.48374">
        <ele>1955.939453</ele>
        <time>2012-07-24T09:35:48Z</time>
      </trkpt>
      <trkpt lat="42.83579" lon="-0.4837">
        <ele>1955.458984</ele>
        <time>2012-07-24T09:36:28Z</time>
      </trkpt>
      <trkpt lat="42.8357" lon="-0.48375">
        <ele>1955.939453</ele>
        <time>2012-07-24T09:36:46Z</time>
      </trkpt>
      <trkpt lat="42.8357" lon="-0.48375">
        <ele>1955.458984</ele>
        <time>2012-07-24T09:36:58Z</time>
      </trkpt>
      <trkpt lat="42.83569" lon="-0.48375">
        <ele>1956.900879</ele>
        <time>2012-07-24T09:37:05Z</time>
      </trkpt>
      <trkpt lat="42.83566" lon="-0.48374">
        <ele>1954.01709</ele>
        <time>2012-07-24T09:39:26Z</time>
      </trkpt>
      <trkpt lat="42.83566" lon="-0.48374">
        <ele>1955.939453</ele>
        <time>2012-07-24T09:41:05Z</time>
      </trkpt>
      <trkpt lat="42.83566" lon="-0.48373">
        <ele>1955.939453</ele>
        <time>2012-07-24T09:43:18Z</time>
      </trkpt>
      <trkpt lat="42.83566" lon="-0.4837">
        <ele>1957.381592</ele>
        <time>2012-07-24T09:49:39Z</time>
      </trkpt>
      <trkpt lat="42.83566" lon="-0.4837">
        <ele>1956.900879</ele>
        <time>2012-07-24T09:50:10Z</time>
      </trkpt>
      <trkpt lat="42.83565" lon="-0.48369">
        <ele>1956.420166</ele>
        <time>2012-07-24T09:51:47Z</time>
      </trkpt>
      <trkpt lat="42.83564" lon="-0.48369">
        <ele>1958.342773</ele>
        <time>2012-07-24T09:51:50Z</time>
      </trkpt>
      <trkpt lat="42.83563" lon="-0.48372">
        <ele>1957.381592</ele>
        <time>2012-07-24T09:52:27Z</time>
      </trkpt>
      <trkpt lat="42.83561" lon="-0.48373">
        <ele>1957.862305</ele>
        <time>2012-07-24T09:53:16Z</time>
      </trkpt>
      <trkpt lat="42.83555" lon="-0.48375">
        <ele>1957.381592</ele>
        <time>2012-07-24T09:53:32Z</time>
      </trkpt>
      <trkpt lat="42.83553" lon="-0.48376">
        <ele>1955.458984</ele>
        <time>2012-07-24T09:53:35Z</time>
      </trkpt>
      <trkpt lat="42.83539" lon="-0.48386">
        <ele>1954.01709</ele>
        <time>2012-07-24T09:53:53Z</time>
      </trkpt>
      <trkpt lat="42.83526" lon="-0.48393">
        <ele>1951.61377</ele>
        <time>2012-07-24T09:54:09Z</time>
      </trkpt>
      <trkpt lat="42.83526" lon="-0.48393">
        <ele>1951.61377</ele>
        <time>2012-07-24T09:54:10Z</time>
      </trkpt>
      <trkpt lat="42.83525" lon="-0.48395">
        <ele>1951.61377</ele>
        <time>2012-07-24T09:54:13Z</time>
      </trkpt>
      <trkpt lat="42.83519" lon="-0.484">
        <ele>1950.171875</ele>
        <time>2012-07-24T09:54:20Z</time>
      </trkpt>
      <trkpt lat="42.83516" lon="-0.48405">
        <ele>1952.574951</ele>
        <time>2012-07-24T09:54:24Z</time>
      </trkpt>
      <trkpt lat="42.83506" lon="-0.48418">
        <ele>1949.210449</ele>
        <time>2012-07-24T09:54:38Z</time>
      </trkpt>
      <trkpt lat="42.83498" lon="-0.48432">
        <ele>1948.249023</ele>
        <time>2012-07-24T09:54:53Z</time>
      </trkpt>
      <trkpt lat="42.8348" lon="-0.48455">
        <ele>1946.806885</ele>
        <time>2012-07-24T09:55:15Z</time>
      </trkpt>
      <trkpt lat="42.83476" lon="-0.48464">
        <ele>1945.36499</ele>
        <time>2012-07-24T09:55:22Z</time>
      </trkpt>
      <trkpt lat="42.83472" lon="-0.48468">
        <ele>1945.845703</ele>
        <time>2012-07-24T09:55:27Z</time>
      </trkpt>
      <trkpt lat="42.83467" lon="-0.48484">
        <ele>1944.884277</ele>
        <time>2012-07-24T09:55:40Z</time>
      </trkpt>
      <trkpt lat="42.83463" lon="-0.4849">
        <ele>1943.923096</ele>
        <time>2012-07-24T09:55:46Z</time>
      </trkpt>
      <trkpt lat="42.8346" lon="-0.48494">
        <ele>1942.96167</ele>
        <time>2012-07-24T09:55:50Z</time>
      </trkpt>
      <trkpt lat="42.83454" lon="-0.48516">
        <ele>1943.442383</ele>
        <time>2012-07-24T09:56:05Z</time>
      </trkpt>
      <trkpt lat="42.83452" lon="-0.4855">
        <ele>1943.923096</ele>
        <time>2012-07-24T09:56:27Z</time>
      </trkpt>
      <trkpt lat="42.83463" lon="-0.48587">
        <ele>1944.403564</ele>
        <time>2012-07-24T09:56:50Z</time>
      </trkpt>
      <trkpt lat="42.83472" lon="-0.48608">
        <ele>1943.923096</ele>
        <time>2012-07-24T09:57:06Z</time>
      </trkpt>
      <trkpt lat="42.83481" lon="-0.48626">
        <ele>1946.806885</ele>
        <time>2012-07-24T09:57:23Z</time>
      </trkpt>
      <trkpt lat="42.83482" lon="-0.48631">
        <ele>1948.729736</ele>
        <time>2012-07-24T09:57:29Z</time>
      </trkpt>
      <trkpt lat="42.83484" lon="-0.48646">
        <ele>1948.249023</ele>
        <time>2012-07-24T09:57:43Z</time>
      </trkpt>
      <trkpt lat="42.83485" lon="-0.48648">
        <ele>1948.729736</ele>
        <time>2012-07-24T09:57:45Z</time>
      </trkpt>
      <trkpt lat="42.83481" lon="-0.48674">
        <ele>1947.768311</ele>
        <time>2012-07-24T09:58:03Z</time>
      </trkpt>
      <trkpt lat="42.8348" lon="-0.48688">
        <ele>1948.729736</ele>
        <time>2012-07-24T09:58:16Z</time>
      </trkpt>
      <trkpt lat="42.83479" lon="-0.48701">
        <ele>1948.729736</ele>
        <time>2012-07-24T09:58:25Z</time>
      </trkpt>
      <trkpt lat="42.8348" lon="-0.48707">
        <ele>1949.691162</ele>
        <time>2012-07-24T09:58:29Z</time>
      </trkpt>
      <trkpt lat="42.83479" lon="-0.48734">
        <ele>1950.652344</ele>
        <time>2012-07-24T09:58:48Z</time>
      </trkpt>
      <trkpt lat="42.83482" lon="-0.48753">
        <ele>1951.61377</ele>
        <time>2012-07-24T09:59:03Z</time>
      </trkpt>
      <trkpt lat="42.83486" lon="-0.48764">
        <ele>1953.536377</ele>
        <time>2012-07-24T09:59:13Z</time>
      </trkpt>
      <trkpt lat="42.83486" lon="-0.48771">
        <ele>1953.536377</ele>
        <time>2012-07-24T09:59:18Z</time>
      </trkpt>
      <trkpt lat="42.83491" lon="-0.48792">
        <ele>1954.01709</ele>
        <time>2012-07-24T09:59:34Z</time>
      </trkpt>
      <trkpt lat="42.83491" lon="-0.48797">
        <ele>1954.497559</ele>
        <time>2012-07-24T09:59:38Z</time>
      </trkpt>
      <trkpt lat="42.83485" lon="-0.4882">
        <ele>1955.939453</ele>
        <time>2012-07-24T09:59:58Z</time>
      </trkpt>
      <trkpt lat="42.83487" lon="-0.48834">
        <ele>1959.304199</ele>
        <time>2012-07-24T10:00:17Z</time>
      </trkpt>
      <trkpt lat="42.83487" lon="-0.48834">
        <ele>1959.784668</ele>
        <time>2012-07-24T10:00:18Z</time>
      </trkpt>
      <trkpt lat="42.83487" lon="-0.48843">
        <ele>1961.226807</ele>
        <time>2012-07-24T10:00:29Z</time>
      </trkpt>
      <trkpt lat="42.83485" lon="-0.48862">
        <ele>1962.187988</ele>
        <time>2012-07-24T10:00:43Z</time>
      </trkpt>
      <trkpt lat="42.83491" lon="-0.48883">
        <ele>1964.11084</ele>
        <time>2012-07-24T10:01:00Z</time>
      </trkpt>
      <trkpt lat="42.83486" lon="-0.48909">
        <ele>1965.552979</ele>
        <time>2012-07-24T10:01:20Z</time>
      </trkpt>
      <trkpt lat="42.83482" lon="-0.48937">
        <ele>1966.033447</ele>
        <time>2012-07-24T10:01:41Z</time>
      </trkpt>
      <trkpt lat="42.83472" lon="-0.48951">
        <ele>1968.436768</ele>
        <time>2012-07-24T10:01:58Z</time>
      </trkpt>
      <trkpt lat="42.83465" lon="-0.4896">
        <ele>1970.840088</ele>
        <time>2012-07-24T10:02:11Z</time>
      </trkpt>
      <trkpt lat="42.83459" lon="-0.48975">
        <ele>1972.762695</ele>
        <time>2012-07-24T10:02:27Z</time>
      </trkpt>
      <trkpt lat="42.8346" lon="-0.48986">
        <ele>1972.762695</ele>
        <time>2012-07-24T10:02:37Z</time>
      </trkpt>
      <trkpt lat="42.83458" lon="-0.49003">
        <ele>1974.685303</ele>
        <time>2012-07-24T10:02:52Z</time>
      </trkpt>
      <trkpt lat="42.83454" lon="-0.49023">
        <ele>1977.569092</ele>
        <time>2012-07-24T10:03:10Z</time>
      </trkpt>
      <trkpt lat="42.8345" lon="-0.49034">
        <ele>1980.934082</ele>
        <time>2012-07-24T10:03:23Z</time>
      </trkpt>
      <trkpt lat="42.83446" lon="-0.49043">
        <ele>1983.817871</ele>
        <time>2012-07-24T10:03:36Z</time>
      </trkpt>
      <trkpt lat="42.83441" lon="-0.49042">
        <ele>1983.817871</ele>
        <time>2012-07-24T10:03:42Z</time>
      </trkpt>
      <trkpt lat="42.83427" lon="-0.49052">
        <ele>1985.259766</ele>
        <time>2012-07-24T10:03:59Z</time>
      </trkpt>
      <trkpt lat="42.83418" lon="-0.49065">
        <ele>1988.143799</ele>
        <time>2012-07-24T10:04:16Z</time>
      </trkpt>
      <trkpt lat="42.83411" lon="-0.4907">
        <ele>1988.624512</ele>
        <time>2012-07-24T10:04:24Z</time>
      </trkpt>
      <trkpt lat="42.83405" lon="-0.49078">
        <ele>1990.066406</ele>
        <time>2012-07-24T10:04:43Z</time>
      </trkpt>
      <trkpt lat="42.83405" lon="-0.49079">
        <ele>1991.027588</ele>
        <time>2012-07-24T10:04:56Z</time>
      </trkpt>
      <trkpt lat="42.83401" lon="-0.49088">
        <ele>1993.430908</ele>
        <time>2012-07-24T10:05:16Z</time>
      </trkpt>
      <trkpt lat="42.83397" lon="-0.49099">
        <ele>1993.911621</ele>
        <time>2012-07-24T10:05:26Z</time>
      </trkpt>
      <trkpt lat="42.83393" lon="-0.49118">
        <ele>1994.39209</ele>
        <time>2012-07-24T10:05:42Z</time>
      </trkpt>
      <trkpt lat="42.83393" lon="-0.49124">
        <ele>1995.834229</ele>
        <time>2012-07-24T10:05:47Z</time>
      </trkpt>
      <trkpt lat="42.83391" lon="-0.49128">
        <ele>1996.795654</ele>
        <time>2012-07-24T10:05:51Z</time>
      </trkpt>
      <trkpt lat="42.83385" lon="-0.49147">
        <ele>1998.237549</ele>
        <time>2012-07-24T10:06:08Z</time>
      </trkpt>
      <trkpt lat="42.83388" lon="-0.49146">
        <ele>1998.718262</ele>
        <time>2012-07-24T10:06:25Z</time>
      </trkpt>
      <trkpt lat="42.83395" lon="-0.49148">
        <ele>2000.640869</ele>
        <time>2012-07-24T10:06:33Z</time>
      </trkpt>
      <trkpt lat="42.83408" lon="-0.49156">
        <ele>2002.563477</ele>
        <time>2012-07-24T10:06:48Z</time>
      </trkpt>
      <trkpt lat="42.83415" lon="-0.49169">
        <ele>2004.966797</ele>
        <time>2012-07-24T10:07:05Z</time>
      </trkpt>
      <trkpt lat="42.83413" lon="-0.49169">
        <ele>2004.966797</ele>
        <time>2012-07-24T10:07:09Z</time>
      </trkpt>
      <trkpt lat="42.83405" lon="-0.49168">
        <ele>2004.966797</ele>
        <time>2012-07-24T10:07:26Z</time>
      </trkpt>
      <trkpt lat="42.83403" lon="-0.49168">
        <ele>2005.927979</ele>
        <time>2012-07-24T10:07:58Z</time>
      </trkpt>
      <trkpt lat="42.83392" lon="-0.49174">
        <ele>2005.44751</ele>
        <time>2012-07-24T10:08:14Z</time>
      </trkpt>
      <trkpt lat="42.8338" lon="-0.49174">
        <ele>2003.044189</ele>
        <time>2012-07-24T10:08:29Z</time>
      </trkpt>
      <trkpt lat="42.83371" lon="-0.49178">
        <ele>2002.563477</ele>
        <time>2012-07-24T10:08:44Z</time>
      </trkpt>
      <trkpt lat="42.8336" lon="-0.49188">
        <ele>2002.082764</ele>
        <time>2012-07-24T10:09:01Z</time>
      </trkpt>
      <trkpt lat="42.83354" lon="-0.49192">
        <ele>2001.602295</ele>
        <time>2012-07-24T10:09:16Z</time>
      </trkpt>
      <trkpt lat="42.83353" lon="-0.49192">
        <ele>2001.602295</ele>
        <time>2012-07-24T10:09:17Z</time>
      </trkpt>
      <trkpt lat="42.83345" lon="-0.49202">
        <ele>2000.640869</ele>
        <time>2012-07-24T10:09:31Z</time>
      </trkpt>
      <trkpt lat="42.83342" lon="-0.49204">
        <ele>2001.602295</ele>
        <time>2012-07-24T10:09:35Z</time>
      </trkpt>
      <trkpt lat="42.83335" lon="-0.49208">
        <ele>2000.1604</ele>
        <time>2012-07-24T10:09:45Z</time>
      </trkpt>
      <trkpt lat="42.83328" lon="-0.49221">
        <ele>1998.718262</ele>
        <time>2012-07-24T10:09:58Z</time>
      </trkpt>
      <trkpt lat="42.83317" lon="-0.49237">
        <ele>1999.679688</ele>
        <time>2012-07-24T10:10:16Z</time>
      </trkpt>
      <trkpt lat="42.83304" lon="-0.49241">
        <ele>1999.198975</ele>
        <time>2012-07-24T10:10:31Z</time>
      </trkpt>
      <trkpt lat="42.83301" lon="-0.49245">
        <ele>1999.198975</ele>
        <time>2012-07-24T10:10:35Z</time>
      </trkpt>
      <trkpt lat="42.83288" lon="-0.49261">
        <ele>1999.198975</ele>
        <time>2012-07-24T10:10:55Z</time>
      </trkpt>
      <trkpt lat="42.8328" lon="-0.49267">
        <ele>1999.198975</ele>
        <time>2012-07-24T10:11:09Z</time>
      </trkpt>
      <trkpt lat="42.83274" lon="-0.49271">
        <ele>1999.679688</ele>
        <time>2012-07-24T10:11:22Z</time>
      </trkpt>
      <trkpt lat="42.83263" lon="-0.49275">
        <ele>2000.1604</ele>
        <time>2012-07-24T10:11:34Z</time>
      </trkpt>
      <trkpt lat="42.83251" lon="-0.49291">
        <ele>2000.640869</ele>
        <time>2012-07-24T10:11:52Z</time>
      </trkpt>
      <trkpt lat="42.8325" lon="-0.49291">
        <ele>2000.640869</ele>
        <time>2012-07-24T10:11:53Z</time>
      </trkpt>
      <trkpt lat="42.83228" lon="-0.493">
        <ele>2002.563477</ele>
        <time>2012-07-24T10:12:15Z</time>
      </trkpt>
      <trkpt lat="42.83215" lon="-0.49307">
        <ele>2004.486084</ele>
        <time>2012-07-24T10:12:31Z</time>
      </trkpt>
      <trkpt lat="42.83202" lon="-0.49317">
        <ele>2006.408691</ele>
        <time>2012-07-24T10:12:48Z</time>
      </trkpt>
      <trkpt lat="42.83202" lon="-0.49318">
        <ele>2005.927979</ele>
        <time>2012-07-24T10:12:49Z</time>
      </trkpt>
      <trkpt lat="42.8319" lon="-0.49323">
        <ele>2007.85083</ele>
        <time>2012-07-24T10:13:04Z</time>
      </trkpt>
      <trkpt lat="42.83189" lon="-0.49323">
        <ele>2009.292725</ele>
        <time>2012-07-24T10:13:06Z</time>
      </trkpt>
      <trkpt lat="42.83179" lon="-0.49328">
        <ele>2011.215332</ele>
        <time>2012-07-24T10:13:22Z</time>
      </trkpt>
      <trkpt lat="42.83172" lon="-0.49329">
        <ele>2012.657471</ele>
        <time>2012-07-24T10:13:30Z</time>
      </trkpt>
      <trkpt lat="42.83161" lon="-0.49335">
        <ele>2015.541504</ele>
        <time>2012-07-24T10:13:45Z</time>
      </trkpt>
      <trkpt lat="42.83147" lon="-0.49342">
        <ele>2017.94458</ele>
        <time>2012-07-24T10:14:03Z</time>
      </trkpt>
      <trkpt lat="42.83136" lon="-0.49342">
        <ele>2020.828613</ele>
        <time>2012-07-24T10:14:18Z</time>
      </trkpt>
      <trkpt lat="42.83136" lon="-0.49342">
        <ele>2021.309082</ele>
        <time>2012-07-24T10:14:47Z</time>
      </trkpt>
      <trkpt lat="42.83133" lon="-0.49345">
        <ele>2021.309082</ele>
        <time>2012-07-24T10:15:32Z</time>
      </trkpt>
      <trkpt lat="42.83124" lon="-0.49349">
        <ele>2023.712402</ele>
        <time>2012-07-24T10:16:05Z</time>
      </trkpt>
      <trkpt lat="42.83113" lon="-0.49356">
        <ele>2026.596436</ele>
        <time>2012-07-24T10:16:25Z</time>
      </trkpt>
      <trkpt lat="42.83102" lon="-0.49354">
        <ele>2028.999756</ele>
        <time>2012-07-24T10:16:42Z</time>
      </trkpt>
      <trkpt lat="42.83095" lon="-0.49353">
        <ele>2032.364502</ele>
        <time>2012-07-24T10:16:53Z</time>
      </trkpt>
      <trkpt lat="42.83093" lon="-0.49353">
        <ele>2031.883789</ele>
        <time>2012-07-24T10:16:57Z</time>
      </trkpt>
      <trkpt lat="42.83085" lon="-0.49358">
        <ele>2035.729004</ele>
        <time>2012-07-24T10:17:11Z</time>
      </trkpt>
      <trkpt lat="42.83075" lon="-0.49365">
        <ele>2037.651611</ele>
        <time>2012-07-24T10:17:30Z</time>
      </trkpt>
      <trkpt lat="42.83069" lon="-0.49373">
        <ele>2041.016113</ele>
        <time>2012-07-24T10:17:46Z</time>
      </trkpt>
      <trkpt lat="42.83063" lon="-0.49383">
        <ele>2042.458252</ele>
        <time>2012-07-24T10:18:04Z</time>
      </trkpt>
      <trkpt lat="42.83057" lon="-0.49389">
        <ele>2045.822998</ele>
        <time>2012-07-24T10:18:17Z</time>
      </trkpt>
      <trkpt lat="42.83049" lon="-0.49398">
        <ele>2047.264893</ele>
        <time>2012-07-24T10:18:33Z</time>
      </trkpt>
      <trkpt lat="42.8304" lon="-0.49409">
        <ele>2050.629395</ele>
        <time>2012-07-24T10:18:49Z</time>
      </trkpt>
      <trkpt lat="42.83035" lon="-0.49424">
        <ele>2053.032715</ele>
        <time>2012-07-24T10:19:05Z</time>
      </trkpt>
      <trkpt lat="42.83027" lon="-0.49444">
        <ele>2055.916504</ele>
        <time>2012-07-24T10:19:24Z</time>
      </trkpt>
      <trkpt lat="42.8302" lon="-0.49467">
        <ele>2057.839355</ele>
        <time>2012-07-24T10:19:43Z</time>
      </trkpt>
      <trkpt lat="42.83007" lon="-0.49489">
        <ele>2058.319824</ele>
        <time>2012-07-24T10:20:05Z</time>
      </trkpt>
      <trkpt lat="42.82995" lon="-0.49504">
        <ele>2059.761719</ele>
        <time>2012-07-24T10:20:23Z</time>
      </trkpt>
      <trkpt lat="42.82993" lon="-0.49506">
        <ele>2060.723389</ele>
        <time>2012-07-24T10:20:26Z</time>
      </trkpt>
      <trkpt lat="42.82992" lon="-0.49506">
        <ele>2060.723389</ele>
        <time>2012-07-24T10:20:28Z</time>
      </trkpt>
      <trkpt lat="42.82983" lon="-0.49515">
        <ele>2063.607178</ele>
        <time>2012-07-24T10:20:43Z</time>
      </trkpt>
      <trkpt lat="42.82975" lon="-0.49517">
        <ele>2064.568604</ele>
        <time>2012-07-24T10:20:54Z</time>
      </trkpt>
      <trkpt lat="42.82967" lon="-0.49518">
        <ele>2066.971924</ele>
        <time>2012-07-24T10:21:06Z</time>
      </trkpt>
      <trkpt lat="42.82958" lon="-0.49519">
        <ele>2068.894531</ele>
        <time>2012-07-24T10:21:17Z</time>
      </trkpt>
      <trkpt lat="42.82954" lon="-0.49518">
        <ele>2070.336426</ele>
        <time>2012-07-24T10:21:22Z</time>
      </trkpt>
      <trkpt lat="42.82942" lon="-0.49521">
        <ele>2072.739746</ele>
        <time>2012-07-24T10:21:37Z</time>
      </trkpt>
      <trkpt lat="42.82937" lon="-0.49521">
        <ele>2074.181641</ele>
        <time>2012-07-24T10:21:43Z</time>
      </trkpt>
      <trkpt lat="42.82921" lon="-0.49525">
        <ele>2076.104492</ele>
        <time>2012-07-24T10:22:01Z</time>
      </trkpt>
      <trkpt lat="42.82905" lon="-0.49536">
        <ele>2078.0271</ele>
        <time>2012-07-24T10:22:20Z</time>
      </trkpt>
      <trkpt lat="42.82892" lon="-0.49541">
        <ele>2081.391602</ele>
        <time>2012-07-24T10:22:38Z</time>
      </trkpt>
      <trkpt lat="42.82884" lon="-0.49545">
        <ele>2084.756348</ele>
        <time>2012-07-24T10:22:50Z</time>
      </trkpt>
      <trkpt lat="42.82881" lon="-0.49546">
        <ele>2085.717529</ele>
        <time>2012-07-24T10:22:55Z</time>
      </trkpt>
      <trkpt lat="42.8287" lon="-0.49551">
        <ele>2088.601562</ele>
        <time>2012-07-24T10:23:12Z</time>
      </trkpt>
      <trkpt lat="42.82864" lon="-0.49557">
        <ele>2091.004639</ele>
        <time>2012-07-24T10:23:29Z</time>
      </trkpt>
      <trkpt lat="42.82858" lon="-0.49564">
        <ele>2093.888916</ele>
        <time>2012-07-24T10:23:42Z</time>
      </trkpt>
      <trkpt lat="42.82853" lon="-0.4957">
        <ele>2096.772705</ele>
        <time>2012-07-24T10:23:53Z</time>
      </trkpt>
      <trkpt lat="42.8285" lon="-0.49572">
        <ele>2096.292236</ele>
        <time>2012-07-24T10:24:00Z</time>
      </trkpt>
      <trkpt lat="42.82846" lon="-0.49572">
        <ele>2098.2146</ele>
        <time>2012-07-24T10:24:04Z</time>
      </trkpt>
      <trkpt lat="42.82841" lon="-0.49573">
        <ele>2100.137451</ele>
        <time>2012-07-24T10:24:10Z</time>
      </trkpt>
      <trkpt lat="42.82837" lon="-0.49574">
        <ele>2101.098633</ele>
        <time>2012-07-24T10:24:24Z</time>
      </trkpt>
      <trkpt lat="42.82835" lon="-0.49575">
        <ele>2101.098633</ele>
        <time>2012-07-24T10:24:44Z</time>
      </trkpt>
      <trkpt lat="42.82824" lon="-0.49577">
        <ele>2101.579346</ele>
        <time>2012-07-24T10:24:56Z</time>
      </trkpt>
      <trkpt lat="42.82818" lon="-0.49584">
        <ele>2104.943848</ele>
        <time>2012-07-24T10:25:08Z</time>
      </trkpt>
      <trkpt lat="42.82815" lon="-0.49592">
        <ele>2107.347168</ele>
        <time>2012-07-24T10:25:22Z</time>
      </trkpt>
      <trkpt lat="42.82813" lon="-0.496">
        <ele>2108.789307</ele>
        <time>2012-07-24T10:25:34Z</time>
      </trkpt>
      <trkpt lat="42.8281" lon="-0.4961">
        <ele>2110.231201</ele>
        <time>2012-07-24T10:25:48Z</time>
      </trkpt>
      <trkpt lat="42.82799" lon="-0.49623">
        <ele>2113.115234</ele>
        <time>2012-07-24T10:26:07Z</time>
      </trkpt>
      <trkpt lat="42.82791" lon="-0.49627">
        <ele>2115.999023</ele>
        <time>2012-07-24T10:26:18Z</time>
      </trkpt>
      <trkpt lat="42.82787" lon="-0.4963">
        <ele>2118.402344</ele>
        <time>2012-07-24T10:26:29Z</time>
      </trkpt>
      <trkpt lat="42.82778" lon="-0.49637">
        <ele>2119.844238</ele>
        <time>2012-07-24T10:26:45Z</time>
      </trkpt>
      <trkpt lat="42.82771" lon="-0.49641">
        <ele>2121.286133</ele>
        <time>2012-07-24T10:27:01Z</time>
      </trkpt>
      <trkpt lat="42.82758" lon="-0.49654">
        <ele>2123.689453</ele>
        <time>2012-07-24T10:27:20Z</time>
      </trkpt>
      <trkpt lat="42.82752" lon="-0.49665">
        <ele>2126.093018</ele>
        <time>2012-07-24T10:27:38Z</time>
      </trkpt>
      <trkpt lat="42.8275" lon="-0.49674">
        <ele>2129.45752</ele>
        <time>2012-07-24T10:27:49Z</time>
      </trkpt>
      <trkpt lat="42.82745" lon="-0.49686">
        <ele>2129.45752</ele>
        <time>2012-07-24T10:28:03Z</time>
      </trkpt>
      <trkpt lat="42.8274" lon="-0.49697">
        <ele>2130.418945</ele>
        <time>2012-07-24T10:28:16Z</time>
      </trkpt>
      <trkpt lat="42.82733" lon="-0.49698">
        <ele>2129.938232</ele>
        <time>2012-07-24T10:28:30Z</time>
      </trkpt>
      <trkpt lat="42.82731" lon="-0.49699">
        <ele>2129.45752</ele>
        <time>2012-07-24T10:28:34Z</time>
      </trkpt>
      <trkpt lat="42.82719" lon="-0.49712">
        <ele>2129.938232</ele>
        <time>2012-07-24T10:28:50Z</time>
      </trkpt>
      <trkpt lat="42.82703" lon="-0.49721">
        <ele>2128.015625</ele>
        <time>2012-07-24T10:29:08Z</time>
      </trkpt>
      <trkpt lat="42.82689" lon="-0.49727">
        <ele>2130.418945</ele>
        <time>2012-07-24T10:29:24Z</time>
      </trkpt>
      <trkpt lat="42.82685" lon="-0.4973">
        <ele>2131.86084</ele>
        <time>2012-07-24T10:29:31Z</time>
      </trkpt>
      <trkpt lat="42.82675" lon="-0.49733">
        <ele>2133.783447</ele>
        <time>2012-07-24T10:29:44Z</time>
      </trkpt>
      <trkpt lat="42.82669" lon="-0.49733">
        <ele>2136.186768</ele>
        <time>2012-07-24T10:29:54Z</time>
      </trkpt>
      <trkpt lat="42.82661" lon="-0.49736">
        <ele>2139.55127</ele>
        <time>2012-07-24T10:30:06Z</time>
      </trkpt>
      <trkpt lat="42.82653" lon="-0.49735">
        <ele>2141.954834</ele>
        <time>2012-07-24T10:30:19Z</time>
      </trkpt>
      <trkpt lat="42.82651" lon="-0.49736">
        <ele>2143.396729</ele>
        <time>2012-07-24T10:30:22Z</time>
      </trkpt>
      <trkpt lat="42.82642" lon="-0.49742">
        <ele>2145.800049</ele>
        <time>2012-07-24T10:30:37Z</time>
      </trkpt>
      <trkpt lat="42.82642" lon="-0.49742">
        <ele>2145.319336</ele>
        <time>2012-07-24T10:30:43Z</time>
      </trkpt>
      <trkpt lat="42.82635" lon="-0.4974">
        <ele>2147.722656</ele>
        <time>2012-07-24T10:31:08Z</time>
      </trkpt>
      <trkpt lat="42.82634" lon="-0.4974">
        <ele>2147.241943</ele>
        <time>2012-07-24T10:31:20Z</time>
      </trkpt>
      <trkpt lat="42.82635" lon="-0.4974">
        <ele>2148.683838</ele>
        <time>2012-07-24T10:31:22Z</time>
      </trkpt>
      <trkpt lat="42.82637" lon="-0.49751">
        <ele>2144.838623</ele>
        <time>2012-07-24T10:31:32Z</time>
      </trkpt>
      <trkpt lat="42.82636" lon="-0.49755">
        <ele>2145.319336</ele>
        <time>2012-07-24T10:31:35Z</time>
      </trkpt>
      <trkpt lat="42.82634" lon="-0.49773">
        <ele>2146.280762</ele>
        <time>2012-07-24T10:31:47Z</time>
      </trkpt>
      <trkpt lat="42.82627" lon="-0.49781">
        <ele>2147.722656</ele>
        <time>2012-07-24T10:31:56Z</time>
      </trkpt>
      <trkpt lat="42.82624" lon="-0.49785">
        <ele>2148.203125</ele>
        <time>2012-07-24T10:32:00Z</time>
      </trkpt>
      <trkpt lat="42.82612" lon="-0.49795">
        <ele>2148.203125</ele>
        <time>2012-07-24T10:32:15Z</time>
      </trkpt>
      <trkpt lat="42.826" lon="-0.49801">
        <ele>2150.606445</ele>
        <time>2012-07-24T10:32:28Z</time>
      </trkpt>
      <trkpt lat="42.82599" lon="-0.49801">
        <ele>2150.606445</ele>
        <time>2012-07-24T10:32:29Z</time>
      </trkpt>
      <trkpt lat="42.8259" lon="-0.49801">
        <ele>2150.606445</ele>
        <time>2012-07-24T10:32:37Z</time>
      </trkpt>
      <trkpt lat="42.82571" lon="-0.49811">
        <ele>2151.567871</ele>
        <time>2012-07-24T10:32:57Z</time>
      </trkpt>
      <trkpt lat="42.82556" lon="-0.49818">
        <ele>2152.529053</ele>
        <time>2012-07-24T10:33:13Z</time>
      </trkpt>
      <trkpt lat="42.82538" lon="-0.49831">
        <ele>2153.490479</ele>
        <time>2012-07-24T10:33:34Z</time>
      </trkpt>
      <trkpt lat="42.82521" lon="-0.49842">
        <ele>2154.45166</ele>
        <time>2012-07-24T10:33:52Z</time>
      </trkpt>
      <trkpt lat="42.82503" lon="-0.4985">
        <ele>2156.855225</ele>
        <time>2012-07-24T10:34:10Z</time>
      </trkpt>
      <trkpt lat="42.82497" lon="-0.49855">
        <ele>2158.777832</ele>
        <time>2012-07-24T10:34:16Z</time>
      </trkpt>
      <trkpt lat="42.82483" lon="-0.49869">
        <ele>2159.258545</ele>
        <time>2012-07-24T10:34:30Z</time>
      </trkpt>
      <trkpt lat="42.8248" lon="-0.49872">
        <ele>2161.181152</ele>
        <time>2012-07-24T10:34:33Z</time>
      </trkpt>
      <trkpt lat="42.82479" lon="-0.49874">
        <ele>2161.181152</ele>
        <time>2012-07-24T10:34:35Z</time>
      </trkpt>
      <trkpt lat="42.82463" lon="-0.49887">
        <ele>2164.545654</ele>
        <time>2012-07-24T10:34:52Z</time>
      </trkpt>
      <trkpt lat="42.82451" lon="-0.49896">
        <ele>2165.987549</ele>
        <time>2012-07-24T10:35:03Z</time>
      </trkpt>
      <trkpt lat="42.82443" lon="-0.49904">
        <ele>2166.468262</ele>
        <time>2012-07-24T10:35:12Z</time>
      </trkpt>
      <trkpt lat="42.82441" lon="-0.49912">
        <ele>2165.987549</ele>
        <time>2012-07-24T10:35:31Z</time>
      </trkpt>
      <trkpt lat="42.82441" lon="-0.49911">
        <ele>2165.50708</ele>
        <time>2012-07-24T10:35:35Z</time>
      </trkpt>
      <trkpt lat="42.8244" lon="-0.49912">
        <ele>2167.429443</ele>
        <time>2012-07-24T10:35:39Z</time>
      </trkpt>
      <trkpt lat="42.82441" lon="-0.49914">
        <ele>2165.50708</ele>
        <time>2012-07-24T10:35:43Z</time>
      </trkpt>
      <trkpt lat="42.82434" lon="-0.49915">
        <ele>2166.948975</ele>
        <time>2012-07-24T10:35:56Z</time>
      </trkpt>
      <trkpt lat="42.82431" lon="-0.49916">
        <ele>2165.987549</ele>
        <time>2012-07-24T10:36:07Z</time>
      </trkpt>
      <trkpt lat="42.82432" lon="-0.49916">
        <ele>2166.468262</ele>
        <time>2012-07-24T10:36:29Z</time>
      </trkpt>
      <trkpt lat="42.82432" lon="-0.49916">
        <ele>2166.468262</ele>
        <time>2012-07-24T10:36:30Z</time>
      </trkpt>
      <trkpt lat="42.82435" lon="-0.49916">
        <ele>2165.987549</ele>
        <time>2012-07-24T10:36:45Z</time>
      </trkpt>
      <trkpt lat="42.82439" lon="-0.49916">
        <ele>2165.987549</ele>
        <time>2012-07-24T10:36:57Z</time>
      </trkpt>
      <trkpt lat="42.82441" lon="-0.49916">
        <ele>2166.468262</ele>
        <time>2012-07-24T10:37:03Z</time>
      </trkpt>
      <trkpt lat="42.82442" lon="-0.49914">
        <ele>2167.429443</ele>
        <time>2012-07-24T10:37:17Z</time>
      </trkpt>
      <trkpt lat="42.82444" lon="-0.49908">
        <ele>2164.545654</ele>
        <time>2012-07-24T10:37:30Z</time>
      </trkpt>
      <trkpt lat="42.82444" lon="-0.49907">
        <ele>2164.545654</ele>
        <time>2012-07-24T10:37:31Z</time>
      </trkpt>
      <trkpt lat="42.82443" lon="-0.49891">
        <ele>2163.10376</ele>
        <time>2012-07-24T10:37:47Z</time>
      </trkpt>
      <trkpt lat="42.82443" lon="-0.49882">
        <ele>2162.142334</ele>
        <time>2012-07-24T10:37:58Z</time>
      </trkpt>
      <trkpt lat="42.82443" lon="-0.49874">
        <ele>2161.181152</ele>
        <time>2012-07-24T10:38:12Z</time>
      </trkpt>
      <trkpt lat="42.82444" lon="-0.49873">
        <ele>2161.181152</ele>
        <time>2012-07-24T10:38:37Z</time>
      </trkpt>
      <trkpt lat="42.82442" lon="-0.49873">
        <ele>2160.700439</ele>
        <time>2012-07-24T10:39:34Z</time>
      </trkpt>
      <trkpt lat="42.82443" lon="-0.49873">
        <ele>2159.739014</ele>
        <time>2012-07-24T10:40:27Z</time>
      </trkpt>
      <trkpt lat="42.82443" lon="-0.49874">
        <ele>2160.219727</ele>
        <time>2012-07-24T10:41:10Z</time>
      </trkpt>
      <trkpt lat="42.82443" lon="-0.49874">
        <ele>2162.142334</ele>
        <time>2012-07-24T10:43:33Z</time>
      </trkpt>
      <trkpt lat="42.82443" lon="-0.49874">
        <ele>2165.50708</ele>
        <time>2012-07-24T10:44:50Z</time>
      </trkpt>
      <trkpt lat="42.82443" lon="-0.49874">
        <ele>2162.142334</ele>
        <time>2012-07-24T10:46:27Z</time>
      </trkpt>
      <trkpt lat="42.82443" lon="-0.49874">
        <ele>2162.142334</ele>
        <time>2012-07-24T10:46:34Z</time>
      </trkpt>
      <trkpt lat="42.82443" lon="-0.49874">
        <ele>2165.50708</ele>
        <time>2012-07-24T10:48:07Z</time>
      </trkpt>
      <trkpt lat="42.82443" lon="-0.49874">
        <ele>2162.142334</ele>
        <time>2012-07-24T10:48:17Z</time>
      </trkpt>
      <trkpt lat="42.82443" lon="-0.49874">
        <ele>2166.468262</ele>
        <time>2012-07-24T10:48:30Z</time>
      </trkpt>
      <trkpt lat="42.82443" lon="-0.49874">
        <ele>2165.987549</ele>
        <time>2012-07-24T10:48:31Z</time>
      </trkpt>
      <trkpt lat="42.82443" lon="-0.49874">
        <ele>2164.545654</ele>
        <time>2012-07-24T10:48:33Z</time>
      </trkpt>
      <trkpt lat="42.82442" lon="-0.49874">
        <ele>2163.584229</ele>
        <time>2012-07-24T10:52:59Z</time>
      </trkpt>
      <trkpt lat="42.82443" lon="-0.49874">
        <ele>2161.661865</ele>
        <time>2012-07-24T10:55:26Z</time>
      </trkpt>
      <trkpt lat="42.82442" lon="-0.49875">
        <ele>2162.623047</ele>
        <time>2012-07-24T10:56:00Z</time>
      </trkpt>
      <trkpt lat="42.82442" lon="-0.49874">
        <ele>2163.584229</ele>
        <time>2012-07-24T10:56:31Z</time>
      </trkpt>
      <trkpt lat="42.82441" lon="-0.49873">
        <ele>2163.584229</ele>
        <time>2012-07-24T10:57:14Z</time>
      </trkpt>
      <trkpt lat="42.82444" lon="-0.49873">
        <ele>2165.026367</ele>
        <time>2012-07-24T10:57:43Z</time>
      </trkpt>
      <trkpt lat="42.82442" lon="-0.49877">
        <ele>2168.390869</ele>
        <time>2012-07-24T10:59:15Z</time>
      </trkpt>
      <trkpt lat="42.82442" lon="-0.49877">
        <ele>2165.50708</ele>
        <time>2012-07-24T10:59:21Z</time>
      </trkpt>
      <trkpt lat="42.82442" lon="-0.49877">
        <ele>2163.584229</ele>
        <time>2012-07-24T10:59:29Z</time>
      </trkpt>
      <trkpt lat="42.82442" lon="-0.49875">
        <ele>2166.948975</ele>
        <time>2012-07-24T10:59:59Z</time>
      </trkpt>
      <trkpt lat="42.82443" lon="-0.49873">
        <ele>2165.50708</ele>
        <time>2012-07-24T11:01:21Z</time>
      </trkpt>
      <trkpt lat="42.82442" lon="-0.49874">
        <ele>2164.545654</ele>
        <time>2012-07-24T11:02:57Z</time>
      </trkpt>
      <trkpt lat="42.82443" lon="-0.49874">
        <ele>2163.10376</ele>
        <time>2012-07-24T11:03:50Z</time>
      </trkpt>
      <trkpt lat="42.82444" lon="-0.49874">
        <ele>2163.584229</ele>
        <time>2012-07-24T11:05:32Z</time>
      </trkpt>
      <trkpt lat="42.82444" lon="-0.49874">
        <ele>2163.10376</ele>
        <time>2012-07-24T11:06:37Z</time>
      </trkpt>
      <trkpt lat="42.82444" lon="-0.49874">
        <ele>2166.468262</ele>
        <time>2012-07-24T11:08:32Z</time>
      </trkpt>
      <trkpt lat="42.82444" lon="-0.49873">
        <ele>2166.468262</ele>
        <time>2012-07-24T11:09:34Z</time>
      </trkpt>
      <trkpt lat="42.82443" lon="-0.49873">
        <ele>2168.871582</ele>
        <time>2012-07-24T11:10:12Z</time>
      </trkpt>
      <trkpt lat="42.82443" lon="-0.49872">
        <ele>2165.50708</ele>
        <time>2012-07-24T11:10:28Z</time>
      </trkpt>
      <trkpt lat="42.82443" lon="-0.49873">
        <ele>2164.545654</ele>
        <time>2012-07-24T11:12:03Z</time>
      </trkpt>
      <trkpt lat="42.82443" lon="-0.49873">
        <ele>2165.50708</ele>
        <time>2012-07-24T11:13:12Z</time>
      </trkpt>
      <trkpt lat="42.82444" lon="-0.49873">
        <ele>2165.50708</ele>
        <time>2012-07-24T11:13:52Z</time>
      </trkpt>
      <trkpt lat="42.82444" lon="-0.49874">
        <ele>2167.429443</ele>
        <time>2012-07-24T11:15:33Z</time>
      </trkpt>
      <trkpt lat="42.82445" lon="-0.49873">
        <ele>2164.064941</ele>
        <time>2012-07-24T11:18:23Z</time>
      </trkpt>
      <trkpt lat="42.82446" lon="-0.49873">
        <ele>2167.429443</ele>
        <time>2012-07-24T11:19:28Z</time>
      </trkpt>
      <trkpt lat="42.82446" lon="-0.49873">
        <ele>2166.948975</ele>
        <time>2012-07-24T11:20:21Z</time>
      </trkpt>
      <trkpt lat="42.82446" lon="-0.49872">
        <ele>2169.832764</ele>
        <time>2012-07-24T11:21:02Z</time>
      </trkpt>
      <trkpt lat="42.82446" lon="-0.49872">
        <ele>2169.832764</ele>
        <time>2012-07-24T11:21:03Z</time>
      </trkpt>
      <trkpt lat="42.82446" lon="-0.49872">
        <ele>2166.948975</ele>
        <time>2012-07-24T11:21:21Z</time>
      </trkpt>
      <trkpt lat="42.82446" lon="-0.49871">
        <ele>2168.390869</ele>
        <time>2012-07-24T11:22:59Z</time>
      </trkpt>
      <trkpt lat="42.82446" lon="-0.49871">
        <ele>2169.352295</ele>
        <time>2012-07-24T11:23:17Z</time>
      </trkpt>
      <trkpt lat="42.82447" lon="-0.49872">
        <ele>2167.910156</ele>
        <time>2012-07-24T11:23:31Z</time>
      </trkpt>
      <trkpt lat="42.82446" lon="-0.49872">
        <ele>2166.468262</ele>
        <time>2012-07-24T11:23:45Z</time>
      </trkpt>
      <trkpt lat="42.82445" lon="-0.49877">
        <ele>2165.026367</ele>
        <time>2012-07-24T11:24:17Z</time>
      </trkpt>
      <trkpt lat="42.82445" lon="-0.49876">
        <ele>2166.468262</ele>
        <time>2012-07-24T11:24:31Z</time>
      </trkpt>
      <trkpt lat="42.82445" lon="-0.49875">
        <ele>2167.429443</ele>
        <time>2012-07-24T11:24:57Z</time>
      </trkpt>
      <trkpt lat="42.82445" lon="-0.49875">
        <ele>2167.910156</ele>
        <time>2012-07-24T11:25:35Z</time>
      </trkpt>
      <trkpt lat="42.82446" lon="-0.49875">
        <ele>2167.910156</ele>
        <time>2012-07-24T11:26:00Z</time>
      </trkpt>
      <trkpt lat="42.82446" lon="-0.49876">
        <ele>2166.468262</ele>
        <time>2012-07-24T11:26:02Z</time>
      </trkpt>
      <trkpt lat="42.82453" lon="-0.49883">
        <ele>2168.871582</ele>
        <time>2012-07-24T11:26:11Z</time>
      </trkpt>
      <trkpt lat="42.8246" lon="-0.49887">
        <ele>2172.717041</ele>
        <time>2012-07-24T11:26:19Z</time>
      </trkpt>
      <trkpt lat="42.82466" lon="-0.49888">
        <ele>2171.274658</ele>
        <time>2012-07-24T11:26:26Z</time>
      </trkpt>
      <trkpt lat="42.8247" lon="-0.49886">
        <ele>2170.313477</ele>
        <time>2012-07-24T11:26:30Z</time>
      </trkpt>
      <trkpt lat="42.82483" lon="-0.49874">
        <ele>2167.429443</ele>
        <time>2012-07-24T11:26:45Z</time>
      </trkpt>
      <trkpt lat="42.82501" lon="-0.49859">
        <ele>2166.468262</ele>
        <time>2012-07-24T11:27:05Z</time>
      </trkpt>
      <trkpt lat="42.82511" lon="-0.4985">
        <ele>2164.545654</ele>
        <time>2012-07-24T11:27:19Z</time>
      </trkpt>
      <trkpt lat="42.82523" lon="-0.49845">
        <ele>2161.181152</ele>
        <time>2012-07-24T11:27:30Z</time>
      </trkpt>
      <trkpt lat="42.82543" lon="-0.49831">
        <ele>2159.739014</ele>
        <time>2012-07-24T11:27:51Z</time>
      </trkpt>
      <trkpt lat="42.82562" lon="-0.49817">
        <ele>2160.219727</ele>
        <time>2012-07-24T11:28:11Z</time>
      </trkpt>
      <trkpt lat="42.82577" lon="-0.4981">
        <ele>2159.258545</ele>
        <time>2012-07-24T11:28:26Z</time>
      </trkpt>
      <trkpt lat="42.82603" lon="-0.49802">
        <ele>2158.777832</ele>
        <time>2012-07-24T11:28:49Z</time>
      </trkpt>
      <trkpt lat="42.82622" lon="-0.49793">
        <ele>2155.893555</ele>
        <time>2012-07-24T11:29:10Z</time>
      </trkpt>
      <trkpt lat="42.82633" lon="-0.49782">
        <ele>2154.45166</ele>
        <time>2012-07-24T11:29:26Z</time>
      </trkpt>
      <trkpt lat="42.82639" lon="-0.49768">
        <ele>2153.009766</ele>
        <time>2012-07-24T11:29:40Z</time>
      </trkpt>
      <trkpt lat="42.82646" lon="-0.49742">
        <ele>2154.45166</ele>
        <time>2012-07-24T11:29:59Z</time>
      </trkpt>
      <trkpt lat="42.82649" lon="-0.49737">
        <ele>2153.009766</ele>
        <time>2012-07-24T11:30:05Z</time>
      </trkpt>
      <trkpt lat="42.82659" lon="-0.49733">
        <ele>2150.125977</ele>
        <time>2012-07-24T11:30:24Z</time>
      </trkpt>
      <trkpt lat="42.82665" lon="-0.49734">
        <ele>2146.76123</ele>
        <time>2012-07-24T11:30:33Z</time>
      </trkpt>
      <trkpt lat="42.82666" lon="-0.49734">
        <ele>2145.319336</ele>
        <time>2012-07-24T11:30:36Z</time>
      </trkpt>
      <trkpt lat="42.82677" lon="-0.49732">
        <ele>2142.916016</ele>
        <time>2012-07-24T11:30:54Z</time>
      </trkpt>
      <trkpt lat="42.82682" lon="-0.4973">
        <ele>2140.512695</ele>
        <time>2012-07-24T11:31:01Z</time>
      </trkpt>
      <trkpt lat="42.82693" lon="-0.49727">
        <ele>2137.147949</ele>
        <time>2012-07-24T11:31:17Z</time>
      </trkpt>
      <trkpt lat="42.82709" lon="-0.49721">
        <ele>2134.26416</ele>
        <time>2012-07-24T11:31:33Z</time>
      </trkpt>
      <trkpt lat="42.82714" lon="-0.49715">
        <ele>2134.26416</ele>
        <time>2012-07-24T11:31:39Z</time>
      </trkpt>
      <trkpt lat="42.82731" lon="-0.49702">
        <ele>2136.186768</ele>
        <time>2012-07-24T11:32:00Z</time>
      </trkpt>
      <trkpt lat="42.82744" lon="-0.49701">
        <ele>2138.590088</ele>
        <time>2012-07-24T11:32:17Z</time>
      </trkpt>
      <trkpt lat="42.82748" lon="-0.49691">
        <ele>2137.147949</ele>
        <time>2012-07-24T11:32:32Z</time>
      </trkpt>
      <trkpt lat="42.82752" lon="-0.49683">
        <ele>2138.109375</ele>
        <time>2012-07-24T11:32:41Z</time>
      </trkpt>
      <trkpt lat="42.82756" lon="-0.49672">
        <ele>2137.147949</ele>
        <time>2012-07-24T11:32:55Z</time>
      </trkpt>
      <trkpt lat="42.8276" lon="-0.49657">
        <ele>2133.783447</ele>
        <time>2012-07-24T11:33:09Z</time>
      </trkpt>
      <trkpt lat="42.82772" lon="-0.49644">
        <ele>2130.418945</ele>
        <time>2012-07-24T11:33:26Z</time>
      </trkpt>
      <trkpt lat="42.82779" lon="-0.49639">
        <ele>2127.534912</ele>
        <time>2012-07-24T11:33:39Z</time>
      </trkpt>
      <trkpt lat="42.82786" lon="-0.49632">
        <ele>2127.054443</ele>
        <time>2012-07-24T11:33:52Z</time>
      </trkpt>
      <trkpt lat="42.82794" lon="-0.4963">
        <ele>2124.17041</ele>
        <time>2012-07-24T11:34:05Z</time>
      </trkpt>
      <trkpt lat="42.82804" lon="-0.49621">
        <ele>2120.805664</ele>
        <time>2012-07-24T11:34:20Z</time>
      </trkpt>
      <trkpt lat="42.82813" lon="-0.49608">
        <ele>2118.883057</ele>
        <time>2012-07-24T11:34:36Z</time>
      </trkpt>
      <trkpt lat="42.82817" lon="-0.49598">
        <ele>2117.440918</ele>
        <time>2012-07-24T11:34:49Z</time>
      </trkpt>
      <trkpt lat="42.82821" lon="-0.49587">
        <ele>2115.037842</ele>
        <time>2012-07-24T11:35:05Z</time>
      </trkpt>
      <trkpt lat="42.82824" lon="-0.49582">
        <ele>2112.634521</ele>
        <time>2012-07-24T11:35:12Z</time>
      </trkpt>
      <trkpt lat="42.82835" lon="-0.49574">
        <ele>2111.192627</ele>
        <time>2012-07-24T11:35:29Z</time>
      </trkpt>
      <trkpt lat="42.82845" lon="-0.49573">
        <ele>2107.827881</ele>
        <time>2012-07-24T11:35:42Z</time>
      </trkpt>
      <trkpt lat="42.82856" lon="-0.49572">
        <ele>2105.905029</ele>
        <time>2012-07-24T11:35:56Z</time>
      </trkpt>
      <trkpt lat="42.82858" lon="-0.49569">
        <ele>2104.463135</ele>
        <time>2012-07-24T11:36:02Z</time>
      </trkpt>
      <trkpt lat="42.82864" lon="-0.4956">
        <ele>2103.02124</ele>
        <time>2012-07-24T11:36:17Z</time>
      </trkpt>
      <trkpt lat="42.82869" lon="-0.49554">
        <ele>2099.656738</ele>
        <time>2012-07-24T11:36:28Z</time>
      </trkpt>
      <trkpt lat="42.82873" lon="-0.49551">
        <ele>2097.734131</ele>
        <time>2012-07-24T11:36:34Z</time>
      </trkpt>
      <trkpt lat="42.82882" lon="-0.49546">
        <ele>2094.369385</ele>
        <time>2012-07-24T11:36:46Z</time>
      </trkpt>
      <trkpt lat="42.82887" lon="-0.49544">
        <ele>2092.447021</ele>
        <time>2012-07-24T11:36:53Z</time>
      </trkpt>
      <trkpt lat="42.82901" lon="-0.49538">
        <ele>2089.082031</ele>
        <time>2012-07-24T11:37:11Z</time>
      </trkpt>
      <trkpt lat="42.82902" lon="-0.49538">
        <ele>2089.562744</ele>
        <time>2012-07-24T11:37:12Z</time>
      </trkpt>
      <trkpt lat="42.8291" lon="-0.49533">
        <ele>2088.12085</ele>
        <time>2012-07-24T11:37:21Z</time>
      </trkpt>
      <trkpt lat="42.82926" lon="-0.49522">
        <ele>2085.717529</ele>
        <time>2012-07-24T11:37:39Z</time>
      </trkpt>
      <trkpt lat="42.82933" lon="-0.4952">
        <ele>2084.756348</ele>
        <time>2012-07-24T11:37:47Z</time>
      </trkpt>
      <trkpt lat="42.82948" lon="-0.49519">
        <ele>2080.911133</ele>
        <time>2012-07-24T11:38:03Z</time>
      </trkpt>
      <trkpt lat="42.82949" lon="-0.49519">
        <ele>2081.391602</ele>
        <time>2012-07-24T11:38:04Z</time>
      </trkpt>
      <trkpt lat="42.82961" lon="-0.49518">
        <ele>2078.0271</ele>
        <time>2012-07-24T11:38:18Z</time>
      </trkpt>
      <trkpt lat="42.82964" lon="-0.49517">
        <ele>2077.065918</ele>
        <time>2012-07-24T11:38:22Z</time>
      </trkpt>
      <trkpt lat="42.82967" lon="-0.49516">
        <ele>2075.623535</ele>
        <time>2012-07-24T11:38:25Z</time>
      </trkpt>
      <trkpt lat="42.82976" lon="-0.49514">
        <ele>2073.220459</ele>
        <time>2012-07-24T11:38:36Z</time>
      </trkpt>
      <trkpt lat="42.82988" lon="-0.49508">
        <ele>2071.297607</ele>
        <time>2012-07-24T11:38:53Z</time>
      </trkpt>
      <trkpt lat="42.83" lon="-0.49505">
        <ele>2067.933105</ele>
        <time>2012-07-24T11:39:06Z</time>
      </trkpt>
      <trkpt lat="42.83004" lon="-0.49503">
        <ele>2068.413818</ele>
        <time>2012-07-24T11:39:11Z</time>
      </trkpt>
      <trkpt lat="42.83019" lon="-0.49481">
        <ele>2067.452393</ele>
        <time>2012-07-24T11:39:32Z</time>
      </trkpt>
      <trkpt lat="42.83021" lon="-0.49476">
        <ele>2066.491211</ele>
        <time>2012-07-24T11:39:36Z</time>
      </trkpt>
      <trkpt lat="42.8303" lon="-0.49454">
        <ele>2065.530029</ele>
        <time>2012-07-24T11:39:56Z</time>
      </trkpt>
      <trkpt lat="42.83031" lon="-0.49448">
        <ele>2064.087891</ele>
        <time>2012-07-24T11:40:00Z</time>
      </trkpt>
      <trkpt lat="42.83032" lon="-0.49444">
        <ele>2061.684814</ele>
        <time>2012-07-24T11:40:13Z</time>
      </trkpt>
      <trkpt lat="42.83031" lon="-0.49445">
        <ele>2062.645996</ele>
        <time>2012-07-24T11:40:48Z</time>
      </trkpt>
      <trkpt lat="42.83032" lon="-0.49444">
        <ele>2061.684814</ele>
        <time>2012-07-24T11:40:59Z</time>
      </trkpt>
      <trkpt lat="42.83032" lon="-0.49443">
        <ele>2061.204102</ele>
        <time>2012-07-24T11:41:07Z</time>
      </trkpt>
      <trkpt lat="42.83046" lon="-0.49412">
        <ele>2059.28125</ele>
        <time>2012-07-24T11:41:24Z</time>
      </trkpt>
      <trkpt lat="42.83051" lon="-0.49403">
        <ele>2057.839355</ele>
        <time>2012-07-24T11:41:29Z</time>
      </trkpt>
      <trkpt lat="42.83062" lon="-0.49391">
        <ele>2054.474609</ele>
        <time>2012-07-24T11:41:40Z</time>
      </trkpt>
      <trkpt lat="42.83063" lon="-0.4939">
        <ele>2054.955322</ele>
        <time>2012-07-24T11:41:41Z</time>
      </trkpt>
      <trkpt lat="42.83067" lon="-0.49386">
        <ele>2053.032715</ele>
        <time>2012-07-24T11:41:46Z</time>
      </trkpt>
      <trkpt lat="42.83074" lon="-0.49377">
        <ele>2049.668213</ele>
        <time>2012-07-24T11:41:55Z</time>
      </trkpt>
      <trkpt lat="42.83076" lon="-0.49372">
        <ele>2048.706787</ele>
        <time>2012-07-24T11:41:59Z</time>
      </trkpt>
      <trkpt lat="42.83079" lon="-0.49369">
        <ele>2047.745605</ele>
        <time>2012-07-24T11:42:03Z</time>
      </trkpt>
      <trkpt lat="42.83083" lon="-0.49365">
        <ele>2047.264893</ele>
        <time>2012-07-24T11:42:06Z</time>
      </trkpt>
      <trkpt lat="42.83088" lon="-0.49361">
        <ele>2044.380859</ele>
        <time>2012-07-24T11:42:11Z</time>
      </trkpt>
      <trkpt lat="42.83091" lon="-0.4936">
        <ele>2043.900146</ele>
        <time>2012-07-24T11:42:13Z</time>
      </trkpt>
      <trkpt lat="42.83102" lon="-0.49355">
        <ele>2040.054932</ele>
        <time>2012-07-24T11:42:23Z</time>
      </trkpt>
      <trkpt lat="42.83107" lon="-0.49358">
        <ele>2038.132324</ele>
        <time>2012-07-24T11:42:27Z</time>
      </trkpt>
      <trkpt lat="42.83112" lon="-0.4936">
        <ele>2037.170898</ele>
        <time>2012-07-24T11:42:32Z</time>
      </trkpt>
      <trkpt lat="42.83127" lon="-0.49354">
        <ele>2033.806396</ele>
        <time>2012-07-24T11:42:45Z</time>
      </trkpt>
      <trkpt lat="42.83144" lon="-0.49343">
        <ele>2031.403076</ele>
        <time>2012-07-24T11:42:58Z</time>
      </trkpt>
      <trkpt lat="42.83152" lon="-0.49343">
        <ele>2029.480469</ele>
        <time>2012-07-24T11:43:04Z</time>
      </trkpt>
      <trkpt lat="42.83164" lon="-0.49337">
        <ele>2026.596436</ele>
        <time>2012-07-24T11:43:15Z</time>
      </trkpt>
      <trkpt lat="42.83165" lon="-0.49337">
        <ele>2026.596436</ele>
        <time>2012-07-24T11:43:16Z</time>
      </trkpt>
      <trkpt lat="42.83173" lon="-0.49331">
        <ele>2023.231934</ele>
        <time>2012-07-24T11:43:25Z</time>
      </trkpt>
      <trkpt lat="42.83174" lon="-0.49331">
        <ele>2023.712402</ele>
        <time>2012-07-24T11:43:26Z</time>
      </trkpt>
      <trkpt lat="42.83185" lon="-0.49326">
        <ele>2020.828613</ele>
        <time>2012-07-24T11:43:37Z</time>
      </trkpt>
      <trkpt lat="42.83189" lon="-0.49324">
        <ele>2020.3479</ele>
        <time>2012-07-24T11:43:42Z</time>
      </trkpt>
      <trkpt lat="42.83199" lon="-0.49323">
        <ele>2018.425293</ele>
        <time>2012-07-24T11:43:53Z</time>
      </trkpt>
      <trkpt lat="42.83206" lon="-0.4932">
        <ele>2016.502686</ele>
        <time>2012-07-24T11:44:00Z</time>
      </trkpt>
      <trkpt lat="42.83225" lon="-0.49305">
        <ele>2016.021973</ele>
        <time>2012-07-24T11:44:20Z</time>
      </trkpt>
      <trkpt lat="42.83245" lon="-0.49295">
        <ele>2014.099365</ele>
        <time>2012-07-24T11:44:38Z</time>
      </trkpt>
      <trkpt lat="42.83248" lon="-0.49294">
        <ele>2013.138184</ele>
        <time>2012-07-24T11:44:40Z</time>
      </trkpt>
      <trkpt lat="42.83256" lon="-0.49292">
        <ele>2013.618652</ele>
        <time>2012-07-24T11:44:47Z</time>
      </trkpt>
      <trkpt lat="42.83276" lon="-0.49273">
        <ele>2010.734619</ele>
        <time>2012-07-24T11:45:08Z</time>
      </trkpt>
      <trkpt lat="42.83282" lon="-0.49271">
        <ele>2010.734619</ele>
        <time>2012-07-24T11:45:14Z</time>
      </trkpt>
      <trkpt lat="42.83286" lon="-0.49263">
        <ele>2010.253906</ele>
        <time>2012-07-24T11:45:22Z</time>
      </trkpt>
      <trkpt lat="42.83293" lon="-0.49262">
        <ele>2009.773193</ele>
        <time>2012-07-24T11:45:29Z</time>
      </trkpt>
      <trkpt lat="42.83298" lon="-0.49258">
        <ele>2009.292725</ele>
        <time>2012-07-24T11:45:35Z</time>
      </trkpt>
      <trkpt lat="42.83311" lon="-0.4924">
        <ele>2011.215332</ele>
        <time>2012-07-24T11:45:54Z</time>
      </trkpt>
      <trkpt lat="42.83322" lon="-0.49239">
        <ele>2011.215332</ele>
        <time>2012-07-24T11:46:05Z</time>
      </trkpt>
      <trkpt lat="42.83324" lon="-0.49239">
        <ele>2011.696045</ele>
        <time>2012-07-24T11:46:07Z</time>
      </trkpt>
      <trkpt lat="42.83337" lon="-0.49217">
        <ele>2011.215332</ele>
        <time>2012-07-24T11:46:26Z</time>
      </trkpt>
      <trkpt lat="42.83339" lon="-0.49214">
        <ele>2011.215332</ele>
        <time>2012-07-24T11:46:29Z</time>
      </trkpt>
      <trkpt lat="42.83344" lon="-0.49206">
        <ele>2010.734619</ele>
        <time>2012-07-24T11:46:37Z</time>
      </trkpt>
      <trkpt lat="42.83348" lon="-0.49204">
        <ele>2010.734619</ele>
        <time>2012-07-24T11:46:42Z</time>
      </trkpt>
      <trkpt lat="42.8336" lon="-0.49191">
        <ele>2010.734619</ele>
        <time>2012-07-24T11:46:58Z</time>
      </trkpt>
      <trkpt lat="42.83372" lon="-0.49172">
        <ele>2009.773193</ele>
        <time>2012-07-24T11:47:16Z</time>
      </trkpt>
      <trkpt lat="42.83388" lon="-0.4915">
        <ele>2008.812012</ele>
        <time>2012-07-24T11:47:37Z</time>
      </trkpt>
      <trkpt lat="42.83395" lon="-0.49131">
        <ele>2007.85083</ele>
        <time>2012-07-24T11:47:53Z</time>
      </trkpt>
      <trkpt lat="42.83398" lon="-0.49121">
        <ele>2005.44751</ele>
        <time>2012-07-24T11:48:01Z</time>
      </trkpt>
      <trkpt lat="42.83405" lon="-0.49093">
        <ele>2003.044189</ele>
        <time>2012-07-24T11:48:20Z</time>
      </trkpt>
      <trkpt lat="42.83411" lon="-0.4908">
        <ele>2002.082764</ele>
        <time>2012-07-24T11:48:30Z</time>
      </trkpt>
      <trkpt lat="42.83425" lon="-0.49066">
        <ele>1998.718262</ele>
        <time>2012-07-24T11:48:48Z</time>
      </trkpt>
      <trkpt lat="42.83427" lon="-0.49063">
        <ele>1997.75708</ele>
        <time>2012-07-24T11:48:51Z</time>
      </trkpt>
      <trkpt lat="42.83439" lon="-0.49044">
        <ele>1994.872803</ele>
        <time>2012-07-24T11:49:08Z</time>
      </trkpt>
      <trkpt lat="42.83445" lon="-0.49038">
        <ele>1993.430908</ele>
        <time>2012-07-24T11:49:16Z</time>
      </trkpt>
      <trkpt lat="42.83449" lon="-0.49034">
        <ele>1991.989014</ele>
        <time>2012-07-24T11:49:22Z</time>
      </trkpt>
      <trkpt lat="42.83452" lon="-0.49028">
        <ele>1990.546875</ele>
        <time>2012-07-24T11:49:28Z</time>
      </trkpt>
      <trkpt lat="42.83457" lon="-0.49024">
        <ele>1989.10498</ele>
        <time>2012-07-24T11:49:33Z</time>
      </trkpt>
      <trkpt lat="42.8346" lon="-0.49022">
        <ele>1988.624512</ele>
        <time>2012-07-24T11:49:36Z</time>
      </trkpt>
      <trkpt lat="42.83463" lon="-0.48997">
        <ele>1985.259766</ele>
        <time>2012-07-24T11:49:53Z</time>
      </trkpt>
      <trkpt lat="42.83462" lon="-0.48974">
        <ele>1983.817871</ele>
        <time>2012-07-24T11:50:08Z</time>
      </trkpt>
      <trkpt lat="42.83466" lon="-0.48966">
        <ele>1982.856445</ele>
        <time>2012-07-24T11:50:14Z</time>
      </trkpt>
      <trkpt lat="42.83471" lon="-0.48961">
        <ele>1981.895264</ele>
        <time>2012-07-24T11:50:20Z</time>
      </trkpt>
      <trkpt lat="42.8348" lon="-0.48946">
        <ele>1979.491699</ele>
        <time>2012-07-24T11:50:33Z</time>
      </trkpt>
      <trkpt lat="42.83483" lon="-0.48941">
        <ele>1978.049805</ele>
        <time>2012-07-24T11:50:38Z</time>
      </trkpt>
      <trkpt lat="42.83485" lon="-0.4894">
        <ele>1978.049805</ele>
        <time>2012-07-24T11:50:40Z</time>
      </trkpt>
      <trkpt lat="42.83491" lon="-0.4891">
        <ele>1976.127197</ele>
        <time>2012-07-24T11:50:58Z</time>
      </trkpt>
      <trkpt lat="42.83496" lon="-0.48879">
        <ele>1975.646484</ele>
        <time>2012-07-24T11:51:17Z</time>
      </trkpt>
      <trkpt lat="42.83492" lon="-0.48848">
        <ele>1973.243408</ele>
        <time>2012-07-24T11:51:38Z</time>
      </trkpt>
      <trkpt lat="42.83492" lon="-0.48844">
        <ele>1973.243408</ele>
        <time>2012-07-24T11:51:42Z</time>
      </trkpt>
      <trkpt lat="42.83501" lon="-0.48824">
        <ele>1970.840088</ele>
        <time>2012-07-24T11:52:00Z</time>
      </trkpt>
      <trkpt lat="42.835" lon="-0.48808">
        <ele>1968.91748</ele>
        <time>2012-07-24T11:52:16Z</time>
      </trkpt>
      <trkpt lat="42.83497" lon="-0.48803">
        <ele>1965.552979</ele>
        <time>2012-07-24T11:52:25Z</time>
      </trkpt>
      <trkpt lat="42.83496" lon="-0.48795">
        <ele>1965.552979</ele>
        <time>2012-07-24T11:52:30Z</time>
      </trkpt>
      <trkpt lat="42.8349" lon="-0.48765">
        <ele>1965.072266</ele>
        <time>2012-07-24T11:52:49Z</time>
      </trkpt>
      <trkpt lat="42.83485" lon="-0.48736">
        <ele>1963.149414</ele>
        <time>2012-07-24T11:53:07Z</time>
      </trkpt>
      <trkpt lat="42.83487" lon="-0.48703">
        <ele>1962.187988</ele>
        <time>2012-07-24T11:53:27Z</time>
      </trkpt>
      <trkpt lat="42.83486" lon="-0.48672">
        <ele>1959.304199</ele>
        <time>2012-07-24T11:53:46Z</time>
      </trkpt>
      <trkpt lat="42.83488" lon="-0.48646">
        <ele>1960.746094</ele>
        <time>2012-07-24T11:54:04Z</time>
      </trkpt>
      <trkpt lat="42.83485" lon="-0.4864">
        <ele>1961.226807</ele>
        <time>2012-07-24T11:54:09Z</time>
      </trkpt>
      <trkpt lat="42.83486" lon="-0.48626">
        <ele>1958.342773</ele>
        <time>2012-07-24T11:54:23Z</time>
      </trkpt>
      <trkpt lat="42.83479" lon="-0.4861">
        <ele>1955.939453</ele>
        <time>2012-07-24T11:54:38Z</time>
      </trkpt>
      <trkpt lat="42.83467" lon="-0.48584">
        <ele>1954.497559</ele>
        <time>2012-07-24T11:54:58Z</time>
      </trkpt>
      <trkpt lat="42.83457" lon="-0.48545">
        <ele>1954.01709</ele>
        <time>2012-07-24T11:55:23Z</time>
      </trkpt>
      <trkpt lat="42.83459" lon="-0.48511">
        <ele>1953.536377</ele>
        <time>2012-07-24T11:55:44Z</time>
      </trkpt>
      <trkpt lat="42.8347" lon="-0.48492">
        <ele>1954.01709</ele>
        <time>2012-07-24T11:56:00Z</time>
      </trkpt>
      <trkpt lat="42.83475" lon="-0.48482">
        <ele>1955.458984</ele>
        <time>2012-07-24T11:56:10Z</time>
      </trkpt>
      <trkpt lat="42.83488" lon="-0.48453">
        <ele>1955.939453</ele>
        <time>2012-07-24T11:56:32Z</time>
      </trkpt>
      <trkpt lat="42.83503" lon="-0.48434">
        <ele>1956.900879</ele>
        <time>2012-07-24T11:56:51Z</time>
      </trkpt>
      <trkpt lat="42.83509" lon="-0.48425">
        <ele>1959.304199</ele>
        <time>2012-07-24T11:57:01Z</time>
      </trkpt>
      <trkpt lat="42.83519" lon="-0.48412">
        <ele>1962.187988</ele>
        <time>2012-07-24T11:57:18Z</time>
      </trkpt>
      <trkpt lat="42.8352" lon="-0.48409">
        <ele>1961.70752</ele>
        <time>2012-07-24T11:57:21Z</time>
      </trkpt>
      <trkpt lat="42.83525" lon="-0.48403">
        <ele>1962.187988</ele>
        <time>2012-07-24T11:57:27Z</time>
      </trkpt>
      <trkpt lat="42.83536" lon="-0.48393">
        <ele>1963.149414</ele>
        <time>2012-07-24T11:57:43Z</time>
      </trkpt>
      <trkpt lat="42.83546" lon="-0.4839">
        <ele>1966.033447</ele>
        <time>2012-07-24T11:57:56Z</time>
      </trkpt>
      <trkpt lat="42.8356" lon="-0.48379">
        <ele>1967.475342</ele>
        <time>2012-07-24T11:58:14Z</time>
      </trkpt>
      <trkpt lat="42.83575" lon="-0.48365">
        <ele>1968.436768</ele>
        <time>2012-07-24T11:58:32Z</time>
      </trkpt>
      <trkpt lat="42.83581" lon="-0.48359">
        <ele>1968.91748</ele>
        <time>2012-07-24T11:58:40Z</time>
      </trkpt>
      <trkpt lat="42.8359" lon="-0.48341">
        <ele>1966.51416</ele>
        <time>2012-07-24T11:58:58Z</time>
      </trkpt>
      <trkpt lat="42.8359" lon="-0.48339">
        <ele>1966.51416</ele>
        <time>2012-07-24T11:58:59Z</time>
      </trkpt>
      <trkpt lat="42.83595" lon="-0.48327">
        <ele>1965.552979</ele>
        <time>2012-07-24T11:59:11Z</time>
      </trkpt>
      <trkpt lat="42.836" lon="-0.48322">
        <ele>1962.668701</ele>
        <time>2012-07-24T11:59:18Z</time>
      </trkpt>
      <trkpt lat="42.8361" lon="-0.48317">
        <ele>1959.304199</ele>
        <time>2012-07-24T11:59:33Z</time>
      </trkpt>
      <trkpt lat="42.83611" lon="-0.48305">
        <ele>1957.381592</ele>
        <time>2012-07-24T11:59:47Z</time>
      </trkpt>
      <trkpt lat="42.83609" lon="-0.48297">
        <ele>1954.497559</ele>
        <time>2012-07-24T11:59:57Z</time>
      </trkpt>
      <trkpt lat="42.83609" lon="-0.48291">
        <ele>1951.61377</ele>
        <time>2012-07-24T12:00:03Z</time>
      </trkpt>
      <trkpt lat="42.83607" lon="-0.48278">
        <ele>1948.729736</ele>
        <time>2012-07-24T12:00:16Z</time>
      </trkpt>
      <trkpt lat="42.8361" lon="-0.48272">
        <ele>1946.326416</ele>
        <time>2012-07-24T12:00:25Z</time>
      </trkpt>
      <trkpt lat="42.83616" lon="-0.48268">
        <ele>1943.923096</ele>
        <time>2012-07-24T12:00:36Z</time>
      </trkpt>
      <trkpt lat="42.83626" lon="-0.48275">
        <ele>1941.039062</ele>
        <time>2012-07-24T12:00:47Z</time>
      </trkpt>
      <trkpt lat="42.83638" lon="-0.48283">
        <ele>1937.674561</ele>
        <time>2012-07-24T12:01:03Z</time>
      </trkpt>
      <trkpt lat="42.83642" lon="-0.48283">
        <ele>1936.232666</ele>
        <time>2012-07-24T12:01:16Z</time>
      </trkpt>
      <trkpt lat="42.83652" lon="-0.48289">
        <ele>1934.310059</ele>
        <time>2012-07-24T12:01:30Z</time>
      </trkpt>
      <trkpt lat="42.83654" lon="-0.4829">
        <ele>1933.348633</ele>
        <time>2012-07-24T12:01:32Z</time>
      </trkpt>
      <trkpt lat="42.83662" lon="-0.48295">
        <ele>1932.387451</ele>
        <time>2012-07-24T12:01:44Z</time>
      </trkpt>
      <trkpt lat="42.83667" lon="-0.48295">
        <ele>1928.541992</ele>
        <time>2012-07-24T12:01:55Z</time>
      </trkpt>
      <trkpt lat="42.83669" lon="-0.48291">
        <ele>1928.061279</ele>
        <time>2012-07-24T12:02:02Z</time>
      </trkpt>
      <trkpt lat="42.83673" lon="-0.48281">
        <ele>1925.177246</ele>
        <time>2012-07-24T12:02:12Z</time>
      </trkpt>
      <trkpt lat="42.83673" lon="-0.48272">
        <ele>1921.812744</ele>
        <time>2012-07-24T12:02:25Z</time>
      </trkpt>
      <trkpt lat="42.83672" lon="-0.48271">
        <ele>1920.851562</ele>
        <time>2012-07-24T12:02:27Z</time>
      </trkpt>
      <trkpt lat="42.83669" lon="-0.48266">
        <ele>1918.928955</ele>
        <time>2012-07-24T12:02:31Z</time>
      </trkpt>
      <trkpt lat="42.83668" lon="-0.48257">
        <ele>1917.006348</ele>
        <time>2012-07-24T12:02:40Z</time>
      </trkpt>
      <trkpt lat="42.8367" lon="-0.48246">
        <ele>1914.12207</ele>
        <time>2012-07-24T12:02:50Z</time>
      </trkpt>
      <trkpt lat="42.83672" lon="-0.48238">
        <ele>1912.680176</ele>
        <time>2012-07-24T12:02:56Z</time>
      </trkpt>
      <trkpt lat="42.83674" lon="-0.48228">
        <ele>1910.276855</ele>
        <time>2012-07-24T12:03:10Z</time>
      </trkpt>
      <trkpt lat="42.83673" lon="-0.48225">
        <ele>1908.354248</ele>
        <time>2012-07-24T12:03:14Z</time>
      </trkpt>
      <trkpt lat="42.83671" lon="-0.4822">
        <ele>1906.431641</ele>
        <time>2012-07-24T12:03:21Z</time>
      </trkpt>
      <trkpt lat="42.83666" lon="-0.48211">
        <ele>1904.989746</ele>
        <time>2012-07-24T12:03:34Z</time>
      </trkpt>
      <trkpt lat="42.83665" lon="-0.48205">
        <ele>1902.586426</ele>
        <time>2012-07-24T12:03:41Z</time>
      </trkpt>
      <trkpt lat="42.83663" lon="-0.48194">
        <ele>1899.22168</ele>
        <time>2012-07-24T12:03:52Z</time>
      </trkpt>
      <trkpt lat="42.83662" lon="-0.48183">
        <ele>1896.818359</ele>
        <time>2012-07-24T12:04:02Z</time>
      </trkpt>
      <trkpt lat="42.8366" lon="-0.48174">
        <ele>1892.973145</ele>
        <time>2012-07-24T12:04:11Z</time>
      </trkpt>
      <trkpt lat="42.83658" lon="-0.48165">
        <ele>1890.569824</ele>
        <time>2012-07-24T12:04:24Z</time>
      </trkpt>
      <trkpt lat="42.83654" lon="-0.48156">
        <ele>1886.724609</ele>
        <time>2012-07-24T12:04:36Z</time>
      </trkpt>
      <trkpt lat="42.83653" lon="-0.48146">
        <ele>1882.87915</ele>
        <time>2012-07-24T12:04:46Z</time>
      </trkpt>
      <trkpt lat="42.83653" lon="-0.48146">
        <ele>1882.398682</ele>
        <time>2012-07-24T12:04:47Z</time>
      </trkpt>
      <trkpt lat="42.83655" lon="-0.48144">
        <ele>1881.917969</ele>
        <time>2012-07-24T12:04:50Z</time>
      </trkpt>
      <trkpt lat="42.83656" lon="-0.4814">
        <ele>1879.995361</ele>
        <time>2012-07-24T12:04:53Z</time>
      </trkpt>
      <trkpt lat="42.83652" lon="-0.48132">
        <ele>1878.553467</ele>
        <time>2012-07-24T12:05:01Z</time>
      </trkpt>
      <trkpt lat="42.83652" lon="-0.48126">
        <ele>1877.111572</ele>
        <time>2012-07-24T12:05:05Z</time>
      </trkpt>
      <trkpt lat="42.83654" lon="-0.48121">
        <ele>1875.669434</ele>
        <time>2012-07-24T12:05:09Z</time>
      </trkpt>
      <trkpt lat="42.83654" lon="-0.4812">
        <ele>1875.188721</ele>
        <time>2012-07-24T12:05:10Z</time>
      </trkpt>
      <trkpt lat="42.83654" lon="-0.48115">
        <ele>1873.746826</ele>
        <time>2012-07-24T12:05:13Z</time>
      </trkpt>
      <trkpt lat="42.83652" lon="-0.4811">
        <ele>1873.746826</ele>
        <time>2012-07-24T12:05:17Z</time>
      </trkpt>
      <trkpt lat="42.83656" lon="-0.481">
        <ele>1871.824219</ele>
        <time>2012-07-24T12:05:25Z</time>
      </trkpt>
      <trkpt lat="42.83661" lon="-0.48088">
        <ele>1870.382324</ele>
        <time>2012-07-24T12:05:33Z</time>
      </trkpt>
      <trkpt lat="42.83672" lon="-0.48086">
        <ele>1866.536865</ele>
        <time>2012-07-24T12:05:42Z</time>
      </trkpt>
      <trkpt lat="42.83684" lon="-0.48082">
        <ele>1863.652832</ele>
        <time>2012-07-24T12:05:52Z</time>
      </trkpt>
      <trkpt lat="42.83688" lon="-0.48082">
        <ele>1862.69165</ele>
        <time>2012-07-24T12:05:55Z</time>
      </trkpt>
      <trkpt lat="42.83694" lon="-0.48079">
        <ele>1861.730469</ele>
        <time>2012-07-24T12:05:59Z</time>
      </trkpt>
      <trkpt lat="42.837" lon="-0.48065">
        <ele>1858.846436</ele>
        <time>2012-07-24T12:06:08Z</time>
      </trkpt>
      <trkpt lat="42.83701" lon="-0.4806">
        <ele>1858.365723</ele>
        <time>2012-07-24T12:06:11Z</time>
      </trkpt>
      <trkpt lat="42.83701" lon="-0.48057">
        <ele>1857.404541</ele>
        <time>2012-07-24T12:06:13Z</time>
      </trkpt>
      <trkpt lat="42.83713" lon="-0.4804">
        <ele>1855.481934</ele>
        <time>2012-07-24T12:06:27Z</time>
      </trkpt>
      <trkpt lat="42.83724" lon="-0.48033">
        <ele>1852.5979</ele>
        <time>2012-07-24T12:06:39Z</time>
      </trkpt>
      <trkpt lat="42.83729" lon="-0.48033">
        <ele>1851.155762</ele>
        <time>2012-07-24T12:06:44Z</time>
      </trkpt>
      <trkpt lat="42.83737" lon="-0.48025">
        <ele>1848.752441</ele>
        <time>2012-07-24T12:06:56Z</time>
      </trkpt>
      <trkpt lat="42.8374" lon="-0.48024">
        <ele>1848.271729</ele>
        <time>2012-07-24T12:06:59Z</time>
      </trkpt>
      <trkpt lat="42.83742" lon="-0.48021">
        <ele>1847.79126</ele>
        <time>2012-07-24T12:07:02Z</time>
      </trkpt>
      <trkpt lat="42.83744" lon="-0.48008">
        <ele>1845.387939</ele>
        <time>2012-07-24T12:07:15Z</time>
      </trkpt>
      <trkpt lat="42.83745" lon="-0.48003">
        <ele>1842.023438</ele>
        <time>2012-07-24T12:07:20Z</time>
      </trkpt>
      <trkpt lat="42.83745" lon="-0.48002">
        <ele>1842.023438</ele>
        <time>2012-07-24T12:07:21Z</time>
      </trkpt>
      <trkpt lat="42.83747" lon="-0.47995">
        <ele>1839.620117</ele>
        <time>2012-07-24T12:07:32Z</time>
      </trkpt>
      <trkpt lat="42.8375" lon="-0.47982">
        <ele>1836.255615</ele>
        <time>2012-07-24T12:07:45Z</time>
      </trkpt>
      <trkpt lat="42.83751" lon="-0.47978">
        <ele>1834.813477</ele>
        <time>2012-07-24T12:07:48Z</time>
      </trkpt>
      <trkpt lat="42.83753" lon="-0.47963">
        <ele>1831.929443</ele>
        <time>2012-07-24T12:07:59Z</time>
      </trkpt>
      <trkpt lat="42.83756" lon="-0.4795">
        <ele>1828.564941</ele>
        <time>2012-07-24T12:08:10Z</time>
      </trkpt>
      <trkpt lat="42.83757" lon="-0.47949">
        <ele>1828.084229</ele>
        <time>2012-07-24T12:08:12Z</time>
      </trkpt>
      <trkpt lat="42.83768" lon="-0.47957">
        <ele>1825.200195</ele>
        <time>2012-07-24T12:08:27Z</time>
      </trkpt>
      <trkpt lat="42.83771" lon="-0.4796">
        <ele>1823.758301</ele>
        <time>2012-07-24T12:08:40Z</time>
      </trkpt>
      <trkpt lat="42.83778" lon="-0.47964">
        <ele>1821.835693</ele>
        <time>2012-07-24T12:08:52Z</time>
      </trkpt>
      <trkpt lat="42.83789" lon="-0.47966">
        <ele>1818.470947</ele>
        <time>2012-07-24T12:09:05Z</time>
      </trkpt>
      <trkpt lat="42.83794" lon="-0.47968">
        <ele>1817.509521</ele>
        <time>2012-07-24T12:09:11Z</time>
      </trkpt>
      <trkpt lat="42.838" lon="-0.47976">
        <ele>1816.54834</ele>
        <time>2012-07-24T12:09:18Z</time>
      </trkpt>
      <trkpt lat="42.83802" lon="-0.47977">
        <ele>1816.067627</ele>
        <time>2012-07-24T12:09:20Z</time>
      </trkpt>
      <trkpt lat="42.83803" lon="-0.47968">
        <ele>1813.664307</ele>
        <time>2012-07-24T12:09:33Z</time>
      </trkpt>
      <trkpt lat="42.83803" lon="-0.47965">
        <ele>1811.26123</ele>
        <time>2012-07-24T12:09:39Z</time>
      </trkpt>
      <trkpt lat="42.83801" lon="-0.47957">
        <ele>1809.338623</ele>
        <time>2012-07-24T12:09:50Z</time>
      </trkpt>
      <trkpt lat="42.83799" lon="-0.47953">
        <ele>1808.377197</ele>
        <time>2012-07-24T12:09:56Z</time>
      </trkpt>
      <trkpt lat="42.83794" lon="-0.47944">
        <ele>1805.012695</ele>
        <time>2012-07-24T12:10:05Z</time>
      </trkpt>
      <trkpt lat="42.8379" lon="-0.47937">
        <ele>1804.051514</ele>
        <time>2012-07-24T12:10:11Z</time>
      </trkpt>
      <trkpt lat="42.83784" lon="-0.47926">
        <ele>1801.647949</ele>
        <time>2012-07-24T12:10:25Z</time>
      </trkpt>
      <trkpt lat="42.83785" lon="-0.47923">
        <ele>1800.206055</ele>
        <time>2012-07-24T12:10:30Z</time>
      </trkpt>
      <trkpt lat="42.83786" lon="-0.47922">
        <ele>1799.244629</ele>
        <time>2012-07-24T12:10:32Z</time>
      </trkpt>
      <trkpt lat="42.8379" lon="-0.47922">
        <ele>1797.802734</ele>
        <time>2012-07-24T12:10:36Z</time>
      </trkpt>
      <trkpt lat="42.83794" lon="-0.47917">
        <ele>1794.437988</ele>
        <time>2012-07-24T12:10:49Z</time>
      </trkpt>
      <trkpt lat="42.83793" lon="-0.47909">
        <ele>1791.073486</ele>
        <time>2012-07-24T12:11:00Z</time>
      </trkpt>
      <trkpt lat="42.83792" lon="-0.47904">
        <ele>1789.631592</ele>
        <time>2012-07-24T12:11:05Z</time>
      </trkpt>
      <trkpt lat="42.83786" lon="-0.47887">
        <ele>1785.786133</ele>
        <time>2012-07-24T12:11:17Z</time>
      </trkpt>
      <trkpt lat="42.83781" lon="-0.47874">
        <ele>1782.9021</ele>
        <time>2012-07-24T12:11:28Z</time>
      </trkpt>
      <trkpt lat="42.83776" lon="-0.47857">
        <ele>1780.979736</ele>
        <time>2012-07-24T12:11:43Z</time>
      </trkpt>
      <trkpt lat="42.83768" lon="-0.47824">
        <ele>1778.576416</ele>
        <time>2012-07-24T12:12:02Z</time>
      </trkpt>
      <trkpt lat="42.83765" lon="-0.478">
        <ele>1778.095703</ele>
        <time>2012-07-24T12:12:17Z</time>
      </trkpt>
      <trkpt lat="42.83771" lon="-0.4778">
        <ele>1774.250488</ele>
        <time>2012-07-24T12:12:31Z</time>
      </trkpt>
      <trkpt lat="42.83777" lon="-0.47767">
        <ele>1771.846924</ele>
        <time>2012-07-24T12:12:43Z</time>
      </trkpt>
      <trkpt lat="42.83779" lon="-0.47763">
        <ele>1770.885742</ele>
        <time>2012-07-24T12:12:46Z</time>
      </trkpt>
      <trkpt lat="42.83783" lon="-0.47745">
        <ele>1769.443848</ele>
        <time>2012-07-24T12:12:58Z</time>
      </trkpt>
      <trkpt lat="42.83783" lon="-0.4774">
        <ele>1768.963135</ele>
        <time>2012-07-24T12:13:01Z</time>
      </trkpt>
      <trkpt lat="42.83783" lon="-0.47718">
        <ele>1765.598633</ele>
        <time>2012-07-24T12:13:16Z</time>
      </trkpt>
      <trkpt lat="42.83784" lon="-0.47709">
        <ele>1762.233887</ele>
        <time>2012-07-24T12:13:23Z</time>
      </trkpt>
      <trkpt lat="42.83784" lon="-0.47705">
        <ele>1760.311279</ele>
        <time>2012-07-24T12:13:27Z</time>
      </trkpt>
      <trkpt lat="42.83783" lon="-0.47697">
        <ele>1757.908203</ele>
        <time>2012-07-24T12:13:35Z</time>
      </trkpt>
      <trkpt lat="42.83781" lon="-0.47691">
        <ele>1755.504639</ele>
        <time>2012-07-24T12:13:41Z</time>
      </trkpt>
      <trkpt lat="42.83779" lon="-0.47685">
        <ele>1753.101318</ele>
        <time>2012-07-24T12:13:48Z</time>
      </trkpt>
      <trkpt lat="42.83775" lon="-0.47677">
        <ele>1749.736816</ele>
        <time>2012-07-24T12:13:57Z</time>
      </trkpt>
      <trkpt lat="42.83772" lon="-0.47672">
        <ele>1747.333496</ele>
        <time>2012-07-24T12:14:03Z</time>
      </trkpt>
      <trkpt lat="42.8377" lon="-0.4767">
        <ele>1745.410889</ele>
        <time>2012-07-24T12:14:06Z</time>
      </trkpt>
      <trkpt lat="42.83768" lon="-0.47667">
        <ele>1744.930176</ele>
        <time>2012-07-24T12:14:10Z</time>
      </trkpt>
      <trkpt lat="42.83763" lon="-0.47658">
        <ele>1741.565674</ele>
        <time>2012-07-24T12:14:19Z</time>
      </trkpt>
      <trkpt lat="42.83767" lon="-0.47657">
        <ele>1740.123779</ele>
        <time>2012-07-24T12:14:34Z</time>
      </trkpt>
      <trkpt lat="42.83771" lon="-0.47647">
        <ele>1739.642822</ele>
        <time>2012-07-24T12:14:50Z</time>
      </trkpt>
      <trkpt lat="42.8377" lon="-0.47636">
        <ele>1737.239502</ele>
        <time>2012-07-24T12:15:09Z</time>
      </trkpt>
      <trkpt lat="42.8377" lon="-0.4763">
        <ele>1736.758789</ele>
        <time>2012-07-24T12:15:29Z</time>
      </trkpt>
      <trkpt lat="42.83771" lon="-0.47629">
        <ele>1736.758789</ele>
        <time>2012-07-24T12:15:49Z</time>
      </trkpt>
      <trkpt lat="42.83771" lon="-0.47629">
        <ele>1735.797607</ele>
        <time>2012-07-24T12:16:40Z</time>
      </trkpt>
      <trkpt lat="42.83772" lon="-0.47629">
        <ele>1736.27832</ele>
        <time>2012-07-24T12:17:00Z</time>
      </trkpt>
      <trkpt lat="42.83776" lon="-0.47628">
        <ele>1735.316895</ele>
        <time>2012-07-24T12:17:04Z</time>
      </trkpt>
      <trkpt lat="42.83796" lon="-0.47619">
        <ele>1733.394287</ele>
        <time>2012-07-24T12:17:24Z</time>
      </trkpt>
      <trkpt lat="42.8381" lon="-0.47609">
        <ele>1730.510498</ele>
        <time>2012-07-24T12:17:41Z</time>
      </trkpt>
      <trkpt lat="42.83821" lon="-0.476">
        <ele>1727.626465</ele>
        <time>2012-07-24T12:17:54Z</time>
      </trkpt>
      <trkpt lat="42.83837" lon="-0.4758">
        <ele>1724.261963</ele>
        <time>2012-07-24T12:18:12Z</time>
      </trkpt>
      <trkpt lat="42.83847" lon="-0.47578">
        <ele>1723.781006</ele>
        <time>2012-07-24T12:18:20Z</time>
      </trkpt>
      <trkpt lat="42.8386" lon="-0.47596">
        <ele>1721.377686</ele>
        <time>2012-07-24T12:18:38Z</time>
      </trkpt>
      <trkpt lat="42.83876" lon="-0.47586">
        <ele>1719.455322</ele>
        <time>2012-07-24T12:18:55Z</time>
      </trkpt>
      <trkpt lat="42.83886" lon="-0.47579">
        <ele>1716.571289</ele>
        <time>2012-07-24T12:19:06Z</time>
      </trkpt>
      <trkpt lat="42.83904" lon="-0.47559">
        <ele>1714.167969</ele>
        <time>2012-07-24T12:19:27Z</time>
      </trkpt>
      <trkpt lat="42.8392" lon="-0.47532">
        <ele>1710.803467</ele>
        <time>2012-07-24T12:19:48Z</time>
      </trkpt>
      <trkpt lat="42.83935" lon="-0.47518">
        <ele>1707.919434</ele>
        <time>2012-07-24T12:20:03Z</time>
      </trkpt>
      <trkpt lat="42.83953" lon="-0.47504">
        <ele>1705.0354</ele>
        <time>2012-07-24T12:20:24Z</time>
      </trkpt>
      <trkpt lat="42.83969" lon="-0.47494">
        <ele>1702.63208</ele>
        <time>2012-07-24T12:20:42Z</time>
      </trkpt>
      <trkpt lat="42.83977" lon="-0.47486">
        <ele>1699.267578</ele>
        <time>2012-07-24T12:20:53Z</time>
      </trkpt>
      <trkpt lat="42.83992" lon="-0.47468">
        <ele>1697.825684</ele>
        <time>2012-07-24T12:21:11Z</time>
      </trkpt>
      <trkpt lat="42.84012" lon="-0.47448">
        <ele>1695.422363</ele>
        <time>2012-07-24T12:21:33Z</time>
      </trkpt>
      <trkpt lat="42.84037" lon="-0.47437">
        <ele>1692.057861</ele>
        <time>2012-07-24T12:21:56Z</time>
      </trkpt>
      <trkpt lat="42.84053" lon="-0.47439">
        <ele>1689.173584</ele>
        <time>2012-07-24T12:22:12Z</time>
      </trkpt>
      <trkpt lat="42.8407" lon="-0.47434">
        <ele>1685.328369</ele>
        <time>2012-07-24T12:22:28Z</time>
      </trkpt>
      <trkpt lat="42.84092" lon="-0.47413">
        <ele>1682.44458</ele>
        <time>2012-07-24T12:22:51Z</time>
      </trkpt>
      <trkpt lat="42.84109" lon="-0.47396">
        <ele>1679.079834</ele>
        <time>2012-07-24T12:23:09Z</time>
      </trkpt>
      <trkpt lat="42.84127" lon="-0.47374">
        <ele>1677.157471</ele>
        <time>2012-07-24T12:23:30Z</time>
      </trkpt>
      <trkpt lat="42.84143" lon="-0.47349">
        <ele>1676.196045</ele>
        <time>2012-07-24T12:23:50Z</time>
      </trkpt>
      <trkpt lat="42.84161" lon="-0.47322">
        <ele>1675.234375</ele>
        <time>2012-07-24T12:24:12Z</time>
      </trkpt>
      <trkpt lat="42.84176" lon="-0.473">
        <ele>1674.273193</ele>
        <time>2012-07-24T12:24:31Z</time>
      </trkpt>
      <trkpt lat="42.84178" lon="-0.47273">
        <ele>1671.38916</ele>
        <time>2012-07-24T12:24:49Z</time>
      </trkpt>
      <trkpt lat="42.84169" lon="-0.47238">
        <ele>1669.466797</ele>
        <time>2012-07-24T12:25:11Z</time>
      </trkpt>
      <trkpt lat="42.84162" lon="-0.47201">
        <ele>1667.543945</ele>
        <time>2012-07-24T12:25:35Z</time>
      </trkpt>
      <trkpt lat="42.84164" lon="-0.47167">
        <ele>1667.543945</ele>
        <time>2012-07-24T12:25:57Z</time>
      </trkpt>
      <trkpt lat="42.84164" lon="-0.47155">
        <ele>1665.621582</ele>
        <time>2012-07-24T12:26:06Z</time>
      </trkpt>
      <trkpt lat="42.84157" lon="-0.47121">
        <ele>1663.218262</ele>
        <time>2012-07-24T12:26:28Z</time>
      </trkpt>
      <trkpt lat="42.84159" lon="-0.47083">
        <ele>1661.776367</ele>
        <time>2012-07-24T12:26:51Z</time>
      </trkpt>
      <trkpt lat="42.84162" lon="-0.47049">
        <ele>1659.853271</ele>
        <time>2012-07-24T12:27:12Z</time>
      </trkpt>
      <trkpt lat="42.84161" lon="-0.47028">
        <ele>1658.411377</ele>
        <time>2012-07-24T12:27:30Z</time>
      </trkpt>
      <trkpt lat="42.84176" lon="-0.47011">
        <ele>1656.969482</ele>
        <time>2012-07-24T12:27:47Z</time>
      </trkpt>
      <trkpt lat="42.84193" lon="-0.47023">
        <ele>1658.89209</ele>
        <time>2012-07-24T12:28:03Z</time>
      </trkpt>
      <trkpt lat="42.84213" lon="-0.47025">
        <ele>1659.853271</ele>
        <time>2012-07-24T12:28:23Z</time>
      </trkpt>
      <trkpt lat="42.84233" lon="-0.47028">
        <ele>1663.218262</ele>
        <time>2012-07-24T12:28:40Z</time>
      </trkpt>
      <trkpt lat="42.84252" lon="-0.47032">
        <ele>1660.814941</ele>
        <time>2012-07-24T12:28:57Z</time>
      </trkpt>
      <trkpt lat="42.84258" lon="-0.47035">
        <ele>1659.853271</ele>
        <time>2012-07-24T12:29:03Z</time>
      </trkpt>
      <trkpt lat="42.84276" lon="-0.47041">
        <ele>1656.48877</ele>
        <time>2012-07-24T12:29:21Z</time>
      </trkpt>
      <trkpt lat="42.84286" lon="-0.47044">
        <ele>1653.124268</ele>
        <time>2012-07-24T12:29:32Z</time>
      </trkpt>
      <trkpt lat="42.84302" lon="-0.47047">
        <ele>1650.240479</ele>
        <time>2012-07-24T12:29:50Z</time>
      </trkpt>
      <trkpt lat="42.84311" lon="-0.47062">
        <ele>1647.356445</ele>
        <time>2012-07-24T12:30:06Z</time>
      </trkpt>
      <trkpt lat="42.84313" lon="-0.47066">
        <ele>1647.356445</ele>
        <time>2012-07-24T12:30:10Z</time>
      </trkpt>
      <trkpt lat="42.8432" lon="-0.4708">
        <ele>1644.472412</ele>
        <time>2012-07-24T12:30:23Z</time>
      </trkpt>
      <trkpt lat="42.8433" lon="-0.47093">
        <ele>1641.107666</ele>
        <time>2012-07-24T12:30:38Z</time>
      </trkpt>
      <trkpt lat="42.84343" lon="-0.47103">
        <ele>1637.743164</ele>
        <time>2012-07-24T12:30:56Z</time>
      </trkpt>
      <trkpt lat="42.84352" lon="-0.47115">
        <ele>1634.859375</ele>
        <time>2012-07-24T12:31:11Z</time>
      </trkpt>
      <trkpt lat="42.84359" lon="-0.4712">
        <ele>1633.897949</ele>
        <time>2012-07-24T12:31:21Z</time>
      </trkpt>
      <trkpt lat="42.8436" lon="-0.47115">
        <ele>1632.936523</ele>
        <time>2012-07-24T12:31:25Z</time>
      </trkpt>
      <trkpt lat="42.84353" lon="-0.47081">
        <ele>1630.052734</ele>
        <time>2012-07-24T12:31:49Z</time>
      </trkpt>
      <trkpt lat="42.84357" lon="-0.47063">
        <ele>1627.168701</ele>
        <time>2012-07-24T12:32:03Z</time>
      </trkpt>
      <trkpt lat="42.84361" lon="-0.47055">
        <ele>1625.24585</ele>
        <time>2012-07-24T12:32:22Z</time>
      </trkpt>
      <trkpt lat="42.84367" lon="-0.47048">
        <ele>1624.284668</ele>
        <time>2012-07-24T12:32:36Z</time>
      </trkpt>
      <trkpt lat="42.84379" lon="-0.47053">
        <ele>1620.439453</ele>
        <time>2012-07-24T12:32:52Z</time>
      </trkpt>
      <trkpt lat="42.84382" lon="-0.47057">
        <ele>1619.95874</ele>
        <time>2012-07-24T12:32:57Z</time>
      </trkpt>
      <trkpt lat="42.84389" lon="-0.47073">
        <ele>1616.594238</ele>
        <time>2012-07-24T12:33:12Z</time>
      </trkpt>
      <trkpt lat="42.84395" lon="-0.47079">
        <ele>1615.633057</ele>
        <time>2012-07-24T12:33:20Z</time>
      </trkpt>
      <trkpt lat="42.84408" lon="-0.47088">
        <ele>1612.268311</ele>
        <time>2012-07-24T12:33:34Z</time>
      </trkpt>
      <trkpt lat="42.84414" lon="-0.47091">
        <ele>1610.826172</ele>
        <time>2012-07-24T12:33:40Z</time>
      </trkpt>
      <trkpt lat="42.84421" lon="-0.47091">
        <ele>1609.384277</ele>
        <time>2012-07-24T12:33:47Z</time>
      </trkpt>
      <trkpt lat="42.84436" lon="-0.47073">
        <ele>1607.46167</ele>
        <time>2012-07-24T12:34:07Z</time>
      </trkpt>
      <trkpt lat="42.84462" lon="-0.4707">
        <ele>1605.05835</ele>
        <time>2012-07-24T12:34:30Z</time>
      </trkpt>
      <trkpt lat="42.84481" lon="-0.4709">
        <ele>1601.213135</ele>
        <time>2012-07-24T12:34:51Z</time>
      </trkpt>
      <trkpt lat="42.84482" lon="-0.47091">
        <ele>1601.213135</ele>
        <time>2012-07-24T12:34:52Z</time>
      </trkpt>
      <trkpt lat="42.84491" lon="-0.471">
        <ele>1597.848633</ele>
        <time>2012-07-24T12:35:03Z</time>
      </trkpt>
      <trkpt lat="42.84503" lon="-0.47087">
        <ele>1594.483643</ele>
        <time>2012-07-24T12:35:19Z</time>
      </trkpt>
      <trkpt lat="42.84511" lon="-0.47066">
        <ele>1591.599854</ele>
        <time>2012-07-24T12:35:35Z</time>
      </trkpt>
      <trkpt lat="42.84511" lon="-0.47034">
        <ele>1590.157959</ele>
        <time>2012-07-24T12:35:56Z</time>
      </trkpt>
      <trkpt lat="42.8451" lon="-0.47018">
        <ele>1586.793213</ele>
        <time>2012-07-24T12:36:07Z</time>
      </trkpt>
      <trkpt lat="42.84507" lon="-0.47011">
        <ele>1586.312744</ele>
        <time>2012-07-24T12:36:13Z</time>
      </trkpt>
      <trkpt lat="42.84499" lon="-0.46982">
        <ele>1584.390137</ele>
        <time>2012-07-24T12:36:34Z</time>
      </trkpt>
      <trkpt lat="42.84508" lon="-0.46952">
        <ele>1586.793213</ele>
        <time>2012-07-24T12:36:55Z</time>
      </trkpt>
      <trkpt lat="42.84514" lon="-0.46917">
        <ele>1589.196533</ele>
        <time>2012-07-24T12:37:17Z</time>
      </trkpt>
      <trkpt lat="42.84527" lon="-0.46899">
        <ele>1590.638428</ele>
        <time>2012-07-24T12:37:36Z</time>
      </trkpt>
      <trkpt lat="42.84529" lon="-0.46897">
        <ele>1592.080566</ele>
        <time>2012-07-24T12:37:38Z</time>
      </trkpt>
      <trkpt lat="42.84539" lon="-0.46877">
        <ele>1592.080566</ele>
        <time>2012-07-24T12:37:56Z</time>
      </trkpt>
      <trkpt lat="42.84543" lon="-0.46861">
        <ele>1590.638428</ele>
        <time>2012-07-24T12:38:07Z</time>
      </trkpt>
      <trkpt lat="42.84546" lon="-0.46826">
        <ele>1591.599854</ele>
        <time>2012-07-24T12:38:28Z</time>
      </trkpt>
      <trkpt lat="42.84555" lon="-0.46796">
        <ele>1592.080566</ele>
        <time>2012-07-24T12:38:49Z</time>
      </trkpt>
      <trkpt lat="42.84573" lon="-0.46767">
        <ele>1592.561279</ele>
        <time>2012-07-24T12:39:12Z</time>
      </trkpt>
      <trkpt lat="42.84585" lon="-0.46738">
        <ele>1589.196533</ele>
        <time>2012-07-24T12:39:31Z</time>
      </trkpt>
      <trkpt lat="42.84595" lon="-0.46701">
        <ele>1586.793213</ele>
        <time>2012-07-24T12:39:55Z</time>
      </trkpt>
      <trkpt lat="42.84599" lon="-0.46674">
        <ele>1586.312744</ele>
        <time>2012-07-24T12:40:12Z</time>
      </trkpt>
      <trkpt lat="42.846" lon="-0.46639">
        <ele>1584.87085</ele>
        <time>2012-07-24T12:40:33Z</time>
      </trkpt>
      <trkpt lat="42.84603" lon="-0.46626">
        <ele>1584.390137</ele>
        <time>2012-07-24T12:40:47Z</time>
      </trkpt>
      <trkpt lat="42.84603" lon="-0.46625">
        <ele>1584.390137</ele>
        <time>2012-07-24T12:41:12Z</time>
      </trkpt>
      <trkpt lat="42.84604" lon="-0.46624">
        <ele>1582.947998</ele>
        <time>2012-07-24T12:41:58Z</time>
      </trkpt>
      <trkpt lat="42.84602" lon="-0.46628">
        <ele>1583.428711</ele>
        <time>2012-07-24T12:43:28Z</time>
      </trkpt>
      <trkpt lat="42.84603" lon="-0.46625">
        <ele>1583.428711</ele>
        <time>2012-07-24T12:43:47Z</time>
      </trkpt>
      <trkpt lat="42.84602" lon="-0.46628">
        <ele>1582.467529</ele>
        <time>2012-07-24T12:44:52Z</time>
      </trkpt>
      <trkpt lat="42.84611" lon="-0.46621">
        <ele>1583.909424</ele>
        <time>2012-07-24T12:45:09Z</time>
      </trkpt>
      <trkpt lat="42.84615" lon="-0.46618">
        <ele>1583.428711</ele>
        <time>2012-07-24T12:45:13Z</time>
      </trkpt>
      <trkpt lat="42.84628" lon="-0.46604">
        <ele>1582.947998</ele>
        <time>2012-07-24T12:45:29Z</time>
      </trkpt>
      <trkpt lat="42.84646" lon="-0.46581">
        <ele>1582.947998</ele>
        <time>2012-07-24T12:45:49Z</time>
      </trkpt>
      <trkpt lat="42.84669" lon="-0.4656">
        <ele>1581.506104</ele>
        <time>2012-07-24T12:46:12Z</time>
      </trkpt>
      <trkpt lat="42.84691" lon="-0.46539">
        <ele>1579.583252</ele>
        <time>2012-07-24T12:46:34Z</time>
      </trkpt>
      <trkpt lat="42.84697" lon="-0.46531">
        <ele>1578.62207</ele>
        <time>2012-07-24T12:46:41Z</time>
      </trkpt>
      <trkpt lat="42.84717" lon="-0.46508">
        <ele>1579.102539</ele>
        <time>2012-07-24T12:47:02Z</time>
      </trkpt>
      <trkpt lat="42.84738" lon="-0.46491">
        <ele>1579.583252</ele>
        <time>2012-07-24T12:47:23Z</time>
      </trkpt>
      <trkpt lat="42.84764" lon="-0.46477">
        <ele>1576.699463</ele>
        <time>2012-07-24T12:47:46Z</time>
      </trkpt>
      <trkpt lat="42.84785" lon="-0.46466">
        <ele>1573.81543</ele>
        <time>2012-07-24T12:48:05Z</time>
      </trkpt>
      <trkpt lat="42.84793" lon="-0.46461">
        <ele>1572.373535</ele>
        <time>2012-07-24T12:48:13Z</time>
      </trkpt>
      <trkpt lat="42.84798" lon="-0.46459">
        <ele>1572.373535</ele>
        <time>2012-07-24T12:48:17Z</time>
      </trkpt>
      <trkpt lat="42.84815" lon="-0.46446">
        <ele>1570.450928</ele>
        <time>2012-07-24T12:48:36Z</time>
      </trkpt>
      <trkpt lat="42.84828" lon="-0.46436">
        <ele>1568.52832</ele>
        <time>2012-07-24T12:48:52Z</time>
      </trkpt>
      <trkpt lat="42.8484" lon="-0.46426">
        <ele>1565.163818</ele>
        <time>2012-07-24T12:49:05Z</time>
      </trkpt>
      <trkpt lat="42.84847" lon="-0.46417">
        <ele>1564.202393</ele>
        <time>2012-07-24T12:49:14Z</time>
      </trkpt>
      <trkpt lat="42.84859" lon="-0.46403">
        <ele>1560.837646</ele>
        <time>2012-07-24T12:49:32Z</time>
      </trkpt>
      <trkpt lat="42.84872" lon="-0.46386">
        <ele>1557.953857</ele>
        <time>2012-07-24T12:49:52Z</time>
      </trkpt>
      <trkpt lat="42.84888" lon="-0.46368">
        <ele>1556.031006</ele>
        <time>2012-07-24T12:50:09Z</time>
      </trkpt>
      <trkpt lat="42.84906" lon="-0.46338">
        <ele>1555.069824</ele>
        <time>2012-07-24T12:50:32Z</time>
      </trkpt>
      <trkpt lat="42.84931" lon="-0.46306">
        <ele>1555.069824</ele>
        <time>2012-07-24T12:50:59Z</time>
      </trkpt>
      <trkpt lat="42.84951" lon="-0.46283">
        <ele>1554.589111</ele>
        <time>2012-07-24T12:51:20Z</time>
      </trkpt>
      <trkpt lat="42.84977" lon="-0.46259">
        <ele>1553.62793</ele>
        <time>2012-07-24T12:51:45Z</time>
      </trkpt>
      <trkpt lat="42.85" lon="-0.46246">
        <ele>1553.147217</ele>
        <time>2012-07-24T12:52:06Z</time>
      </trkpt>
      <trkpt lat="42.85025" lon="-0.46234">
        <ele>1553.147217</ele>
        <time>2012-07-24T12:52:27Z</time>
      </trkpt>
      <trkpt lat="42.85048" lon="-0.46217">
        <ele>1552.185791</ele>
        <time>2012-07-24T12:52:49Z</time>
      </trkpt>
      <trkpt lat="42.85068" lon="-0.46191">
        <ele>1551.705322</ele>
        <time>2012-07-24T12:53:12Z</time>
      </trkpt>
      <trkpt lat="42.85089" lon="-0.46162">
        <ele>1551.705322</ele>
        <time>2012-07-24T12:53:36Z</time>
      </trkpt>
      <trkpt lat="42.85109" lon="-0.46139">
        <ele>1551.224609</ele>
        <time>2012-07-24T12:53:57Z</time>
      </trkpt>
      <trkpt lat="42.85137" lon="-0.46116">
        <ele>1551.224609</ele>
        <time>2012-07-24T12:54:23Z</time>
      </trkpt>
      <trkpt lat="42.85163" lon="-0.461">
        <ele>1550.263428</ele>
        <time>2012-07-24T12:54:45Z</time>
      </trkpt>
      <trkpt lat="42.85185" lon="-0.46084">
        <ele>1550.743896</ele>
        <time>2012-07-24T12:55:05Z</time>
      </trkpt>
      <trkpt lat="42.85208" lon="-0.46067">
        <ele>1550.263428</ele>
        <time>2012-07-24T12:55:26Z</time>
      </trkpt>
      <trkpt lat="42.8523" lon="-0.46041">
        <ele>1550.743896</ele>
        <time>2012-07-24T12:55:50Z</time>
      </trkpt>
      <trkpt lat="42.8525" lon="-0.4602">
        <ele>1550.263428</ele>
        <time>2012-07-24T12:56:11Z</time>
      </trkpt>
      <trkpt lat="42.85269" lon="-0.46003">
        <ele>1550.263428</ele>
        <time>2012-07-24T12:56:30Z</time>
      </trkpt>
      <trkpt lat="42.85281" lon="-0.45972">
        <ele>1549.782715</ele>
        <time>2012-07-24T12:56:52Z</time>
      </trkpt>
      <trkpt lat="42.85291" lon="-0.4594">
        <ele>1549.302002</ele>
        <time>2012-07-24T12:57:12Z</time>
      </trkpt>
      <trkpt lat="42.85308" lon="-0.45909">
        <ele>1549.302002</ele>
        <time>2012-07-24T12:57:35Z</time>
      </trkpt>
      <trkpt lat="42.85322" lon="-0.45893">
        <ele>1549.782715</ele>
        <time>2012-07-24T12:57:50Z</time>
      </trkpt>
      <trkpt lat="42.85324" lon="-0.45887">
        <ele>1549.302002</ele>
        <time>2012-07-24T12:57:54Z</time>
      </trkpt>
      <trkpt lat="42.85342" lon="-0.45854">
        <ele>1549.782715</ele>
        <time>2012-07-24T12:58:19Z</time>
      </trkpt>
      <trkpt lat="42.85359" lon="-0.45827">
        <ele>1549.302002</ele>
        <time>2012-07-24T12:58:41Z</time>
      </trkpt>
      <trkpt lat="42.85374" lon="-0.45802">
        <ele>1549.302002</ele>
        <time>2012-07-24T12:59:01Z</time>
      </trkpt>
      <trkpt lat="42.85376" lon="-0.45799">
        <ele>1549.302002</ele>
        <time>2012-07-24T12:59:04Z</time>
      </trkpt>
      <trkpt lat="42.85381" lon="-0.45799">
        <ele>1549.782715</ele>
        <time>2012-07-24T12:59:09Z</time>
      </trkpt>
      <trkpt lat="42.85391" lon="-0.45804">
        <ele>1549.782715</ele>
        <time>2012-07-24T12:59:29Z</time>
      </trkpt>
      <trkpt lat="42.85394" lon="-0.45804">
        <ele>1549.782715</ele>
        <time>2012-07-24T12:59:33Z</time>
      </trkpt>
      <trkpt lat="42.85409" lon="-0.45788">
        <ele>1549.302002</ele>
        <time>2012-07-24T12:59:51Z</time>
      </trkpt>
      <trkpt lat="42.85427" lon="-0.45773">
        <ele>1548.821289</ele>
        <time>2012-07-24T13:00:09Z</time>
      </trkpt>
      <trkpt lat="42.85443" lon="-0.45757">
        <ele>1551.224609</ele>
        <time>2012-07-24T13:00:27Z</time>
      </trkpt>
      <trkpt lat="42.85451" lon="-0.45755">
        <ele>1551.705322</ele>
        <time>2012-07-24T13:00:45Z</time>
      </trkpt>
      <trkpt lat="42.85451" lon="-0.45759">
        <ele>1553.147217</ele>
        <time>2012-07-24T13:00:58Z</time>
      </trkpt>
      <trkpt lat="42.85467" lon="-0.4575">
        <ele>1552.185791</ele>
        <time>2012-07-24T13:01:19Z</time>
      </trkpt>
      <trkpt lat="42.85478" lon="-0.45738">
        <ele>1551.705322</ele>
        <time>2012-07-24T13:01:30Z</time>
      </trkpt>
      <trkpt lat="42.85492" lon="-0.45726">
        <ele>1551.705322</ele>
        <time>2012-07-24T13:01:44Z</time>
      </trkpt>
      <trkpt lat="42.85503" lon="-0.45711">
        <ele>1550.263428</ele>
        <time>2012-07-24T13:01:57Z</time>
      </trkpt>
      <trkpt lat="42.85509" lon="-0.45704">
        <ele>1549.302002</ele>
        <time>2012-07-24T13:02:09Z</time>
      </trkpt>
      <trkpt lat="42.85519" lon="-0.45689">
        <ele>1548.821289</ele>
        <time>2012-07-24T13:02:23Z</time>
      </trkpt>
      <trkpt lat="42.85524" lon="-0.45684">
        <ele>1547.37915</ele>
        <time>2012-07-24T13:02:39Z</time>
      </trkpt>
      <trkpt lat="42.8553" lon="-0.45681">
        <ele>1547.37915</ele>
        <time>2012-07-24T13:02:52Z</time>
      </trkpt>
      <trkpt lat="42.85551" lon="-0.45657">
        <ele>1544.97583</ele>
        <time>2012-07-24T13:03:12Z</time>
      </trkpt>
      <trkpt lat="42.85568" lon="-0.45635">
        <ele>1541.611328</ele>
        <time>2012-07-24T13:03:31Z</time>
      </trkpt>
      <trkpt lat="42.85573" lon="-0.45623">
        <ele>1539.208008</ele>
        <time>2012-07-24T13:03:40Z</time>
      </trkpt>
      <trkpt lat="42.85583" lon="-0.45611">
        <ele>1535.843506</ele>
        <time>2012-07-24T13:03:51Z</time>
      </trkpt>
      <trkpt lat="42.85598" lon="-0.45609">
        <ele>1534.882324</ele>
        <time>2012-07-24T13:04:04Z</time>
      </trkpt>
      <trkpt lat="42.85618" lon="-0.4561">
        <ele>1530.556152</ele>
        <time>2012-07-24T13:04:21Z</time>
      </trkpt>
      <trkpt lat="42.85633" lon="-0.4561">
        <ele>1527.672119</ele>
        <time>2012-07-24T13:04:37Z</time>
      </trkpt>
      <trkpt lat="42.85644" lon="-0.45604">
        <ele>1526.230225</ele>
        <time>2012-07-24T13:04:48Z</time>
      </trkpt>
      <trkpt lat="42.85645" lon="-0.45601">
        <ele>1526.230225</ele>
        <time>2012-07-24T13:04:50Z</time>
      </trkpt>
      <trkpt lat="42.85655" lon="-0.45601">
        <ele>1521.423584</ele>
        <time>2012-07-24T13:05:00Z</time>
      </trkpt>
      <trkpt lat="42.85661" lon="-0.45596">
        <ele>1520.462402</ele>
        <time>2012-07-24T13:05:07Z</time>
      </trkpt>
      <trkpt lat="42.8568" lon="-0.45586">
        <ele>1517.0979</ele>
        <time>2012-07-24T13:05:24Z</time>
      </trkpt>
      <trkpt lat="42.85687" lon="-0.45584">
        <ele>1515.655762</ele>
        <time>2012-07-24T13:05:31Z</time>
      </trkpt>
      <trkpt lat="42.85689" lon="-0.45582">
        <ele>1515.175049</ele>
        <time>2012-07-24T13:05:34Z</time>
      </trkpt>
      <trkpt lat="42.85706" lon="-0.45576">
        <ele>1513.252441</ele>
        <time>2012-07-24T13:05:51Z</time>
      </trkpt>
      <trkpt lat="42.85714" lon="-0.45573">
        <ele>1509.887695</ele>
        <time>2012-07-24T13:05:59Z</time>
      </trkpt>
      <trkpt lat="42.85718" lon="-0.45568">
        <ele>1509.407227</ele>
        <time>2012-07-24T13:06:04Z</time>
      </trkpt>
      <trkpt lat="42.85719" lon="-0.45556">
        <ele>1508.445801</ele>
        <time>2012-07-24T13:06:09Z</time>
      </trkpt>
      <trkpt lat="42.85724" lon="-0.45545">
        <ele>1505.562012</ele>
        <time>2012-07-24T13:06:25Z</time>
      </trkpt>
      <trkpt lat="42.85727" lon="-0.45545">
        <ele>1505.562012</ele>
        <time>2012-07-24T13:06:28Z</time>
      </trkpt>
      <trkpt lat="42.85732" lon="-0.45542">
        <ele>1503.639404</ele>
        <time>2012-07-24T13:06:32Z</time>
      </trkpt>
      <trkpt lat="42.85754" lon="-0.45541">
        <ele>1502.197266</ele>
        <time>2012-07-24T13:06:51Z</time>
      </trkpt>
      <trkpt lat="42.8577" lon="-0.45524">
        <ele>1503.158691</ele>
        <time>2012-07-24T13:07:06Z</time>
      </trkpt>
      <trkpt lat="42.85781" lon="-0.45508">
        <ele>1503.158691</ele>
        <time>2012-07-24T13:07:21Z</time>
      </trkpt>
      <trkpt lat="42.85784" lon="-0.45505">
        <ele>1503.158691</ele>
        <time>2012-07-24T13:07:24Z</time>
      </trkpt>
      <trkpt lat="42.85795" lon="-0.45484">
        <ele>1502.677979</ele>
        <time>2012-07-24T13:07:39Z</time>
      </trkpt>
      <trkpt lat="42.85796" lon="-0.45483">
        <ele>1502.677979</ele>
        <time>2012-07-24T13:07:40Z</time>
      </trkpt>
      <trkpt lat="42.85799" lon="-0.45469">
        <ele>1503.158691</ele>
        <time>2012-07-24T13:07:48Z</time>
      </trkpt>
      <trkpt lat="42.85802" lon="-0.45462">
        <ele>1502.677979</ele>
        <time>2012-07-24T13:07:51Z</time>
      </trkpt>
      <trkpt lat="42.85815" lon="-0.45446">
        <ele>1502.677979</ele>
        <time>2012-07-24T13:08:07Z</time>
      </trkpt>
      <trkpt lat="42.85829" lon="-0.45442">
        <ele>1502.197266</ele>
        <time>2012-07-24T13:08:17Z</time>
      </trkpt>
      <trkpt lat="42.85854" lon="-0.45468">
        <ele>1503.158691</ele>
        <time>2012-07-24T13:08:34Z</time>
      </trkpt>
      <trkpt lat="42.85863" lon="-0.45473">
        <ele>1502.197266</ele>
        <time>2012-07-24T13:08:41Z</time>
      </trkpt>
      <trkpt lat="42.85872" lon="-0.45462">
        <ele>1501.236084</ele>
        <time>2012-07-24T13:08:49Z</time>
      </trkpt>
      <trkpt lat="42.85886" lon="-0.45459">
        <ele>1499.793945</ele>
        <time>2012-07-24T13:09:02Z</time>
      </trkpt>
      <trkpt lat="42.85904" lon="-0.45462">
        <ele>1498.83252</ele>
        <time>2012-07-24T13:09:16Z</time>
      </trkpt>
      <trkpt lat="42.85918" lon="-0.45456">
        <ele>1497.390625</ele>
        <time>2012-07-24T13:09:27Z</time>
      </trkpt>
      <trkpt lat="42.85935" lon="-0.45454">
        <ele>1493.54541</ele>
        <time>2012-07-24T13:09:40Z</time>
      </trkpt>
      <trkpt lat="42.85957" lon="-0.45452">
        <ele>1490.180908</ele>
        <time>2012-07-24T13:10:00Z</time>
      </trkpt>
      <trkpt lat="42.8596" lon="-0.45452">
        <ele>1490.180908</ele>
        <time>2012-07-24T13:10:03Z</time>
      </trkpt>
      <trkpt lat="42.85968" lon="-0.45455">
        <ele>1488.739014</ele>
        <time>2012-07-24T13:10:10Z</time>
      </trkpt>
      <trkpt lat="42.85993" lon="-0.45465">
        <ele>1485.374268</ele>
        <time>2012-07-24T13:10:30Z</time>
      </trkpt>
      <trkpt lat="42.86013" lon="-0.45442">
        <ele>1482.970703</ele>
        <time>2012-07-24T13:10:50Z</time>
      </trkpt>
      <trkpt lat="42.86023" lon="-0.45438">
        <ele>1482.009521</ele>
        <time>2012-07-24T13:11:00Z</time>
      </trkpt>
      <trkpt lat="42.86045" lon="-0.45436">
        <ele>1479.125488</ele>
        <time>2012-07-24T13:11:20Z</time>
      </trkpt>
      <trkpt lat="42.86051" lon="-0.45434">
        <ele>1478.164307</ele>
        <time>2012-07-24T13:11:26Z</time>
      </trkpt>
      <trkpt lat="42.86062" lon="-0.45424">
        <ele>1475.280273</ele>
        <time>2012-07-24T13:11:38Z</time>
      </trkpt>
      <trkpt lat="42.86063" lon="-0.45423">
        <ele>1474.799805</ele>
        <time>2012-07-24T13:11:40Z</time>
      </trkpt>
      <trkpt lat="42.86081" lon="-0.45436">
        <ele>1471.435059</ele>
        <time>2012-07-24T13:11:56Z</time>
      </trkpt>
      <trkpt lat="42.86081" lon="-0.45436">
        <ele>1471.435059</ele>
        <time>2012-07-24T13:11:57Z</time>
      </trkpt>
      <trkpt lat="42.86093" lon="-0.45434">
        <ele>1469.512695</ele>
        <time>2012-07-24T13:12:09Z</time>
      </trkpt>
      <trkpt lat="42.8611" lon="-0.45427">
        <ele>1466.628418</ele>
        <time>2012-07-24T13:12:24Z</time>
      </trkpt>
      <trkpt lat="42.86113" lon="-0.45427">
        <ele>1466.628418</ele>
        <time>2012-07-24T13:12:26Z</time>
      </trkpt>
      <trkpt lat="42.86126" lon="-0.45418">
        <ele>1462.783203</ele>
        <time>2012-07-24T13:12:39Z</time>
      </trkpt>
      <trkpt lat="42.8614" lon="-0.45408">
        <ele>1460.860596</ele>
        <time>2012-07-24T13:12:54Z</time>
      </trkpt>
      <trkpt lat="42.86141" lon="-0.45407">
        <ele>1460.860596</ele>
        <time>2012-07-24T13:12:55Z</time>
      </trkpt>
      <trkpt lat="42.86143" lon="-0.45405">
        <ele>1460.379883</ele>
        <time>2012-07-24T13:12:57Z</time>
      </trkpt>
      <trkpt lat="42.86159" lon="-0.45385">
        <ele>1459.418701</ele>
        <time>2012-07-24T13:13:14Z</time>
      </trkpt>
      <trkpt lat="42.86163" lon="-0.45373">
        <ele>1457.015381</ele>
        <time>2012-07-24T13:13:26Z</time>
      </trkpt>
      <trkpt lat="42.86174" lon="-0.45359">
        <ele>1454.131592</ele>
        <time>2012-07-24T13:13:37Z</time>
      </trkpt>
      <trkpt lat="42.86183" lon="-0.45348">
        <ele>1453.650879</ele>
        <time>2012-07-24T13:13:47Z</time>
      </trkpt>
      <trkpt lat="42.86197" lon="-0.45322">
        <ele>1453.170166</ele>
        <time>2012-07-24T13:14:05Z</time>
      </trkpt>
      <trkpt lat="42.86212" lon="-0.45298">
        <ele>1453.170166</ele>
        <time>2012-07-24T13:14:24Z</time>
      </trkpt>
      <trkpt lat="42.8623" lon="-0.45275">
        <ele>1453.170166</ele>
        <time>2012-07-24T13:14:46Z</time>
      </trkpt>
      <trkpt lat="42.86248" lon="-0.45248">
        <ele>1452.689453</ele>
        <time>2012-07-24T13:15:07Z</time>
      </trkpt>
      <trkpt lat="42.86253" lon="-0.45239">
        <ele>1452.20874</ele>
        <time>2012-07-24T13:15:14Z</time>
      </trkpt>
      <trkpt lat="42.86274" lon="-0.4522">
        <ele>1452.20874</ele>
        <time>2012-07-24T13:15:34Z</time>
      </trkpt>
      <trkpt lat="42.863" lon="-0.45215">
        <ele>1451.728027</ele>
        <time>2012-07-24T13:15:56Z</time>
      </trkpt>
      <trkpt lat="42.8633" lon="-0.45227">
        <ele>1452.20874</ele>
        <time>2012-07-24T13:16:18Z</time>
      </trkpt>
      <trkpt lat="42.86353" lon="-0.45207">
        <ele>1453.170166</ele>
        <time>2012-07-24T13:16:38Z</time>
      </trkpt>
      <trkpt lat="42.86383" lon="-0.4517">
        <ele>1453.650879</ele>
        <time>2012-07-24T13:17:04Z</time>
      </trkpt>
      <trkpt lat="42.86396" lon="-0.4516">
        <ele>1453.650879</ele>
        <time>2012-07-24T13:17:17Z</time>
      </trkpt>
      <trkpt lat="42.86401" lon="-0.45158">
        <ele>1453.170166</ele>
        <time>2012-07-24T13:17:21Z</time>
      </trkpt>
      <trkpt lat="42.86407" lon="-0.45152">
        <ele>1453.170166</ele>
        <time>2012-07-24T13:17:25Z</time>
      </trkpt>
      <trkpt lat="42.86419" lon="-0.4513">
        <ele>1453.170166</ele>
        <time>2012-07-24T13:17:40Z</time>
      </trkpt>
      <trkpt lat="42.86427" lon="-0.4511">
        <ele>1452.689453</ele>
        <time>2012-07-24T13:17:52Z</time>
      </trkpt>
      <trkpt lat="42.86429" lon="-0.4508">
        <ele>1450.286133</ele>
        <time>2012-07-24T13:18:08Z</time>
      </trkpt>
      <trkpt lat="42.86435" lon="-0.45059">
        <ele>1446.921387</ele>
        <time>2012-07-24T13:18:21Z</time>
      </trkpt>
      <trkpt lat="42.86436" lon="-0.45056">
        <ele>1446.921387</ele>
        <time>2012-07-24T13:18:23Z</time>
      </trkpt>
      <trkpt lat="42.86441" lon="-0.45031">
        <ele>1444.518066</ele>
        <time>2012-07-24T13:18:39Z</time>
      </trkpt>
      <trkpt lat="42.86444" lon="-0.45012">
        <ele>1443.076172</ele>
        <time>2012-07-24T13:18:50Z</time>
      </trkpt>
      <trkpt lat="42.86443" lon="-0.45002">
        <ele>1442.595703</ele>
        <time>2012-07-24T13:18:56Z</time>
      </trkpt>
      <trkpt lat="42.86452" lon="-0.44982">
        <ele>1440.192383</ele>
        <time>2012-07-24T13:19:13Z</time>
      </trkpt>
      <trkpt lat="42.86465" lon="-0.44987">
        <ele>1439.230957</ele>
        <time>2012-07-24T13:19:23Z</time>
      </trkpt>
      <trkpt lat="42.86478" lon="-0.4501">
        <ele>1439.71167</ele>
        <time>2012-07-24T13:19:38Z</time>
      </trkpt>
      <trkpt lat="42.86488" lon="-0.4503">
        <ele>1439.71167</ele>
        <time>2012-07-24T13:19:51Z</time>
      </trkpt>
      <trkpt lat="42.86496" lon="-0.45034">
        <ele>1440.192383</ele>
        <time>2012-07-24T13:19:58Z</time>
      </trkpt>
      <trkpt lat="42.86515" lon="-0.45048">
        <ele>1439.71167</ele>
        <time>2012-07-24T13:20:16Z</time>
      </trkpt>
      <trkpt lat="42.86529" lon="-0.45049">
        <ele>1440.192383</ele>
        <time>2012-07-24T13:20:30Z</time>
      </trkpt>
      <trkpt lat="42.86548" lon="-0.45048">
        <ele>1441.153564</ele>
        <time>2012-07-24T13:20:46Z</time>
      </trkpt>
      <trkpt lat="42.86564" lon="-0.45044">
        <ele>1441.153564</ele>
        <time>2012-07-24T13:21:00Z</time>
      </trkpt>
      <trkpt lat="42.86585" lon="-0.45026">
        <ele>1440.672852</ele>
        <time>2012-07-24T13:21:20Z</time>
      </trkpt>
      <trkpt lat="42.86602" lon="-0.45006">
        <ele>1441.153564</ele>
        <time>2012-07-24T13:21:38Z</time>
      </trkpt>
      <trkpt lat="42.86626" lon="-0.44998">
        <ele>1441.634277</ele>
        <time>2012-07-24T13:21:58Z</time>
      </trkpt>
      <trkpt lat="42.8665" lon="-0.45002">
        <ele>1441.153564</ele>
        <time>2012-07-24T13:22:15Z</time>
      </trkpt>
      <trkpt lat="42.86674" lon="-0.45022">
        <ele>1441.153564</ele>
        <time>2012-07-24T13:22:33Z</time>
      </trkpt>
      <trkpt lat="42.86699" lon="-0.45027">
        <ele>1439.71167</ele>
        <time>2012-07-24T13:22:53Z</time>
      </trkpt>
      <trkpt lat="42.86718" lon="-0.45038">
        <ele>1440.672852</ele>
        <time>2012-07-24T13:23:10Z</time>
      </trkpt>
      <trkpt lat="42.86738" lon="-0.45036">
        <ele>1439.230957</ele>
        <time>2012-07-24T13:23:26Z</time>
      </trkpt>
      <trkpt lat="42.8676" lon="-0.45023">
        <ele>1438.269775</ele>
        <time>2012-07-24T13:23:44Z</time>
      </trkpt>
      <trkpt lat="42.86781" lon="-0.45003">
        <ele>1437.789062</ele>
        <time>2012-07-24T13:24:04Z</time>
      </trkpt>
      <trkpt lat="42.86799" lon="-0.44983">
        <ele>1438.269775</ele>
        <time>2012-07-24T13:24:22Z</time>
      </trkpt>
      <trkpt lat="42.86815" lon="-0.44956">
        <ele>1437.789062</ele>
        <time>2012-07-24T13:24:42Z</time>
      </trkpt>
      <trkpt lat="42.86824" lon="-0.44931">
        <ele>1435.866211</ele>
        <time>2012-07-24T13:24:58Z</time>
      </trkpt>
      <trkpt lat="42.8683" lon="-0.44901">
        <ele>1435.385498</ele>
        <time>2012-07-24T13:25:15Z</time>
      </trkpt>
      <trkpt lat="42.86839" lon="-0.44874">
        <ele>1434.905029</ele>
        <time>2012-07-24T13:25:31Z</time>
      </trkpt>
      <trkpt lat="42.86843" lon="-0.44858">
        <ele>1435.385498</ele>
        <time>2012-07-24T13:25:41Z</time>
      </trkpt>
      <trkpt lat="42.86857" lon="-0.44842">
        <ele>1434.905029</ele>
        <time>2012-07-24T13:25:56Z</time>
      </trkpt>
      <trkpt lat="42.86878" lon="-0.44825">
        <ele>1434.424316</ele>
        <time>2012-07-24T13:26:16Z</time>
      </trkpt>
      <trkpt lat="42.86908" lon="-0.44812">
        <ele>1432.020996</ele>
        <time>2012-07-24T13:26:42Z</time>
      </trkpt>
      <trkpt lat="42.86929" lon="-0.44801">
        <ele>1428.656494</ele>
        <time>2012-07-24T13:27:01Z</time>
      </trkpt>
      <trkpt lat="42.86945" lon="-0.44823">
        <ele>1425.772461</ele>
        <time>2012-07-24T13:27:20Z</time>
      </trkpt>
      <trkpt lat="42.86956" lon="-0.44857">
        <ele>1423.369385</ele>
        <time>2012-07-24T13:27:42Z</time>
      </trkpt>
      <trkpt lat="42.86962" lon="-0.44867">
        <ele>1421.446533</ele>
        <time>2012-07-24T13:27:56Z</time>
      </trkpt>
      <trkpt lat="42.86972" lon="-0.44888">
        <ele>1418.081787</ele>
        <time>2012-07-24T13:28:13Z</time>
      </trkpt>
      <trkpt lat="42.86975" lon="-0.44899">
        <ele>1416.639893</ele>
        <time>2012-07-24T13:28:22Z</time>
      </trkpt>
      <trkpt lat="42.86972" lon="-0.44919">
        <ele>1414.717285</ele>
        <time>2012-07-24T13:28:35Z</time>
      </trkpt>
      <trkpt lat="42.8697" lon="-0.44939">
        <ele>1413.275391</ele>
        <time>2012-07-24T13:28:48Z</time>
      </trkpt>
      <trkpt lat="42.86965" lon="-0.44958">
        <ele>1410.87207</ele>
        <time>2012-07-24T13:29:00Z</time>
      </trkpt>
      <trkpt lat="42.86963" lon="-0.44978">
        <ele>1408.949463</ele>
        <time>2012-07-24T13:29:13Z</time>
      </trkpt>
      <trkpt lat="42.8696" lon="-0.45006">
        <ele>1407.507568</ele>
        <time>2012-07-24T13:29:30Z</time>
      </trkpt>
      <trkpt lat="42.86956" lon="-0.45031">
        <ele>1405.104248</ele>
        <time>2012-07-24T13:29:49Z</time>
      </trkpt>
      <trkpt lat="42.86957" lon="-0.45035">
        <ele>1404.143066</ele>
        <time>2012-07-24T13:29:53Z</time>
      </trkpt>
      <trkpt lat="42.86961" lon="-0.45056">
        <ele>1402.219971</ele>
        <time>2012-07-24T13:30:05Z</time>
      </trkpt>
      <trkpt lat="42.86963" lon="-0.45061">
        <ele>1401.739502</ele>
        <time>2012-07-24T13:30:09Z</time>
      </trkpt>
      <trkpt lat="42.86976" lon="-0.45085">
        <ele>1400.297607</ele>
        <time>2012-07-24T13:30:27Z</time>
      </trkpt>
      <trkpt lat="42.86984" lon="-0.451">
        <ele>1396.932861</ele>
        <time>2012-07-24T13:30:40Z</time>
      </trkpt>
      <trkpt lat="42.86986" lon="-0.45099">
        <ele>1396.452393</ele>
        <time>2012-07-24T13:30:42Z</time>
      </trkpt>
      <trkpt lat="42.86988" lon="-0.45097">
        <ele>1395.010254</ele>
        <time>2012-07-24T13:30:45Z</time>
      </trkpt>
      <trkpt lat="42.8699" lon="-0.45087">
        <ele>1392.126465</ele>
        <time>2012-07-24T13:30:52Z</time>
      </trkpt>
      <trkpt lat="42.8699" lon="-0.4508">
        <ele>1390.203857</ele>
        <time>2012-07-24T13:30:57Z</time>
      </trkpt>
      <trkpt lat="42.8699" lon="-0.45078">
        <ele>1389.723145</ele>
        <time>2012-07-24T13:30:58Z</time>
      </trkpt>
      <trkpt lat="42.86995" lon="-0.45066">
        <ele>1386.358398</ele>
        <time>2012-07-24T13:31:07Z</time>
      </trkpt>
      <trkpt lat="42.86996" lon="-0.45056">
        <ele>1384.435791</ele>
        <time>2012-07-24T13:31:16Z</time>
      </trkpt>
      <trkpt lat="42.86998" lon="-0.45054">
        <ele>1382.032471</ele>
        <time>2012-07-24T13:31:21Z</time>
      </trkpt>
      <trkpt lat="42.87002" lon="-0.45051">
        <ele>1378.667969</ele>
        <time>2012-07-24T13:31:28Z</time>
      </trkpt>
      <trkpt lat="42.87003" lon="-0.4505">
        <ele>1377.706543</ele>
        <time>2012-07-24T13:31:30Z</time>
      </trkpt>
      <trkpt lat="42.87006" lon="-0.45047">
        <ele>1375.783936</ele>
        <time>2012-07-24T13:31:35Z</time>
      </trkpt>
      <trkpt lat="42.87012" lon="-0.45044">
        <ele>1372.419434</ele>
        <time>2012-07-24T13:31:44Z</time>
      </trkpt>
      <trkpt lat="42.87022" lon="-0.45037">
        <ele>1370.015869</ele>
        <time>2012-07-24T13:31:59Z</time>
      </trkpt>
      <trkpt lat="42.87026" lon="-0.45035">
        <ele>1367.13208</ele>
        <time>2012-07-24T13:32:04Z</time>
      </trkpt>
      <trkpt lat="42.87029" lon="-0.45033">
        <ele>1363.767334</ele>
        <time>2012-07-24T13:32:09Z</time>
      </trkpt>
      <trkpt lat="42.87036" lon="-0.45029">
        <ele>1360.402832</ele>
        <time>2012-07-24T13:32:19Z</time>
      </trkpt>
      <trkpt lat="42.87036" lon="-0.45029">
        <ele>1360.883545</ele>
        <time>2012-07-24T13:32:20Z</time>
      </trkpt>
      <trkpt lat="42.8704" lon="-0.45023">
        <ele>1359.44165</ele>
        <time>2012-07-24T13:32:27Z</time>
      </trkpt>
      <trkpt lat="42.87042" lon="-0.45022">
        <ele>1357.999756</ele>
        <time>2012-07-24T13:32:29Z</time>
      </trkpt>
      <trkpt lat="42.87051" lon="-0.45008">
        <ele>1355.596191</ele>
        <time>2012-07-24T13:32:44Z</time>
      </trkpt>
      <trkpt lat="42.87057" lon="-0.45004">
        <ele>1353.192871</ele>
        <time>2012-07-24T13:32:55Z</time>
      </trkpt>
      <trkpt lat="42.87058" lon="-0.45001">
        <ele>1351.750977</ele>
        <time>2012-07-24T13:32:57Z</time>
      </trkpt>
      <trkpt lat="42.8706" lon="-0.44993">
        <ele>1350.309082</ele>
        <time>2012-07-24T13:33:05Z</time>
      </trkpt>
      <trkpt lat="42.8707" lon="-0.44966">
        <ele>1347.425049</ele>
        <time>2012-07-24T13:33:23Z</time>
      </trkpt>
      <trkpt lat="42.87083" lon="-0.44953">
        <ele>1346.463867</ele>
        <time>2012-07-24T13:33:38Z</time>
      </trkpt>
      <trkpt lat="42.87092" lon="-0.44946">
        <ele>1345.021729</ele>
        <time>2012-07-24T13:33:47Z</time>
      </trkpt>
      <trkpt lat="42.87113" lon="-0.44945">
        <ele>1344.541016</ele>
        <time>2012-07-24T13:34:05Z</time>
      </trkpt>
      <trkpt lat="42.87114" lon="-0.44944">
        <ele>1344.060547</ele>
        <time>2012-07-24T13:34:06Z</time>
      </trkpt>
      <trkpt lat="42.87119" lon="-0.44939">
        <ele>1344.541016</ele>
        <time>2012-07-24T13:34:11Z</time>
      </trkpt>
      <trkpt lat="42.87128" lon="-0.44938">
        <ele>1344.060547</ele>
        <time>2012-07-24T13:34:19Z</time>
      </trkpt>
      <trkpt lat="42.87135" lon="-0.44931">
        <ele>1342.137939</ele>
        <time>2012-07-24T13:34:27Z</time>
      </trkpt>
      <trkpt lat="42.87136" lon="-0.44928">
        <ele>1341.657227</ele>
        <time>2012-07-24T13:34:29Z</time>
      </trkpt>
      <trkpt lat="42.8714" lon="-0.44927">
        <ele>1341.176514</ele>
        <time>2012-07-24T13:34:34Z</time>
      </trkpt>
      <trkpt lat="42.87145" lon="-0.44918">
        <ele>1339.734375</ele>
        <time>2012-07-24T13:34:40Z</time>
      </trkpt>
      <trkpt lat="42.87159" lon="-0.44905">
        <ele>1338.29248</ele>
        <time>2012-07-24T13:34:54Z</time>
      </trkpt>
      <trkpt lat="42.87166" lon="-0.44897">
        <ele>1336.369873</ele>
        <time>2012-07-24T13:35:03Z</time>
      </trkpt>
      <trkpt lat="42.87169" lon="-0.44895">
        <ele>1334.927979</ele>
        <time>2012-07-24T13:35:06Z</time>
      </trkpt>
      <trkpt lat="42.87185" lon="-0.44876">
        <ele>1333.966553</ele>
        <time>2012-07-24T13:35:23Z</time>
      </trkpt>
      <trkpt lat="42.87203" lon="-0.44864">
        <ele>1333.48584</ele>
        <time>2012-07-24T13:35:40Z</time>
      </trkpt>
      <trkpt lat="42.87223" lon="-0.44866">
        <ele>1333.005127</ele>
        <time>2012-07-24T13:35:56Z</time>
      </trkpt>
      <trkpt lat="42.87242" lon="-0.44863">
        <ele>1329.640625</ele>
        <time>2012-07-24T13:36:12Z</time>
      </trkpt>
      <trkpt lat="42.87265" lon="-0.44852">
        <ele>1328.19873</ele>
        <time>2012-07-24T13:36:32Z</time>
      </trkpt>
      <trkpt lat="42.87282" lon="-0.44828">
        <ele>1326.756836</ele>
        <time>2012-07-24T13:36:51Z</time>
      </trkpt>
      <trkpt lat="42.87294" lon="-0.44803">
        <ele>1326.276123</ele>
        <time>2012-07-24T13:37:10Z</time>
      </trkpt>
      <trkpt lat="42.87307" lon="-0.44783">
        <ele>1325.79541</ele>
        <time>2012-07-24T13:37:29Z</time>
      </trkpt>
      <trkpt lat="42.87308" lon="-0.44783">
        <ele>1325.79541</ele>
        <time>2012-07-24T13:37:35Z</time>
      </trkpt>
    </trkseg>
  </trk>
</gpx>